Time,TemperatureF,DewpointF,PressureIn,WindDirection,WindDirectionDegrees,WindSpeedMPH,WindSpeedGustMPH,Humidity,HourlyPrecipIn,Conditions,Clouds,dailyrainin,SoftwareType,DateUTC
2013-07-30 00:00:00,72.1,61.4,29.88,NE,45,1.0,2.7,69,0.00,,---,0.00,VWS V14.00,2013-07-30 05:00:00,
2013-07-30 00:01:00,72.1,61.4,29.88,NE,45,1.0,1.0,69,0.00,,---,0.00,VWS V14.00,2013-07-30 05:01:00,
2013-07-30 00:02:00,72.1,61.4,29.88,NE,45,2.7,2.7,69,0.00,,---,0.00,VWS V14.00,2013-07-30 05:02:00,
2013-07-30 00:03:00,72.1,61.4,29.88,South,180,1.0,2.0,69,0.00,,---,0.00,VWS V14.00,2013-07-30 05:03:00,
2013-07-30 00:04:00,72.0,61.2,29.88,East,90,3.8,3.8,69,0.00,,---,0.00,VWS V14.00,2013-07-30 05:04:00,
2013-07-30 00:05:00,72.0,61.2,29.88,East,90,4.1,4.1,69,0.00,,---,0.00,VWS V14.00,2013-07-30 05:05:00,
2013-07-30 00:06:00,72.0,61.2,29.88,ENE,68,1.0,2.5,69,0.00,,---,0.00,VWS V14.00,2013-07-30 05:06:00,
2013-07-30 00:07:00,72.0,61.2,29.88,ENE,68,1.0,0.0,69,0.00,,---,0.00,VWS V14.00,2013-07-30 05:07:00,
2013-07-30 00:08:00,72.0,61.2,29.88,ENE,68,1.0,0.0,69,0.00,,---,0.00,VWS V14.00,2013-07-30 05:08:00,
2013-07-30 00:09:00,72.0,61.2,29.88,ENE,68,1.0,0.0,69,0.00,,---,0.00,VWS V14.00,2013-07-30 05:09:00,
2013-07-30 00:10:00,72.0,61.2,29.88,SE,135,3.0,3.1,69,0.00,,---,0.00,VWS V14.00,2013-07-30 05:10:00,
2013-07-30 00:11:00,72.0,61.2,29.88,East,90,3.0,3.0,69,0.00,,---,0.00,VWS V14.00,2013-07-30 05:11:00,
2013-07-30 00:12:00,72.0,61.2,29.88,East,90,2.7,2.7,69,0.00,,---,0.00,VWS V14.00,2013-07-30 05:12:00,
2013-07-30 00:13:00,71.8,61.1,29.88,East,90,1.0,1.3,69,0.00,,---,0.00,VWS V14.00,2013-07-30 05:13:00,
2013-07-30 00:14:00,71.8,61.1,29.88,East,90,2.4,2.4,69,0.00,,---,0.00,VWS V14.00,2013-07-30 05:14:00,
2013-07-30 00:15:00,71.8,61.1,29.88,East,90,1.0,1.3,69,0.00,,---,0.00,VWS V14.00,2013-07-30 05:15:00,
2013-07-30 00:16:00,71.8,61.1,29.88,East,90,1.0,0.0,69,0.00,,---,0.00,VWS V14.00,2013-07-30 05:16:00,
2013-07-30 00:17:00,71.8,61.1,29.88,East,90,2.7,2.7,69,0.00,,---,0.00,VWS V14.00,2013-07-30 05:17:00,
2013-07-30 00:18:00,71.8,61.1,29.88,East,90,1.0,1.3,69,0.00,,---,0.00,VWS V14.00,2013-07-30 05:18:00,
2013-07-30 00:19:00,71.8,61.1,29.88,East,90,1.0,0.0,69,0.00,,---,0.00,VWS V14.00,2013-07-30 05:19:00,
2013-07-30 00:20:00,71.8,61.1,29.88,East,90,4.9,4.9,69,0.00,,---,0.00,VWS V14.00,2013-07-30 05:20:00,
2013-07-30 00:21:00,71.6,60.9,29.88,East,90,2.7,3.1,69,0.00,,---,0.00,VWS V14.00,2013-07-30 05:21:00,
2013-07-30 00:22:00,71.6,60.9,29.88,ESE,112,2.4,2.4,69,0.00,,---,0.00,VWS V14.00,2013-07-30 05:22:00,
2013-07-30 00:23:00,71.6,61.3,29.88,ESE,112,1.0,1.1,70,0.00,,---,0.00,VWS V14.00,2013-07-30 05:23:00,
2013-07-30 00:24:00,71.6,61.3,29.88,ESE,112,1.0,1.0,70,0.00,,---,0.00,VWS V14.00,2013-07-30 05:24:00,
2013-07-30 00:25:00,71.6,61.3,29.88,ESE,112,4.1,4.1,70,0.00,,---,0.00,VWS V14.00,2013-07-30 05:25:00,
2013-07-30 00:26:00,71.6,61.3,29.88,ESE,112,3.8,3.8,70,0.00,,---,0.00,VWS V14.00,2013-07-30 05:26:00,
2013-07-30 00:27:00,71.6,61.3,29.88,ESE,112,1.0,2.2,70,0.00,,---,0.00,VWS V14.00,2013-07-30 05:27:00,
2013-07-30 00:28:00,71.6,61.3,29.88,ESE,112,1.0,0.0,70,0.00,,---,0.00,VWS V14.00,2013-07-30 05:28:00,
2013-07-30 00:29:00,71.6,61.3,29.88,ESE,112,1.0,1.6,70,0.00,,---,0.00,VWS V14.00,2013-07-30 05:29:00,
2013-07-30 00:30:00,71.6,61.3,29.88,ESE,112,2.7,2.7,70,0.00,,---,0.00,VWS V14.00,2013-07-30 05:30:00,
2013-07-30 00:31:00,71.6,61.3,29.88,ESE,112,4.9,4.9,70,0.00,,---,0.00,VWS V14.00,2013-07-30 05:31:00,
2013-07-30 00:32:00,71.6,61.3,29.88,East,90,3.5,3.6,70,0.00,,---,0.00,VWS V14.00,2013-07-30 05:32:00,
2013-07-30 00:33:00,71.6,61.3,29.88,ENE,68,1.0,2.2,70,0.00,,---,0.00,VWS V14.00,2013-07-30 05:33:00,
2013-07-30 00:34:00,71.6,61.3,29.88,ENE,68,1.0,1.0,70,0.00,,---,0.00,VWS V14.00,2013-07-30 05:34:00,
2013-07-30 00:35:00,71.6,61.3,29.88,ENE,68,3.0,3.0,70,0.00,,---,0.00,VWS V14.00,2013-07-30 05:35:00,
2013-07-30 00:36:00,71.6,61.3,29.88,ENE,68,2.4,2.4,70,0.00,,---,0.00,VWS V14.00,2013-07-30 05:36:00,
2013-07-30 00:37:00,71.4,61.1,29.88,ENE,68,2.1,2.1,70,0.00,,---,0.00,VWS V14.00,2013-07-30 05:37:00,
2013-07-30 00:38:00,71.4,61.1,29.88,SE,135,2.7,2.7,70,0.00,,---,0.00,VWS V14.00,2013-07-30 05:38:00,
2013-07-30 00:39:00,71.4,61.1,29.88,SE,135,2.4,2.4,70,0.00,,---,0.00,VWS V14.00,2013-07-30 05:39:00,
2013-07-30 00:40:00,71.4,61.1,29.88,SE,135,2.4,2.4,70,0.00,,---,0.00,VWS V14.00,2013-07-30 05:40:00,
2013-07-30 00:41:00,71.4,61.1,29.88,SE,135,1.0,2.0,70,0.00,,---,0.00,VWS V14.00,2013-07-30 05:41:00,
2013-07-30 00:42:00,71.4,61.1,29.88,ESE,112,1.0,1.6,70,0.00,,---,0.00,VWS V14.00,2013-07-30 05:42:00,
2013-07-30 00:43:00,71.4,61.1,29.88,SE,135,3.0,3.0,70,0.00,,---,0.00,VWS V14.00,2013-07-30 05:43:00,
2013-07-30 00:44:00,71.4,61.1,29.88,SE,135,4.6,4.6,70,0.00,,---,0.00,VWS V14.00,2013-07-30 05:44:00,
2013-07-30 00:45:00,71.4,61.1,29.88,East,90,4.1,4.1,70,0.00,,---,0.00,VWS V14.00,2013-07-30 05:45:00,
2013-07-30 00:46:00,71.4,61.1,29.88,East,90,4.1,4.1,70,0.00,,---,0.00,VWS V14.00,2013-07-30 05:46:00,
2013-07-30 00:47:00,71.4,61.1,29.88,SE,135,5.2,5.2,70,0.00,,---,0.00,VWS V14.00,2013-07-30 05:47:00,
2013-07-30 00:48:00,71.4,61.1,29.88,SE,135,3.8,4.0,70,0.00,,---,0.00,VWS V14.00,2013-07-30 05:48:00,
2013-07-30 00:49:00,71.4,61.1,29.88,East,90,3.5,3.5,70,0.00,,---,0.00,VWS V14.00,2013-07-30 05:49:00,
2013-07-30 00:50:00,71.4,61.1,29.88,SE,135,4.1,4.1,70,0.00,,---,0.00,VWS V14.00,2013-07-30 05:50:00,
2013-07-30 00:51:00,71.4,61.1,29.88,East,90,4.4,4.4,70,0.00,,---,0.00,VWS V14.00,2013-07-30 05:51:00,
2013-07-30 00:52:00,71.4,61.1,29.88,East,90,5.8,5.8,70,0.00,,---,0.00,VWS V14.00,2013-07-30 05:52:00,
2013-07-30 00:53:00,71.4,61.1,29.88,SE,135,5.8,5.8,70,0.00,,---,0.00,VWS V14.00,2013-07-30 05:53:00,
2013-07-30 00:54:00,71.4,61.1,29.88,SE,135,2.7,3.8,70,0.00,,---,0.00,VWS V14.00,2013-07-30 05:54:00,
2013-07-30 00:55:00,71.4,61.1,29.88,SE,135,3.8,3.8,70,0.00,,---,0.00,VWS V14.00,2013-07-30 05:55:00,
2013-07-30 00:56:00,71.4,61.1,29.88,SE,135,4.9,4.9,70,0.00,,---,0.00,VWS V14.00,2013-07-30 05:56:00,
2013-07-30 00:57:00,71.4,61.1,29.88,East,90,2.7,3.1,70,0.00,,---,0.00,VWS V14.00,2013-07-30 05:57:00,
2013-07-30 00:58:00,71.4,61.1,29.88,South,180,2.1,2.2,70,0.00,,---,0.00,VWS V14.00,2013-07-30 05:58:00,
2013-07-30 00:59:00,71.1,61.2,29.88,ESE,112,2.4,2.4,71,0.00,,---,0.00,VWS V14.00,2013-07-30 05:59:00,
2013-07-30 01:00:00,71.1,61.2,29.88,ESE,112,2.7,2.7,71,0.00,,---,0.00,VWS V14.00,2013-07-30 06:00:00,
2013-07-30 01:01:00,71.1,61.2,29.88,ESE,112,1.0,1.3,71,0.00,,---,0.00,VWS V14.00,2013-07-30 06:01:00,
2013-07-30 01:02:00,71.1,61.2,29.88,SE,135,3.8,3.8,71,0.00,,---,0.00,VWS V14.00,2013-07-30 06:02:00,
2013-07-30 01:03:00,71.1,61.2,29.88,ESE,112,3.5,3.5,71,0.00,,---,0.00,VWS V14.00,2013-07-30 06:03:00,
2013-07-30 01:04:00,70.9,61.0,29.88,ESE,112,2.7,2.7,71,0.00,,---,0.00,VWS V14.00,2013-07-30 06:04:00,
2013-07-30 01:06:00,70.9,61.0,29.88,ESE,112,2.7,2.7,71,0.00,,---,0.00,VWS V14.00,2013-07-30 06:06:00,
2013-07-30 01:07:00,70.9,61.0,29.88,ESE,112,2.7,2.7,71,0.00,,---,0.00,VWS V14.00,2013-07-30 06:07:00,
2013-07-30 01:08:00,70.9,61.0,29.88,ESE,112,1.0,1.3,71,0.00,,---,0.00,VWS V14.00,2013-07-30 06:08:00,
2013-07-30 01:09:00,70.9,61.0,29.88,ESE,112,2.4,2.4,71,0.00,,---,0.00,VWS V14.00,2013-07-30 06:09:00,
2013-07-30 01:10:00,70.9,61.0,29.88,ESE,112,1.0,1.1,71,0.00,,---,0.00,VWS V14.00,2013-07-30 06:10:00,
2013-07-30 01:11:00,70.9,61.0,29.88,ESE,112,1.0,0.0,71,0.00,,---,0.00,VWS V14.00,2013-07-30 06:11:00,
2013-07-30 01:12:00,70.9,61.0,29.88,ESE,112,1.0,0.0,71,0.00,,---,0.00,VWS V14.00,2013-07-30 06:12:00,
2013-07-30 01:13:00,70.9,61.0,29.88,ESE,112,1.0,0.0,71,0.00,,---,0.00,VWS V14.00,2013-07-30 06:13:00,
2013-07-30 01:14:00,70.9,61.0,29.88,ESE,112,3.0,3.0,71,0.00,,---,0.00,VWS V14.00,2013-07-30 06:14:00,
2013-07-30 01:15:00,70.9,61.0,29.88,ESE,112,3.5,3.5,71,0.00,,---,0.00,VWS V14.00,2013-07-30 06:15:00,
2013-07-30 01:16:00,70.9,61.0,29.88,ESE,112,4.6,4.6,71,0.00,,---,0.00,VWS V14.00,2013-07-30 06:16:00,
2013-07-30 01:17:00,70.9,61.0,29.88,ESE,112,2.7,3.1,71,0.00,,---,0.00,VWS V14.00,2013-07-30 06:17:00,
2013-07-30 01:18:00,70.9,61.0,29.88,ESE,112,2.7,2.7,71,0.00,,---,0.00,VWS V14.00,2013-07-30 06:18:00,
2013-07-30 01:19:00,70.9,61.0,29.88,ESE,112,3.5,3.5,71,0.00,,---,0.00,VWS V14.00,2013-07-30 06:19:00,
2013-07-30 01:20:00,70.9,61.0,29.88,ESE,112,2.7,2.7,71,0.00,,---,0.00,VWS V14.00,2013-07-30 06:20:00,
2013-07-30 01:21:00,70.9,61.0,29.88,ESE,112,1.0,1.3,71,0.00,,---,0.00,VWS V14.00,2013-07-30 06:21:00,
2013-07-30 01:22:00,70.9,61.0,29.88,ESE,112,1.0,0.0,71,0.00,,---,0.00,VWS V14.00,2013-07-30 06:22:00,
2013-07-30 01:23:00,70.9,61.0,29.88,ESE,112,1.0,2.2,71,0.00,,---,0.00,VWS V14.00,2013-07-30 06:23:00,
2013-07-30 01:24:00,70.9,61.0,29.88,ESE,112,1.0,0.0,71,0.00,,---,0.00,VWS V14.00,2013-07-30 06:24:00,
2013-07-30 01:25:00,70.9,61.0,29.88,ESE,112,3.0,3.0,71,0.00,,---,0.00,VWS V14.00,2013-07-30 06:25:00,
2013-07-30 01:26:00,70.9,61.0,29.88,ESE,112,2.4,2.4,71,0.00,,---,0.00,VWS V14.00,2013-07-30 06:26:00,
2013-07-30 01:27:00,70.9,61.0,29.88,ESE,112,2.4,2.4,71,0.00,,---,0.00,VWS V14.00,2013-07-30 06:27:00,
2013-07-30 01:28:00,70.9,61.0,29.88,ESE,112,1.0,1.1,71,0.00,,---,0.00,VWS V14.00,2013-07-30 06:28:00,
2013-07-30 01:29:00,70.9,61.0,29.88,ESE,112,1.0,0.0,71,0.00,,---,0.00,VWS V14.00,2013-07-30 06:29:00,
2013-07-30 01:30:00,70.9,61.0,29.88,ESE,112,1.0,1.6,71,0.00,,---,0.00,VWS V14.00,2013-07-30 06:30:00,
2013-07-30 01:31:00,70.9,61.0,29.88,ESE,112,1.0,0.0,71,0.00,,---,0.00,VWS V14.00,2013-07-30 06:31:00,
2013-07-30 01:32:00,70.9,61.0,29.88,ESE,112,1.0,0.0,71,0.00,,---,0.00,VWS V14.00,2013-07-30 06:32:00,
2013-07-30 01:33:00,70.9,61.0,29.88,ESE,112,1.0,0.0,71,0.00,,---,0.00,VWS V14.00,2013-07-30 06:33:00,
2013-07-30 01:34:00,70.9,61.0,29.88,ESE,112,2.1,2.1,71,0.00,,---,0.00,VWS V14.00,2013-07-30 06:34:00,
2013-07-30 01:35:00,70.9,61.0,29.88,ESE,112,2.4,2.4,71,0.00,,---,0.00,VWS V14.00,2013-07-30 06:35:00,
2013-07-30 01:36:00,70.9,61.0,29.88,ESE,112,2.4,2.4,71,0.00,,---,0.00,VWS V14.00,2013-07-30 06:36:00,
2013-07-30 01:37:00,70.9,61.0,29.88,ESE,112,3.8,3.8,71,0.00,,---,0.00,VWS V14.00,2013-07-30 06:37:00,
2013-07-30 01:38:00,70.9,61.0,29.88,ESE,112,1.0,2.2,71,0.00,,---,0.00,VWS V14.00,2013-07-30 06:38:00,
2013-07-30 01:39:00,70.9,61.0,29.88,ENE,68,1.0,1.3,71,0.00,,---,0.00,VWS V14.00,2013-07-30 06:39:00,
2013-07-30 01:40:00,70.9,61.0,29.88,ENE,68,1.0,0.0,71,0.00,,---,0.00,VWS V14.00,2013-07-30 06:40:00,
2013-07-30 01:41:00,70.9,61.0,29.88,ESE,112,2.7,2.7,71,0.00,,---,0.00,VWS V14.00,2013-07-30 06:41:00,
2013-07-30 01:42:00,70.9,61.0,29.88,East,90,3.5,3.5,71,0.00,,---,0.00,VWS V14.00,2013-07-30 06:42:00,
2013-07-30 01:43:00,70.9,61.0,29.88,ESE,112,1.0,2.0,71,0.00,,---,0.00,VWS V14.00,2013-07-30 06:43:00,
2013-07-30 01:44:00,70.9,61.0,29.88,East,90,2.1,2.2,71,0.00,,---,0.00,VWS V14.00,2013-07-30 06:44:00,
2013-07-30 01:45:00,70.9,61.0,29.88,SE,135,3.8,3.8,71,0.00,,---,0.00,VWS V14.00,2013-07-30 06:45:00,
2013-07-30 01:46:00,70.9,61.0,29.88,SE,135,1.0,2.2,71,0.00,,---,0.00,VWS V14.00,2013-07-30 06:46:00,
2013-07-30 01:47:00,70.9,61.0,29.88,SE,135,1.0,1.3,71,0.00,,---,0.00,VWS V14.00,2013-07-30 06:47:00,
2013-07-30 01:48:00,70.9,61.0,29.88,SE,135,2.7,2.7,71,0.00,,---,0.00,VWS V14.00,2013-07-30 06:48:00,
2013-07-30 01:49:00,70.9,61.0,29.88,SE,135,1.0,1.3,71,0.00,,---,0.00,VWS V14.00,2013-07-30 06:49:00,
2013-07-30 01:50:00,70.9,61.0,29.88,SE,135,1.0,1.0,71,0.00,,---,0.00,VWS V14.00,2013-07-30 06:50:00,
2013-07-30 01:51:00,70.9,61.0,29.88,SE,135,1.0,0.0,71,0.00,,---,0.00,VWS V14.00,2013-07-30 06:51:00,
2013-07-30 01:52:00,70.9,61.0,29.88,SE,135,1.0,0.0,71,0.00,,---,0.00,VWS V14.00,2013-07-30 06:52:00,
2013-07-30 01:53:00,70.9,61.0,29.88,SE,135,2.4,2.4,71,0.00,,---,0.00,VWS V14.00,2013-07-30 06:53:00,
2013-07-30 01:55:00,70.9,61.0,29.88,SE,135,2.7,2.7,71,0.00,,---,0.00,VWS V14.00,2013-07-30 06:55:00,
2013-07-30 01:56:00,70.9,61.0,29.88,SE,135,2.1,2.1,71,0.00,,---,0.00,VWS V14.00,2013-07-30 06:56:00,
2013-07-30 01:57:00,70.9,61.0,29.88,ESE,112,3.0,3.0,71,0.00,,---,0.00,VWS V14.00,2013-07-30 06:57:00,
2013-07-30 01:58:00,70.9,61.0,29.88,ESE,112,3.5,3.5,71,0.00,,---,0.00,VWS V14.00,2013-07-30 06:58:00,
2013-07-30 01:59:00,70.9,61.0,29.88,ESE,112,1.0,2.0,71,0.00,,---,0.00,VWS V14.00,2013-07-30 06:59:00,
2013-07-30 02:00:00,70.9,61.0,29.88,ESE,112,2.7,2.7,71,0.00,,---,0.00,VWS V14.00,2013-07-30 07:00:00,
2013-07-30 02:01:00,70.9,61.0,29.88,SE,135,2.7,2.7,71,0.00,,---,0.00,VWS V14.00,2013-07-30 07:01:00,
2013-07-30 02:02:00,70.9,61.0,29.88,SE,135,3.0,3.0,71,0.00,,---,0.00,VWS V14.00,2013-07-30 07:02:00,
2013-07-30 02:03:00,70.9,61.0,29.88,ESE,112,3.5,3.5,71,0.00,,---,0.00,VWS V14.00,2013-07-30 07:03:00,
2013-07-30 02:04:00,70.9,61.0,29.88,ESE,112,3.5,3.5,71,0.00,,---,0.00,VWS V14.00,2013-07-30 07:04:00,
2013-07-30 02:05:00,70.9,61.0,29.88,ESE,112,3.5,3.5,71,0.00,,---,0.00,VWS V14.00,2013-07-30 07:05:00,
2013-07-30 02:06:00,70.9,61.0,29.88,ESE,112,3.8,3.8,71,0.00,,---,0.00,VWS V14.00,2013-07-30 07:06:00,
2013-07-30 02:07:00,70.9,61.0,29.88,East,90,4.1,4.1,71,0.00,,---,0.00,VWS V14.00,2013-07-30 07:07:00,
2013-07-30 02:08:00,70.9,61.0,29.88,SE,135,4.4,4.4,71,0.00,,---,0.00,VWS V14.00,2013-07-30 07:08:00,
2013-07-30 02:09:00,70.9,61.0,29.88,East,90,1.0,2.7,71,0.00,,---,0.00,VWS V14.00,2013-07-30 07:09:00,
2013-07-30 02:10:00,70.9,61.0,29.88,East,90,1.0,0.0,71,0.00,,---,0.00,VWS V14.00,2013-07-30 07:10:00,
2013-07-30 02:11:00,70.9,61.0,29.88,East,90,1.0,0.0,71,0.00,,---,0.00,VWS V14.00,2013-07-30 07:11:00,
2013-07-30 02:12:00,70.9,61.0,29.88,East,90,1.0,0.0,71,0.00,,---,0.00,VWS V14.00,2013-07-30 07:12:00,
2013-07-30 02:13:00,70.9,61.0,29.88,SE,135,2.7,2.7,71,0.00,,---,0.00,VWS V14.00,2013-07-30 07:13:00,
2013-07-30 02:14:00,70.9,61.0,29.88,SE,135,2.7,2.7,71,0.00,,---,0.00,VWS V14.00,2013-07-30 07:14:00,
2013-07-30 02:15:00,70.9,61.0,29.88,SE,135,2.7,2.7,71,0.00,,---,0.00,VWS V14.00,2013-07-30 07:15:00,
2013-07-30 02:16:00,70.9,61.0,29.88,SE,135,2.1,2.1,71,0.00,,---,0.00,VWS V14.00,2013-07-30 07:16:00,
2013-07-30 02:17:00,70.9,61.0,29.88,ENE,68,2.7,2.7,71,0.00,,---,0.00,VWS V14.00,2013-07-30 07:17:00,
2013-07-30 02:18:00,70.9,61.0,29.88,East,90,2.1,2.1,71,0.00,,---,0.00,VWS V14.00,2013-07-30 07:18:00,
2013-07-30 02:19:00,70.9,61.0,29.88,ESE,112,2.7,2.7,71,0.00,,---,0.00,VWS V14.00,2013-07-30 07:19:00,
2013-07-30 02:20:00,70.9,61.0,29.88,ESE,112,2.7,2.7,71,0.00,,---,0.00,VWS V14.00,2013-07-30 07:20:00,
2013-07-30 02:21:00,70.9,61.0,29.88,ESE,112,2.7,2.7,71,0.00,,---,0.00,VWS V14.00,2013-07-30 07:21:00,
2013-07-30 02:22:00,70.9,61.0,29.88,ESE,112,2.7,2.7,71,0.00,,---,0.00,VWS V14.00,2013-07-30 07:22:00,
2013-07-30 02:23:00,70.9,61.0,29.88,ESE,112,2.7,2.7,71,0.00,,---,0.00,VWS V14.00,2013-07-30 07:23:00,
2013-07-30 02:24:00,70.9,61.0,29.88,ESE,112,2.7,2.7,71,0.00,,---,0.00,VWS V14.00,2013-07-30 07:24:00,
2013-07-30 02:25:00,70.9,61.0,29.88,ESE,112,2.7,2.7,71,0.00,,---,0.00,VWS V14.00,2013-07-30 07:25:00,
2013-07-30 02:26:00,70.9,61.0,29.88,ESE,112,2.7,2.7,71,0.00,,---,0.00,VWS V14.00,2013-07-30 07:26:00,
2013-07-30 02:27:00,70.9,61.0,29.88,ESE,112,2.7,2.7,71,0.00,,---,0.00,VWS V14.00,2013-07-30 07:27:00,
2013-07-30 02:28:00,70.9,61.0,29.88,SE,135,4.1,4.1,71,0.00,,---,0.00,VWS V14.00,2013-07-30 07:28:00,
2013-07-30 02:29:00,70.9,61.0,29.88,SE,135,4.1,4.1,71,0.00,,---,0.00,VWS V14.00,2013-07-30 07:29:00,
2013-07-30 02:30:00,70.9,61.0,29.88,SE,135,4.1,4.1,71,0.00,,---,0.00,VWS V14.00,2013-07-30 07:30:00,
2013-07-30 02:31:00,70.9,61.0,29.88,SE,135,4.1,4.1,71,0.00,,---,0.00,VWS V14.00,2013-07-30 07:31:00,
2013-07-30 02:32:00,70.9,61.0,29.88,SE,135,4.1,4.1,71,0.00,,---,0.00,VWS V14.00,2013-07-30 07:32:00,
2013-07-30 02:33:00,70.9,61.0,29.88,SE,135,4.1,4.1,71,0.00,,---,0.00,VWS V14.00,2013-07-30 07:33:00,
2013-07-30 02:34:00,70.9,61.0,29.88,SE,135,4.1,4.1,71,0.00,,---,0.00,VWS V14.00,2013-07-30 07:34:00,
2013-07-30 02:36:00,70.9,61.0,29.88,SE,135,4.1,4.1,71,0.00,,---,0.00,VWS V14.00,2013-07-30 07:36:00,
2013-07-30 02:37:00,70.9,61.0,29.88,SE,135,4.1,4.1,71,0.00,,---,0.00,VWS V14.00,2013-07-30 07:37:00,
2013-07-30 02:38:00,70.9,61.0,29.88,SE,135,4.1,4.1,71,0.00,,---,0.00,VWS V14.00,2013-07-30 07:38:00,
2013-07-30 02:39:00,70.9,61.0,29.88,SE,135,4.1,4.1,71,0.00,,---,0.00,VWS V14.00,2013-07-30 07:39:00,
2013-07-30 02:40:00,70.9,61.0,29.88,SE,135,4.1,4.1,71,0.00,,---,0.00,VWS V14.00,2013-07-30 07:40:00,
2013-07-30 02:41:00,70.9,61.0,29.88,SE,135,4.1,4.1,71,0.00,,---,0.00,VWS V14.00,2013-07-30 07:41:00,
2013-07-30 02:42:00,70.9,61.0,29.88,SE,135,4.1,4.1,71,0.00,,---,0.00,VWS V14.00,2013-07-30 07:42:00,
2013-07-30 02:43:00,70.9,61.0,29.88,SE,135,4.1,4.1,71,0.00,,---,0.00,VWS V14.00,2013-07-30 07:43:00,
2013-07-30 02:44:00,70.9,61.0,29.88,SE,135,4.1,4.1,71,0.00,,---,0.00,VWS V14.00,2013-07-30 07:44:00,
2013-07-30 02:45:00,70.9,61.0,29.88,SE,135,4.1,4.1,71,0.00,,---,0.00,VWS V14.00,2013-07-30 07:45:00,
2013-07-30 02:46:00,70.9,61.0,29.88,SE,135,4.1,4.1,71,0.00,,---,0.00,VWS V14.00,2013-07-30 07:46:00,
2013-07-30 02:47:00,70.9,61.0,29.88,SE,135,4.1,4.1,71,0.00,,---,0.00,VWS V14.00,2013-07-30 07:47:00,
2013-07-30 02:48:00,70.9,61.0,29.85,SE,135,4.1,4.1,71,0.00,,---,0.00,VWS V14.00,2013-07-30 07:48:00,
2013-07-30 02:49:00,70.9,61.0,29.85,ESE,112,3.0,3.0,71,0.00,,---,0.00,VWS V14.00,2013-07-30 07:49:00,
2013-07-30 02:50:00,70.9,61.0,29.85,ESE,112,3.0,3.0,71,0.00,,---,0.00,VWS V14.00,2013-07-30 07:50:00,
2013-07-30 02:51:00,70.9,61.0,29.85,ESE,112,3.0,3.0,71,0.00,,---,0.00,VWS V14.00,2013-07-30 07:51:00,
2013-07-30 02:52:00,70.9,61.0,29.85,ESE,112,3.0,3.0,71,0.00,,---,0.00,VWS V14.00,2013-07-30 07:52:00,
2013-07-30 02:53:00,70.9,61.0,29.85,ESE,112,3.0,3.0,71,0.00,,---,0.00,VWS V14.00,2013-07-30 07:53:00,
2013-07-30 02:54:00,70.9,61.0,29.85,East,90,3.8,3.8,71,0.00,,---,0.00,VWS V14.00,2013-07-30 07:54:00,
2013-07-30 02:55:00,70.9,61.0,29.85,East,90,2.1,2.2,71,0.00,,---,0.00,VWS V14.00,2013-07-30 07:55:00,
2013-07-30 02:56:00,70.9,61.0,29.85,East,90,2.1,2.1,71,0.00,,---,0.00,VWS V14.00,2013-07-30 07:56:00,
2013-07-30 02:57:00,70.9,61.0,29.85,East,90,2.1,2.1,71,0.00,,---,0.00,VWS V14.00,2013-07-30 07:57:00,
2013-07-30 02:58:00,70.9,61.0,29.85,East,90,2.1,2.1,71,0.00,,---,0.00,VWS V14.00,2013-07-30 07:58:00,
2013-07-30 02:59:00,70.9,61.0,29.85,East,90,2.4,2.4,71,0.00,,---,0.00,VWS V14.00,2013-07-30 07:59:00,
2013-07-30 03:00:00,70.9,61.0,29.85,East,90,2.4,2.4,71,0.00,,---,0.00,VWS V14.00,2013-07-30 08:00:00,
2013-07-30 03:01:00,70.9,61.0,29.85,East,90,2.1,2.1,71,0.00,,---,0.00,VWS V14.00,2013-07-30 08:01:00,
2013-07-30 03:02:00,70.9,61.0,29.85,East,90,2.1,2.1,71,0.00,,---,0.00,VWS V14.00,2013-07-30 08:02:00,
2013-07-30 03:03:00,70.9,61.0,29.85,East,90,2.1,2.1,71,0.00,,---,0.00,VWS V14.00,2013-07-30 08:03:00,
2013-07-30 03:04:00,70.9,61.0,29.85,East,90,2.1,2.1,71,0.00,,---,0.00,VWS V14.00,2013-07-30 08:04:00,
2013-07-30 03:05:00,70.9,61.0,29.85,East,90,2.4,2.4,71,0.00,,---,0.00,VWS V14.00,2013-07-30 08:05:00,
2013-07-30 03:06:00,70.9,61.0,29.85,East,90,2.4,2.4,71,0.00,,---,0.00,VWS V14.00,2013-07-30 08:06:00,
2013-07-30 03:07:00,70.9,61.0,29.85,East,90,2.7,2.7,71,0.00,,---,0.00,VWS V14.00,2013-07-30 08:07:00,
2013-07-30 03:08:00,70.9,61.0,29.85,East,90,2.7,2.7,71,0.00,,---,0.00,VWS V14.00,2013-07-30 08:08:00,
2013-07-30 03:09:00,70.9,61.0,29.85,East,90,2.7,2.7,71,0.00,,---,0.00,VWS V14.00,2013-07-30 08:09:00,
2013-07-30 03:10:00,70.9,61.0,29.85,East,90,2.7,2.7,71,0.00,,---,0.00,VWS V14.00,2013-07-30 08:10:00,
2013-07-30 03:11:00,70.9,61.0,29.85,SSE,158,3.0,3.0,71,0.00,,---,0.00,VWS V14.00,2013-07-30 08:11:00,
2013-07-30 03:12:00,70.9,61.0,29.85,SSE,158,3.0,3.0,71,0.00,,---,0.00,VWS V14.00,2013-07-30 08:12:00,
2013-07-30 03:13:00,70.9,61.0,29.85,SE,135,2.7,2.7,71,0.00,,---,0.00,VWS V14.00,2013-07-30 08:13:00,
2013-07-30 03:14:00,70.9,61.0,29.85,SE,135,2.7,2.7,71,0.00,,---,0.00,VWS V14.00,2013-07-30 08:14:00,
2013-07-30 03:16:00,70.9,61.0,29.85,SE,135,2.7,2.7,71,0.00,,---,0.00,VWS V14.00,2013-07-30 08:16:00,
2013-07-30 03:17:00,70.9,61.0,29.85,SE,135,2.7,2.7,71,0.00,,---,0.00,VWS V14.00,2013-07-30 08:17:00,
2013-07-30 03:18:00,70.9,61.0,29.85,SE,135,2.7,2.7,71,0.00,,---,0.00,VWS V14.00,2013-07-30 08:18:00,
2013-07-30 03:19:00,70.9,61.0,29.85,ESE,112,2.4,2.4,71,0.00,,---,0.00,VWS V14.00,2013-07-30 08:19:00,
2013-07-30 03:20:00,70.9,61.0,29.85,ESE,112,2.4,2.4,71,0.00,,---,0.00,VWS V14.00,2013-07-30 08:20:00,
2013-07-30 03:22:00,70.9,61.0,29.85,ESE,112,2.4,2.4,71,0.00,,---,0.00,VWS V14.00,2013-07-30 08:22:00,
2013-07-30 03:23:00,70.9,61.0,29.85,ESE,112,2.4,2.4,71,0.00,,---,0.00,VWS V14.00,2013-07-30 08:23:00,
2013-07-30 03:24:00,70.9,61.0,29.85,ESE,112,2.4,2.4,71,0.00,,---,0.00,VWS V14.00,2013-07-30 08:24:00,
2013-07-30 03:25:00,70.9,61.0,29.85,ESE,112,2.4,2.4,71,0.00,,---,0.00,VWS V14.00,2013-07-30 08:25:00,
2013-07-30 03:26:00,70.9,61.0,29.85,ESE,112,2.4,2.4,71,0.00,,---,0.00,VWS V14.00,2013-07-30 08:26:00,
2013-07-30 03:27:00,70.9,61.0,29.85,ESE,112,2.4,2.4,71,0.00,,---,0.00,VWS V14.00,2013-07-30 08:27:00,
2013-07-30 03:28:00,70.9,61.0,29.85,ESE,112,2.4,2.4,71,0.00,,---,0.00,VWS V14.00,2013-07-30 08:28:00,
2013-07-30 03:29:00,70.9,61.0,29.85,ESE,112,2.4,2.4,71,0.00,,---,0.00,VWS V14.00,2013-07-30 08:29:00,
2013-07-30 03:30:00,70.9,61.0,29.85,ESE,112,2.4,2.4,71,0.00,,---,0.00,VWS V14.00,2013-07-30 08:30:00,
2013-07-30 03:31:00,70.9,61.0,29.85,ESE,112,2.4,2.4,71,0.00,,---,0.00,VWS V14.00,2013-07-30 08:31:00,
2013-07-30 03:32:00,70.9,61.0,29.85,SE,135,3.0,3.0,71,0.00,,---,0.00,VWS V14.00,2013-07-30 08:32:00,
2013-07-30 03:33:00,70.9,61.0,29.85,SE,135,3.0,3.0,71,0.00,,---,0.00,VWS V14.00,2013-07-30 08:33:00,
2013-07-30 03:34:00,70.9,61.0,29.85,SE,135,3.0,3.0,71,0.00,,---,0.00,VWS V14.00,2013-07-30 08:34:00,
2013-07-30 03:35:00,70.9,61.0,29.85,SE,135,3.5,3.5,71,0.00,,---,0.00,VWS V14.00,2013-07-30 08:35:00,
2013-07-30 03:36:00,70.9,61.0,29.85,East,90,2.7,2.7,71,0.00,,---,0.00,VWS V14.00,2013-07-30 08:36:00,
2013-07-30 03:37:00,70.9,61.0,29.85,East,90,2.7,2.7,71,0.00,,---,0.00,VWS V14.00,2013-07-30 08:37:00,
2013-07-30 03:38:00,70.9,61.0,29.85,East,90,2.7,2.7,71,0.00,,---,0.00,VWS V14.00,2013-07-30 08:38:00,
2013-07-30 03:39:00,70.9,61.0,29.85,ESE,112,3.0,3.0,71,0.00,,---,0.00,VWS V14.00,2013-07-30 08:39:00,
2013-07-30 03:40:00,70.9,61.0,29.85,ESE,112,1.0,1.6,71,0.00,,---,0.00,VWS V14.00,2013-07-30 08:40:00,
2013-07-30 03:41:00,70.9,61.0,29.85,ESE,112,1.0,0.0,71,0.00,,---,0.00,VWS V14.00,2013-07-30 08:41:00,
2013-07-30 03:42:00,70.9,61.0,29.85,ESE,112,1.0,0.0,71,0.00,,---,0.00,VWS V14.00,2013-07-30 08:42:00,
2013-07-30 03:43:00,70.9,61.0,29.85,ESE,112,1.0,0.0,71,0.00,,---,0.00,VWS V14.00,2013-07-30 08:43:00,
2013-07-30 03:44:00,70.9,61.0,29.85,ESE,112,1.0,0.0,71,0.00,,---,0.00,VWS V14.00,2013-07-30 08:44:00,
2013-07-30 03:45:00,70.9,61.0,29.85,ESE,112,3.5,3.5,71,0.00,,---,0.00,VWS V14.00,2013-07-30 08:45:00,
2013-07-30 03:46:00,70.9,61.0,29.85,ESE,112,3.5,3.5,71,0.00,,---,0.00,VWS V14.00,2013-07-30 08:46:00,
2013-07-30 03:47:00,70.9,61.0,29.85,ESE,112,3.0,3.0,71,0.00,,---,0.00,VWS V14.00,2013-07-30 08:47:00,
2013-07-30 03:48:00,70.9,61.0,29.85,ESE,112,3.0,3.0,71,0.00,,---,0.00,VWS V14.00,2013-07-30 08:48:00,
2013-07-30 03:49:00,70.9,61.0,29.85,ESE,112,3.0,3.0,71,0.00,,---,0.00,VWS V14.00,2013-07-30 08:49:00,
2013-07-30 03:50:00,70.9,61.0,29.85,ESE,112,3.0,3.0,71,0.00,,---,0.00,VWS V14.00,2013-07-30 08:50:00,
2013-07-30 03:51:00,70.9,61.0,29.85,ESE,112,3.0,3.0,71,0.00,,---,0.00,VWS V14.00,2013-07-30 08:51:00,
2013-07-30 03:52:00,70.9,61.0,29.85,SE,135,2.7,2.7,71,0.00,,---,0.00,VWS V14.00,2013-07-30 08:52:00,
2013-07-30 03:53:00,70.9,61.0,29.85,SE,135,3.5,3.5,71,0.00,,---,0.00,VWS V14.00,2013-07-30 08:53:00,
2013-07-30 03:54:00,70.9,61.0,29.85,ESE,112,1.0,2.0,71,0.00,,---,0.00,VWS V14.00,2013-07-30 08:54:00,
2013-07-30 03:55:00,70.9,61.0,29.85,ESE,112,2.4,2.4,71,0.00,,---,0.00,VWS V14.00,2013-07-30 08:55:00,
2013-07-30 03:56:00,70.9,61.0,29.85,ESE,112,2.4,2.4,71,0.00,,---,0.00,VWS V14.00,2013-07-30 08:56:00,
2013-07-30 03:57:00,70.9,61.0,29.85,ESE,112,2.4,2.4,71,0.00,,---,0.00,VWS V14.00,2013-07-30 08:57:00,
2013-07-30 03:58:00,70.9,61.0,29.85,ESE,112,2.4,2.4,71,0.00,,---,0.00,VWS V14.00,2013-07-30 08:58:00,
2013-07-30 03:59:00,70.9,61.0,29.85,ESE,112,2.7,2.7,71,0.00,,---,0.00,VWS V14.00,2013-07-30 08:59:00,
2013-07-30 04:00:00,70.9,61.0,29.85,ESE,112,2.4,2.4,71,0.00,,---,0.00,VWS V14.00,2013-07-30 09:00:00,
2013-07-30 04:01:00,70.9,61.0,29.85,ESE,112,2.4,2.4,71,0.00,,---,0.00,VWS V14.00,2013-07-30 09:01:00,
2013-07-30 04:02:00,70.9,61.0,29.85,ESE,112,2.4,2.4,71,0.00,,---,0.00,VWS V14.00,2013-07-30 09:02:00,
2013-07-30 04:03:00,70.9,61.0,29.85,ESE,112,1.0,1.1,71,0.00,,---,0.00,VWS V14.00,2013-07-30 09:03:00,
2013-07-30 04:04:00,70.9,61.0,29.85,ESE,112,1.0,0.0,71,0.00,,---,0.00,VWS V14.00,2013-07-30 09:04:00,
2013-07-30 04:05:00,70.9,61.0,29.85,ESE,112,1.0,0.0,71,0.00,,---,0.00,VWS V14.00,2013-07-30 09:05:00,
2013-07-30 04:06:00,70.9,61.0,29.85,ESE,112,1.0,0.0,71,0.00,,---,0.00,VWS V14.00,2013-07-30 09:06:00,
2013-07-30 04:07:00,70.9,61.0,29.85,ESE,112,1.0,0.0,71,0.00,,---,0.00,VWS V14.00,2013-07-30 09:07:00,
2013-07-30 04:08:00,70.9,61.0,29.85,ESE,112,1.0,0.0,71,0.00,,---,0.00,VWS V14.00,2013-07-30 09:08:00,
2013-07-30 04:09:00,70.9,61.0,29.85,ESE,112,4.1,4.1,71,0.00,,---,0.00,VWS V14.00,2013-07-30 09:09:00,
2013-07-30 04:10:00,70.9,61.0,29.85,ESE,112,4.1,4.1,71,0.00,,---,0.00,VWS V14.00,2013-07-30 09:10:00,
2013-07-30 04:11:00,70.9,61.0,29.85,ESE,112,3.0,3.0,71,0.00,,---,0.00,VWS V14.00,2013-07-30 09:11:00,
2013-07-30 04:12:00,70.9,61.0,29.85,ESE,112,1.0,1.6,71,0.00,,---,0.00,VWS V14.00,2013-07-30 09:12:00,
2013-07-30 04:13:00,70.9,61.0,29.85,ESE,112,2.4,2.4,71,0.00,,---,0.00,VWS V14.00,2013-07-30 09:13:00,
2013-07-30 04:14:00,70.9,61.0,29.85,ESE,112,2.4,2.4,71,0.00,,---,0.00,VWS V14.00,2013-07-30 09:14:00,
2013-07-30 04:15:00,70.9,61.0,29.85,ESE,112,2.7,2.7,71,0.00,,---,0.00,VWS V14.00,2013-07-30 09:15:00,
2013-07-30 04:16:00,70.9,61.0,29.85,ESE,112,3.0,3.0,71,0.00,,---,0.00,VWS V14.00,2013-07-30 09:16:00,
2013-07-30 04:17:00,70.9,61.0,29.85,ESE,112,3.8,3.8,71,0.00,,---,0.00,VWS V14.00,2013-07-30 09:17:00,
2013-07-30 04:18:00,70.9,61.0,29.85,ESE,112,1.0,2.2,71,0.00,,---,0.00,VWS V14.00,2013-07-30 09:18:00,
2013-07-30 04:19:00,70.9,61.0,29.85,ESE,112,3.8,3.8,71,0.00,,---,0.00,VWS V14.00,2013-07-30 09:19:00,
2013-07-30 04:20:00,70.9,61.0,29.85,ESE,112,2.7,2.7,71,0.00,,---,0.00,VWS V14.00,2013-07-30 09:20:00,
2013-07-30 04:21:00,70.9,61.0,29.85,ESE,112,2.4,2.4,71,0.00,,---,0.00,VWS V14.00,2013-07-30 09:21:00,
2013-07-30 04:22:00,70.9,61.0,29.85,ESE,112,2.4,2.4,71,0.00,,---,0.00,VWS V14.00,2013-07-30 09:22:00,
2013-07-30 04:23:00,70.9,61.0,29.85,East,90,2.4,2.4,71,0.00,,---,0.00,VWS V14.00,2013-07-30 09:23:00,
2013-07-30 04:24:00,70.9,61.0,29.85,East,90,2.4,2.4,71,0.00,,---,0.00,VWS V14.00,2013-07-30 09:24:00,
2013-07-30 04:25:00,70.9,61.0,29.85,East,90,2.4,2.4,71,0.00,,---,0.00,VWS V14.00,2013-07-30 09:25:00,
2013-07-30 04:26:00,70.9,61.0,29.85,East,90,2.4,2.4,71,0.00,,---,0.00,VWS V14.00,2013-07-30 09:26:00,
2013-07-30 04:27:00,70.9,61.0,29.85,East,90,2.1,2.1,71,0.00,,---,0.00,VWS V14.00,2013-07-30 09:27:00,
2013-07-30 04:28:00,70.9,61.0,29.85,East,90,1.0,1.1,71,0.00,,---,0.00,VWS V14.00,2013-07-30 09:28:00,
2013-07-30 04:29:00,70.9,61.0,29.85,East,90,1.0,0.0,71,0.00,,---,0.00,VWS V14.00,2013-07-30 09:29:00,
2013-07-30 04:30:00,70.9,61.0,29.85,East,90,1.0,0.0,71,0.00,,---,0.00,VWS V14.00,2013-07-30 09:30:00,
2013-07-30 04:31:00,70.9,61.0,29.85,East,90,1.0,0.0,71,0.00,,---,0.00,VWS V14.00,2013-07-30 09:31:00,
2013-07-30 04:32:00,70.9,61.0,29.88,East,90,1.0,0.0,71,0.00,,---,0.00,VWS V14.00,2013-07-30 09:32:00,
2013-07-30 04:33:00,70.9,61.0,29.88,East,90,1.0,0.0,71,0.00,,---,0.00,VWS V14.00,2013-07-30 09:33:00,
2013-07-30 04:34:00,70.9,61.0,29.88,SSE,158,2.7,2.7,71,0.00,,---,0.00,VWS V14.00,2013-07-30 09:34:00,
2013-07-30 04:35:00,70.9,61.0,29.88,SSE,158,2.7,2.7,71,0.00,,---,0.00,VWS V14.00,2013-07-30 09:35:00,
2013-07-30 04:36:00,70.9,61.0,29.88,SSE,158,2.7,2.7,71,0.00,,---,0.00,VWS V14.00,2013-07-30 09:36:00,
2013-07-30 04:37:00,70.9,61.0,29.88,SSE,158,2.7,2.7,71,0.00,,---,0.00,VWS V14.00,2013-07-30 09:37:00,
2013-07-30 04:38:00,70.9,61.0,29.88,SSE,158,2.7,2.7,71,0.00,,---,0.00,VWS V14.00,2013-07-30 09:38:00,
2013-07-30 04:39:00,70.9,61.0,29.88,SSE,158,2.7,2.7,71,0.00,,---,0.00,VWS V14.00,2013-07-30 09:39:00,
2013-07-30 04:40:00,70.9,61.0,29.88,SSE,158,2.7,2.7,71,0.00,,---,0.00,VWS V14.00,2013-07-30 09:40:00,
2013-07-30 04:41:00,70.9,61.0,29.88,SSE,158,2.7,2.7,71,0.00,,---,0.00,VWS V14.00,2013-07-30 09:41:00,
2013-07-30 04:42:00,70.9,61.0,29.88,SSE,158,2.7,2.7,71,0.00,,---,0.00,VWS V14.00,2013-07-30 09:42:00,
2013-07-30 04:43:00,70.9,61.0,29.88,SE,135,3.0,3.0,71,0.00,,---,0.00,VWS V14.00,2013-07-30 09:43:00,
2013-07-30 04:44:00,70.9,61.0,29.88,SE,135,3.0,3.0,71,0.00,,---,0.00,VWS V14.00,2013-07-30 09:44:00,
2013-07-30 04:45:00,70.9,61.0,29.88,SE,135,3.0,3.0,71,0.00,,---,0.00,VWS V14.00,2013-07-30 09:45:00,
2013-07-30 04:46:00,70.9,61.0,29.88,SE,135,3.5,3.5,71,0.00,,---,0.00,VWS V14.00,2013-07-30 09:46:00,
2013-07-30 04:47:00,70.9,61.0,29.85,SE,135,3.5,3.5,71,0.00,,---,0.00,VWS V14.00,2013-07-30 09:47:00,
2013-07-30 04:48:00,70.9,61.0,29.85,SE,135,3.5,3.5,71,0.00,,---,0.00,VWS V14.00,2013-07-30 09:48:00,
2013-07-30 04:49:00,70.9,61.0,29.85,SSE,158,4.6,4.6,71,0.00,,---,0.00,VWS V14.00,2013-07-30 09:49:00,
2013-07-30 04:50:00,70.9,61.0,29.85,SSE,158,4.6,4.6,71,0.00,,---,0.00,VWS V14.00,2013-07-30 09:50:00,
2013-07-30 04:51:00,70.9,61.0,29.85,SSE,158,4.6,4.6,71,0.00,,---,0.00,VWS V14.00,2013-07-30 09:51:00,
2013-07-30 04:52:00,70.9,61.0,29.85,SSE,158,4.6,4.6,71,0.00,,---,0.00,VWS V14.00,2013-07-30 09:52:00,
2013-07-30 04:53:00,70.9,61.0,29.85,SSE,158,4.6,4.6,71,0.00,,---,0.00,VWS V14.00,2013-07-30 09:53:00,
2013-07-30 04:54:00,70.9,61.0,29.85,SE,135,4.1,4.1,71,0.00,,---,0.00,VWS V14.00,2013-07-30 09:54:00,
2013-07-30 04:55:00,70.9,61.0,29.85,SE,135,4.1,4.1,71,0.00,,---,0.00,VWS V14.00,2013-07-30 09:55:00,
2013-07-30 04:56:00,70.9,61.0,29.85,SSE,158,3.5,3.5,71,0.00,,---,0.00,VWS V14.00,2013-07-30 09:56:00,
2013-07-30 04:57:00,70.9,61.0,29.85,South,180,4.1,4.1,71,0.00,,---,0.00,VWS V14.00,2013-07-30 09:57:00,
2013-07-30 04:58:00,70.9,61.0,29.85,South,180,4.1,4.1,71,0.00,,---,0.00,VWS V14.00,2013-07-30 09:58:00,
2013-07-30 04:59:00,70.9,61.0,29.85,South,180,4.1,4.1,71,0.00,,---,0.00,VWS V14.00,2013-07-30 09:59:00,
2013-07-30 05:00:00,70.9,61.0,29.85,South,180,4.1,4.1,71,0.00,,---,0.00,VWS V14.00,2013-07-30 10:00:00,
2013-07-30 05:01:00,70.9,61.0,29.85,South,180,4.1,4.1,71,0.00,,---,0.00,VWS V14.00,2013-07-30 10:01:00,
2013-07-30 05:02:00,70.9,61.0,29.88,ESE,112,4.6,4.6,71,0.00,,---,0.00,VWS V14.00,2013-07-30 10:02:00,
2013-07-30 05:03:00,70.9,61.0,29.88,ESE,112,3.5,3.5,71,0.00,,---,0.00,VWS V14.00,2013-07-30 10:03:00,
2013-07-30 05:05:00,70.9,61.0,29.88,SE,135,3.0,3.1,71,0.00,,---,0.00,VWS V14.00,2013-07-30 10:05:00,
2013-07-30 05:06:00,70.9,61.0,29.88,SSE,158,5.2,5.2,71,0.00,,---,0.00,VWS V14.00,2013-07-30 10:06:00,
2013-07-30 05:07:00,70.9,61.0,29.88,SSE,158,5.2,5.2,71,0.00,,---,0.00,VWS V14.00,2013-07-30 10:07:00,
2013-07-30 05:08:00,70.9,61.0,29.88,SSE,158,5.2,5.2,71,0.00,,---,0.00,VWS V14.00,2013-07-30 10:08:00,
2013-07-30 05:09:00,70.9,61.0,29.88,SSE,158,5.2,5.2,71,0.00,,---,0.00,VWS V14.00,2013-07-30 10:09:00,
2013-07-30 05:11:00,70.9,61.0,29.88,SSE,158,5.2,5.2,71,0.00,,---,0.00,VWS V14.00,2013-07-30 10:11:00,
2013-07-30 05:12:00,70.9,61.0,29.88,SSE,158,5.2,5.2,71,0.00,,---,0.00,VWS V14.00,2013-07-30 10:12:00,
2013-07-30 05:13:00,70.9,61.0,29.88,SSE,158,5.2,5.2,71,0.00,,---,0.00,VWS V14.00,2013-07-30 10:13:00,
2013-07-30 05:14:00,70.9,61.0,29.88,SE,135,4.1,4.1,71,0.00,,---,0.00,VWS V14.00,2013-07-30 10:14:00,
2013-07-30 05:15:00,70.9,61.0,29.88,ESE,112,4.1,4.1,71,0.00,,---,0.00,VWS V14.00,2013-07-30 10:15:00,
2013-07-30 05:16:00,70.9,61.0,29.88,SSE,158,3.5,3.5,71,0.00,,---,0.00,VWS V14.00,2013-07-30 10:16:00,
2013-07-30 05:17:00,70.9,61.0,29.85,SSE,158,3.0,3.0,71,0.00,,---,0.00,VWS V14.00,2013-07-30 10:17:00,
2013-07-30 05:18:00,70.9,61.0,29.85,SE,135,4.1,4.1,71,0.00,,---,0.00,VWS V14.00,2013-07-30 10:18:00,
2013-07-30 05:19:00,70.9,61.0,29.85,ESE,112,4.1,4.1,71,0.00,,---,0.00,VWS V14.00,2013-07-30 10:19:00,
2013-07-30 05:20:00,70.9,61.0,29.85,SE,135,4.9,4.9,71,0.00,,---,0.00,VWS V14.00,2013-07-30 10:20:00,
2013-07-30 05:21:00,70.9,61.0,29.85,SE,135,4.1,4.1,71,0.00,,---,0.00,VWS V14.00,2013-07-30 10:21:00,
2013-07-30 05:22:00,70.9,61.0,29.85,SSE,158,4.6,4.6,71,0.00,,---,0.00,VWS V14.00,2013-07-30 10:22:00,
2013-07-30 05:23:00,70.9,61.0,29.85,SSE,158,4.6,4.6,71,0.00,,---,0.00,VWS V14.00,2013-07-30 10:23:00,
2013-07-30 05:24:00,70.9,61.0,29.85,SSE,158,4.4,4.4,71,0.00,,---,0.00,VWS V14.00,2013-07-30 10:24:00,
2013-07-30 05:25:00,70.9,61.0,29.85,SE,135,4.4,4.4,71,0.00,,---,0.00,VWS V14.00,2013-07-30 10:25:00,
2013-07-30 05:26:00,70.9,61.0,29.85,SE,135,4.4,4.4,71,0.00,,---,0.00,VWS V14.00,2013-07-30 10:26:00,
2013-07-30 05:27:00,70.9,61.0,29.85,SE,135,4.4,4.4,71,0.00,,---,0.00,VWS V14.00,2013-07-30 10:27:00,
2013-07-30 05:28:00,70.9,61.0,29.85,SSW,202,5.5,5.5,71,0.00,,---,0.00,VWS V14.00,2013-07-30 10:28:00,
2013-07-30 05:29:00,70.9,61.0,29.85,SE,135,4.4,4.4,71,0.00,,---,0.00,VWS V14.00,2013-07-30 10:29:00,
2013-07-30 05:30:00,70.9,61.0,29.85,SSE,158,4.1,4.1,71,0.00,,---,0.00,VWS V14.00,2013-07-30 10:30:00,
2013-07-30 05:31:00,70.9,61.0,29.85,SSE,158,4.1,4.1,71,0.00,,---,0.00,VWS V14.00,2013-07-30 10:31:00,
2013-07-30 05:32:00,70.9,61.0,29.85,SSE,158,4.4,4.4,71,0.00,,---,0.00,VWS V14.00,2013-07-30 10:32:00,
2013-07-30 05:33:00,70.9,61.0,29.85,SSE,158,5.2,5.2,71,0.00,,---,0.00,VWS V14.00,2013-07-30 10:33:00,
2013-07-30 05:34:00,70.9,61.0,29.85,SSE,158,4.1,4.1,71,0.00,,---,0.00,VWS V14.00,2013-07-30 10:34:00,
2013-07-30 05:35:00,70.9,61.0,29.85,SSE,158,3.0,3.8,71,0.00,,---,0.00,VWS V14.00,2013-07-30 10:35:00,
2013-07-30 05:36:00,70.9,61.0,29.85,SSE,158,3.0,3.0,71,0.00,,---,0.00,VWS V14.00,2013-07-30 10:36:00,
2013-07-30 05:37:00,70.9,61.0,29.85,SSE,158,3.8,3.8,71,0.00,,---,0.00,VWS V14.00,2013-07-30 10:37:00,
2013-07-30 05:38:00,70.9,61.0,29.85,SSE,158,3.8,3.8,71,0.00,,---,0.00,VWS V14.00,2013-07-30 10:38:00,
2013-07-30 05:39:00,70.9,61.0,29.85,SSE,158,4.1,4.1,71,0.00,,---,0.00,VWS V14.00,2013-07-30 10:39:00,
2013-07-30 05:40:00,70.9,61.0,29.85,SSE,158,5.8,5.8,71,0.00,,---,0.00,VWS V14.00,2013-07-30 10:40:00,
2013-07-30 05:41:00,70.9,61.0,29.85,SSE,158,3.5,3.8,71,0.00,,---,0.00,VWS V14.00,2013-07-30 10:41:00,
2013-07-30 05:42:00,70.9,61.0,29.85,SSE,158,3.5,3.5,71,0.00,,---,0.00,VWS V14.00,2013-07-30 10:42:00,
2013-07-30 05:43:00,70.9,61.0,29.85,SE,135,4.1,4.1,71,0.00,,---,0.00,VWS V14.00,2013-07-30 10:43:00,
2013-07-30 05:44:00,70.9,61.0,29.85,ESE,112,3.5,3.5,71,0.00,,---,0.00,VWS V14.00,2013-07-30 10:44:00,
2013-07-30 05:45:00,70.9,61.0,29.85,SSE,158,6.0,6.0,71,0.00,,---,0.00,VWS V14.00,2013-07-30 10:45:00,
2013-07-30 05:46:00,70.9,61.0,29.85,ESE,112,3.8,4.0,71,0.00,,---,0.00,VWS V14.00,2013-07-30 10:46:00,
2013-07-30 05:47:00,70.9,61.0,29.85,SSE,158,4.4,4.4,71,0.00,,---,0.00,VWS V14.00,2013-07-30 10:47:00,
2013-07-30 05:48:00,70.9,61.0,29.85,SSE,158,4.4,4.4,71,0.00,,---,0.00,VWS V14.00,2013-07-30 10:48:00,
2013-07-30 05:49:00,70.9,61.0,29.85,ESE,112,4.4,4.4,71,0.00,,---,0.00,VWS V14.00,2013-07-30 10:49:00,
2013-07-30 05:50:00,70.9,61.0,29.85,SE,135,4.1,4.1,71,0.00,,---,0.00,VWS V14.00,2013-07-30 10:50:00,
2013-07-30 05:51:00,70.9,61.0,29.85,SE,135,3.0,3.0,71,0.00,,---,0.00,VWS V14.00,2013-07-30 10:51:00,
2013-07-30 05:52:00,70.9,61.0,29.85,South,180,4.1,4.1,71,0.00,,---,0.00,VWS V14.00,2013-07-30 10:52:00,
2013-07-30 05:53:00,70.9,61.0,29.85,ESE,112,2.7,2.7,71,0.00,,---,0.00,VWS V14.00,2013-07-30 10:53:00,
2013-07-30 05:54:00,70.9,61.0,29.85,SE,135,4.1,4.1,71,0.00,,---,0.00,VWS V14.00,2013-07-30 10:54:00,
2013-07-30 05:55:00,70.9,61.0,29.85,SE,135,4.1,4.1,71,0.00,,---,0.00,VWS V14.00,2013-07-30 10:55:00,
2013-07-30 05:56:00,70.9,61.0,29.85,SSE,158,5.2,5.2,71,0.00,,---,0.00,VWS V14.00,2013-07-30 10:56:00,
2013-07-30 05:57:00,70.9,61.0,29.85,SSE,158,3.5,3.5,71,0.00,,---,0.00,VWS V14.00,2013-07-30 10:57:00,
2013-07-30 05:58:00,70.9,61.0,29.85,SSE,158,3.5,3.5,71,0.00,,---,0.00,VWS V14.00,2013-07-30 10:58:00,
2013-07-30 05:59:00,70.9,61.0,29.85,SSE,158,3.0,3.0,71,0.00,,---,0.00,VWS V14.00,2013-07-30 10:59:00,
2013-07-30 06:00:00,70.9,61.0,29.85,SSE,158,2.7,2.7,71,0.00,,---,0.00,VWS V14.00,2013-07-30 11:00:00,
2013-07-30 06:01:00,70.9,61.0,29.85,SSE,158,4.9,4.9,71,0.00,,---,0.00,VWS V14.00,2013-07-30 11:01:00,
2013-07-30 06:02:00,70.9,61.0,29.85,SSE,158,2.7,3.1,71,0.00,,---,0.00,VWS V14.00,2013-07-30 11:02:00,
2013-07-30 06:03:00,70.9,61.0,29.85,SSE,158,4.1,4.1,71,0.00,,---,0.00,VWS V14.00,2013-07-30 11:03:00,
2013-07-30 06:04:00,70.9,61.0,29.85,SE,135,4.4,4.4,71,0.00,,---,0.00,VWS V14.00,2013-07-30 11:04:00,
2013-07-30 06:05:00,70.9,61.0,29.85,SSE,158,4.4,4.4,71,0.00,,---,0.00,VWS V14.00,2013-07-30 11:05:00,
2013-07-30 06:06:00,70.9,61.0,29.85,SSE,158,4.1,4.1,71,0.00,,---,0.00,VWS V14.00,2013-07-30 11:06:00,
2013-07-30 06:07:00,70.9,61.0,29.85,SSE,158,5.5,5.5,71,0.00,,---,0.00,VWS V14.00,2013-07-30 11:07:00,
2013-07-30 06:08:00,70.9,61.0,29.85,South,180,4.6,4.6,71,0.00,,---,0.00,VWS V14.00,2013-07-30 11:08:00,
2013-07-30 06:09:00,70.9,61.0,29.85,SSE,158,4.6,4.6,71,0.00,,---,0.00,VWS V14.00,2013-07-30 11:09:00,
2013-07-30 06:10:00,70.9,61.0,29.85,SSE,158,4.6,4.6,71,0.00,,---,0.00,VWS V14.00,2013-07-30 11:10:00,
2013-07-30 06:11:00,70.9,61.0,29.85,South,180,4.4,4.4,71,0.00,,---,0.00,VWS V14.00,2013-07-30 11:11:00,
2013-07-30 06:12:00,70.9,61.0,29.85,SE,135,6.0,6.0,71,0.00,,---,0.00,VWS V14.00,2013-07-30 11:12:00,
2013-07-30 06:13:00,70.9,61.0,29.85,SE,135,4.4,4.4,71,0.00,,---,0.00,VWS V14.00,2013-07-30 11:13:00,
2013-07-30 06:14:00,70.9,61.0,29.85,SE,135,4.4,4.4,71,0.00,,---,0.00,VWS V14.00,2013-07-30 11:14:00,
2013-07-30 06:15:00,70.9,61.0,29.85,SE,135,4.4,4.4,71,0.00,,---,0.00,VWS V14.00,2013-07-30 11:15:00,
2013-07-30 06:16:00,70.9,61.0,29.85,South,180,4.1,4.1,71,0.00,,---,0.00,VWS V14.00,2013-07-30 11:16:00,
2013-07-30 06:17:00,70.9,61.0,29.85,South,180,4.1,4.1,71,0.00,,---,0.00,VWS V14.00,2013-07-30 11:17:00,
2013-07-30 06:18:00,70.9,61.0,29.85,SE,135,6.3,6.3,71,0.00,,---,0.00,VWS V14.00,2013-07-30 11:18:00,
2013-07-30 06:19:00,70.9,61.0,29.85,SSE,158,4.1,4.3,71,0.00,,---,0.00,VWS V14.00,2013-07-30 11:19:00,
2013-07-30 06:20:00,70.9,61.0,29.85,SSE,158,4.4,4.4,71,0.00,,---,0.00,VWS V14.00,2013-07-30 11:20:00,
2013-07-30 06:21:00,70.9,61.0,29.85,SE,135,3.5,3.5,71,0.00,,---,0.00,VWS V14.00,2013-07-30 11:21:00,
2013-07-30 06:22:00,70.9,61.0,29.85,SSE,158,4.9,4.9,71,0.00,,---,0.00,VWS V14.00,2013-07-30 11:22:00,
2013-07-30 06:23:00,70.9,61.0,29.85,SSE,158,4.9,4.9,71,0.00,,---,0.00,VWS V14.00,2013-07-30 11:23:00,
2013-07-30 06:24:00,70.9,61.0,29.85,SSE,158,2.7,3.1,71,0.00,,---,0.00,VWS V14.00,2013-07-30 11:24:00,
2013-07-30 06:25:00,70.9,61.0,29.85,SSE,158,2.7,2.7,71,0.00,,---,0.00,VWS V14.00,2013-07-30 11:25:00,
2013-07-30 06:26:00,70.9,61.0,29.85,SSE,158,2.7,2.7,71,0.00,,---,0.00,VWS V14.00,2013-07-30 11:26:00,
2013-07-30 06:27:00,70.9,61.0,29.85,SE,135,3.5,3.5,71,0.00,,---,0.00,VWS V14.00,2013-07-30 11:27:00,
2013-07-30 06:28:00,70.9,61.0,29.85,SE,135,2.7,2.7,71,0.00,,---,0.00,VWS V14.00,2013-07-30 11:28:00,
2013-07-30 06:29:00,70.9,61.0,29.85,SE,135,2.7,2.7,71,0.00,,---,0.00,VWS V14.00,2013-07-30 11:29:00,
2013-07-30 06:30:00,70.9,61.0,29.85,SSE,158,4.6,4.6,71,0.00,,---,0.00,VWS V14.00,2013-07-30 11:30:00,
2013-07-30 06:31:00,70.9,61.0,29.85,SSE,158,4.4,4.4,71,0.00,,---,0.00,VWS V14.00,2013-07-30 11:31:00,
2013-07-30 06:32:00,70.9,61.0,29.85,SSE,158,5.5,5.5,71,0.00,,---,0.00,VWS V14.00,2013-07-30 11:32:00,
2013-07-30 06:33:00,70.9,61.0,29.85,SE,135,3.8,3.8,71,0.00,,---,0.00,VWS V14.00,2013-07-30 11:33:00,
2013-07-30 06:34:00,70.9,61.0,29.85,SE,135,3.8,3.8,71,0.00,,---,0.00,VWS V14.00,2013-07-30 11:34:00,
2013-07-30 06:35:00,70.9,61.0,29.85,South,180,2.1,2.9,71,0.00,,---,0.00,VWS V14.00,2013-07-30 11:35:00,
2013-07-30 06:36:00,70.9,61.0,29.85,South,180,3.5,3.5,71,0.00,,---,0.00,VWS V14.00,2013-07-30 11:36:00,
2013-07-30 06:37:00,70.9,61.0,29.85,SE,135,3.0,3.0,71,0.00,,---,0.00,VWS V14.00,2013-07-30 11:37:00,
2013-07-30 06:38:00,70.9,61.0,29.85,SE,135,2.4,2.4,71,0.00,,---,0.00,VWS V14.00,2013-07-30 11:38:00,
2013-07-30 06:39:00,70.9,61.0,29.85,SE,135,3.0,3.0,71,0.00,,---,0.00,VWS V14.00,2013-07-30 11:39:00,
2013-07-30 06:40:00,70.9,61.0,29.85,SE,135,3.0,3.0,71,0.00,,---,0.00,VWS V14.00,2013-07-30 11:40:00,
2013-07-30 06:41:00,70.9,61.0,29.85,SSE,158,4.6,4.6,71,0.00,,---,0.00,VWS V14.00,2013-07-30 11:41:00,
2013-07-30 06:42:00,70.9,61.0,29.85,SSE,158,3.8,3.8,71,0.00,,---,0.00,VWS V14.00,2013-07-30 11:42:00,
2013-07-30 06:43:00,70.9,61.0,29.85,SSE,158,3.8,3.8,71,0.00,,---,0.00,VWS V14.00,2013-07-30 11:43:00,
2013-07-30 06:44:00,70.9,61.0,29.85,SSE,158,3.8,3.8,71,0.00,,---,0.00,VWS V14.00,2013-07-30 11:44:00,
2013-07-30 06:45:00,70.9,61.0,29.85,SSW,202,2.7,2.7,71,0.00,,---,0.00,VWS V14.00,2013-07-30 11:45:00,
2013-07-30 06:46:00,70.9,61.0,29.85,South,180,3.0,3.0,71,0.00,,---,0.00,VWS V14.00,2013-07-30 11:46:00,
2013-07-30 06:47:00,70.9,61.0,29.85,SW,225,3.8,3.8,71,0.00,,---,0.00,VWS V14.00,2013-07-30 11:47:00,
2013-07-30 06:48:00,70.9,61.0,29.85,SSW,202,2.7,2.7,71,0.00,,---,0.00,VWS V14.00,2013-07-30 11:48:00,
2013-07-30 06:49:00,70.9,61.0,29.85,SE,135,3.5,3.5,71,0.00,,---,0.00,VWS V14.00,2013-07-30 11:49:00,
2013-07-30 06:50:00,70.9,61.0,29.85,SE,135,3.5,3.5,71,0.00,,---,0.00,VWS V14.00,2013-07-30 11:50:00,
2013-07-30 06:51:00,70.9,61.0,29.85,South,180,5.2,5.2,71,0.00,,---,0.00,VWS V14.00,2013-07-30 11:51:00,
2013-07-30 06:52:00,70.9,61.0,29.85,SSW,202,3.8,3.8,71,0.00,,---,0.00,VWS V14.00,2013-07-30 11:52:00,
2013-07-30 06:53:00,70.9,61.0,29.85,SSE,158,6.3,6.3,71,0.00,,---,0.00,VWS V14.00,2013-07-30 11:53:00,
2013-07-30 06:54:00,70.9,61.0,29.85,SSE,158,5.2,5.2,71,0.00,,---,0.00,VWS V14.00,2013-07-30 11:54:00,
2013-07-30 06:55:00,70.9,61.0,29.85,SSE,158,5.2,5.2,71,0.00,,---,0.00,VWS V14.00,2013-07-30 11:55:00,
2013-07-30 06:56:00,70.9,61.0,29.85,SSE,158,5.2,5.2,71,0.00,,---,0.00,VWS V14.00,2013-07-30 11:56:00,
2013-07-30 06:57:00,70.9,61.0,29.85,SSE,158,5.2,5.2,71,0.00,,---,0.00,VWS V14.00,2013-07-30 11:57:00,
2013-07-30 06:58:00,70.9,61.0,29.85,SSE,158,5.2,5.2,71,0.00,,---,0.00,VWS V14.00,2013-07-30 11:58:00,
2013-07-30 06:59:00,70.9,61.0,29.85,South,180,5.5,5.5,71,0.00,,---,0.00,VWS V14.00,2013-07-30 11:59:00,
2013-07-30 07:00:00,70.9,61.0,29.85,SE,135,6.0,6.0,71,0.00,,---,0.00,VWS V14.00,2013-07-30 12:00:00,
2013-07-30 07:01:00,70.9,61.0,29.85,SE,135,6.0,6.0,71,0.00,,---,0.00,VWS V14.00,2013-07-30 12:01:00,
2013-07-30 07:02:00,70.9,61.0,29.85,SE,135,8.3,8.3,71,0.00,,---,0.00,VWS V14.00,2013-07-30 12:02:00,
2013-07-30 07:03:00,70.9,61.0,29.85,SSE,158,5.2,5.8,71,0.00,,---,0.00,VWS V14.00,2013-07-30 12:03:00,
2013-07-30 07:04:00,71.8,64.9,29.85,SE,135,5.5,5.5,79,0.00,,---,0.00,VWS V14.00,2013-07-30 12:04:00,
2013-07-30 07:05:00,71.8,64.9,29.85,SSE,158,4.6,4.6,79,0.00,,---,0.00,VWS V14.00,2013-07-30 12:05:00,
2013-07-30 07:06:00,71.8,64.9,29.85,South,180,2.7,3.1,79,0.00,,---,0.00,VWS V14.00,2013-07-30 12:06:00,
2013-07-30 07:07:00,71.8,64.9,29.85,SSE,158,5.5,5.5,79,0.00,,---,0.00,VWS V14.00,2013-07-30 12:07:00,
2013-07-30 07:08:00,71.8,64.9,29.85,South,180,6.9,6.9,79,0.00,,---,0.00,VWS V14.00,2013-07-30 12:08:00,
2013-07-30 07:09:00,71.8,64.9,29.85,South,180,6.9,6.9,79,0.00,,---,0.00,VWS V14.00,2013-07-30 12:09:00,
2013-07-30 07:10:00,71.8,64.9,29.85,ESE,112,3.0,4.7,79,0.00,,---,0.00,VWS V14.00,2013-07-30 12:10:00,
2013-07-30 07:11:00,71.8,64.9,29.85,SE,135,4.4,4.4,79,0.00,,---,0.00,VWS V14.00,2013-07-30 12:11:00,
2013-07-30 07:12:00,71.8,64.9,29.85,SSE,158,8.6,8.6,79,0.00,,---,0.00,VWS V14.00,2013-07-30 12:12:00,
2013-07-30 07:13:00,71.8,64.9,29.85,SSE,158,8.6,8.6,79,0.00,,---,0.00,VWS V14.00,2013-07-30 12:13:00,
2013-07-30 07:14:00,71.8,64.9,29.85,SE,135,4.6,6.0,79,0.00,,---,0.00,VWS V14.00,2013-07-30 12:14:00,
2013-07-30 07:15:00,71.8,64.9,29.85,SE,135,4.6,4.6,79,0.00,,---,0.00,VWS V14.00,2013-07-30 12:15:00,
2013-07-30 07:16:00,71.8,64.9,29.85,SE,135,4.6,4.6,79,0.00,,---,0.00,VWS V14.00,2013-07-30 12:16:00,
2013-07-30 07:17:00,71.8,64.9,29.85,SE,135,4.6,4.6,79,0.00,,---,0.00,VWS V14.00,2013-07-30 12:17:00,
2013-07-30 07:18:00,71.8,64.9,29.85,SE,135,4.6,4.6,79,0.00,,---,0.00,VWS V14.00,2013-07-30 12:18:00,
2013-07-30 07:19:00,71.8,64.9,29.85,SE,135,4.6,4.6,79,0.00,,---,0.00,VWS V14.00,2013-07-30 12:19:00,
2013-07-30 07:20:00,71.8,64.9,29.85,SE,135,4.6,4.6,79,0.00,,---,0.00,VWS V14.00,2013-07-30 12:20:00,
2013-07-30 07:21:00,71.8,64.9,29.85,SE,135,4.6,4.6,79,0.00,,---,0.00,VWS V14.00,2013-07-30 12:21:00,
2013-07-30 07:22:00,71.8,64.9,29.85,SE,135,4.6,4.6,79,0.00,,---,0.00,VWS V14.00,2013-07-30 12:22:00,
2013-07-30 07:23:00,71.8,64.9,29.85,SE,135,4.6,4.6,79,0.00,,---,0.00,VWS V14.00,2013-07-30 12:23:00,
2013-07-30 07:24:00,71.8,64.9,29.85,SE,135,4.9,4.9,79,0.00,,---,0.00,VWS V14.00,2013-07-30 12:24:00,
2013-07-30 07:25:00,71.8,64.9,29.85,SE,135,4.9,4.9,79,0.00,,---,0.00,VWS V14.00,2013-07-30 12:25:00,
2013-07-30 07:26:00,71.8,64.9,29.85,SE,135,4.9,4.9,79,0.00,,---,0.00,VWS V14.00,2013-07-30 12:26:00,
2013-07-30 07:27:00,71.8,64.9,29.85,SE,135,4.9,4.9,79,0.00,,---,0.00,VWS V14.00,2013-07-30 12:27:00,
2013-07-30 07:28:00,71.8,64.9,29.85,SE,135,4.9,4.9,79,0.00,,---,0.00,VWS V14.00,2013-07-30 12:28:00,
2013-07-30 07:29:00,71.8,64.9,29.85,SE,135,4.9,4.9,79,0.00,,---,0.00,VWS V14.00,2013-07-30 12:29:00,
2013-07-30 07:30:00,71.8,64.9,29.85,SE,135,4.9,4.9,79,0.00,,---,0.00,VWS V14.00,2013-07-30 12:30:00,
2013-07-30 07:31:00,71.8,64.9,29.85,SE,135,4.9,4.9,79,0.00,,---,0.00,VWS V14.00,2013-07-30 12:31:00,
2013-07-30 07:32:00,71.8,64.9,29.88,West,270,3.0,3.1,79,0.00,,---,0.00,VWS V14.00,2013-07-30 12:32:00,
2013-07-30 07:33:00,71.8,64.9,29.88,WNW,292,4.1,4.1,79,0.00,,---,0.00,VWS V14.00,2013-07-30 12:33:00,
2013-07-30 07:34:00,71.8,64.9,29.88,SW,225,8.0,8.0,79,0.00,,---,0.00,VWS V14.00,2013-07-30 12:34:00,
2013-07-30 07:35:00,71.8,64.9,29.88,SW,225,8.0,8.0,79,0.00,,---,0.00,VWS V14.00,2013-07-30 12:35:00,
2013-07-30 07:36:00,71.8,64.9,29.88,WNW,292,7.7,7.7,79,0.04,,---,0.04,VWS V14.00,2013-07-30 12:36:00,
2013-07-30 07:37:00,71.8,64.9,29.88,West,270,4.1,5.4,79,0.04,,---,0.04,VWS V14.00,2013-07-30 12:37:00,
2013-07-30 07:38:00,71.4,66.0,29.88,WNW,292,6.9,6.9,83,0.04,,---,0.04,VWS V14.00,2013-07-30 12:38:00,
2013-07-30 07:39:00,71.4,66.0,29.88,NW,315,10.2,10.2,83,0.04,,---,0.04,VWS V14.00,2013-07-30 12:39:00,
2013-07-30 07:40:00,71.4,66.0,29.88,NW,315,10.2,10.2,83,0.04,,---,0.04,VWS V14.00,2013-07-30 12:40:00,
2013-07-30 07:41:00,71.4,66.0,29.88,WNW,292,4.1,7.4,83,0.04,,---,0.04,VWS V14.00,2013-07-30 12:41:00,
2013-07-30 07:42:00,71.4,66.0,29.88,WNW,292,4.1,4.1,83,0.04,,---,0.04,VWS V14.00,2013-07-30 12:42:00,
2013-07-30 07:43:00,71.4,66.0,29.88,NW,315,8.8,8.8,83,0.04,,---,0.04,VWS V14.00,2013-07-30 12:43:00,
2013-07-30 07:44:00,71.4,66.0,29.88,NW,315,3.0,6.3,83,0.08,,---,0.08,VWS V14.00,2013-07-30 12:44:00,
2013-07-30 07:45:00,71.2,65.5,29.88,NNW,338,7.2,7.2,82,0.08,,---,0.08,VWS V14.00,2013-07-30 12:45:00,
2013-07-30 07:46:00,71.2,65.5,29.88,WNW,292,6.0,6.0,82,0.08,,---,0.08,VWS V14.00,2013-07-30 12:46:00,
2013-07-30 07:47:00,71.2,65.5,29.91,WNW,292,4.1,4.1,82,0.12,,---,0.12,VWS V14.00,2013-07-30 12:47:00,
2013-07-30 07:48:00,71.1,65.6,29.91,NW,315,3.5,3.5,83,0.16,,---,0.16,VWS V14.00,2013-07-30 12:48:00,
2013-07-30 07:49:00,71.1,66.0,29.91,North,0,2.7,2.9,84,0.16,,---,0.16,VWS V14.00,2013-07-30 12:49:00,
2013-07-30 07:50:00,71.1,66.0,29.91,North,0,4.6,4.6,84,0.20,,---,0.20,VWS V14.00,2013-07-30 12:50:00,
2013-07-30 07:51:00,71.1,66.0,29.91,WNW,292,5.5,5.5,84,0.24,,---,0.24,VWS V14.00,2013-07-30 12:51:00,
2013-07-30 07:52:00,71.1,66.3,29.91,NNW,338,4.1,4.1,85,0.24,,---,0.24,VWS V14.00,2013-07-30 12:52:00,
2013-07-30 07:53:00,71.1,66.3,29.91,West,270,4.9,4.9,85,0.28,,---,0.28,VWS V14.00,2013-07-30 12:53:00,
2013-07-30 07:54:00,71.1,66.7,29.91,West,270,4.9,4.9,86,0.33,,---,0.33,VWS V14.00,2013-07-30 12:54:00,
2013-07-30 07:55:00,71.1,66.7,29.91,SW,225,3.5,6.0,86,0.37,,---,0.37,VWS V14.00,2013-07-30 12:55:00,
2013-07-30 07:56:00,71.1,66.7,29.91,NNW,338,3.0,3.0,86,0.37,,---,0.37,VWS V14.00,2013-07-30 12:56:00,
2013-07-30 07:57:00,71.1,66.7,29.91,WNW,292,3.8,3.8,86,0.37,,---,0.37,VWS V14.00,2013-07-30 12:57:00,
2013-07-30 07:58:00,71.1,66.7,29.91,SW,225,2.7,2.7,86,0.41,,---,0.41,VWS V14.00,2013-07-30 12:58:00,
2013-07-30 07:59:00,71.1,66.7,29.91,SW,225,2.7,2.7,86,0.41,,---,0.41,VWS V14.00,2013-07-30 12:59:00,
2013-07-30 08:00:00,71.1,66.7,29.91,West,270,2.1,3.1,86,0.41,,---,0.41,VWS V14.00,2013-07-30 13:00:00,
2013-07-30 08:01:00,71.1,66.7,29.91,West,270,2.1,2.1,86,0.41,,---,0.41,VWS V14.00,2013-07-30 13:01:00,
2013-07-30 08:02:00,71.1,66.7,29.91,WSW,248,1.0,2.5,86,0.45,,---,0.45,VWS V14.00,2013-07-30 13:02:00,
2013-07-30 08:03:00,71.1,66.7,29.91,WSW,248,1.0,0.0,86,0.45,,---,0.45,VWS V14.00,2013-07-30 13:03:00,
2013-07-30 08:04:00,71.1,66.7,29.91,WSW,248,1.0,0.0,86,0.45,,---,0.45,VWS V14.00,2013-07-30 13:04:00,
2013-07-30 08:05:00,71.1,66.7,29.91,NW,315,1.0,0.0,86,0.45,,---,0.45,VWS V14.00,2013-07-30 13:05:00,
2013-07-30 08:06:00,71.1,66.7,29.91,NW,315,1.0,0.0,86,0.45,,---,0.45,VWS V14.00,2013-07-30 13:06:00,
2013-07-30 08:07:00,71.1,66.7,29.91,NNW,338,2.4,2.4,86,0.45,,---,0.45,VWS V14.00,2013-07-30 13:07:00,
2013-07-30 08:08:00,71.1,66.7,29.91,WNW,292,2.7,2.7,86,0.45,,---,0.45,VWS V14.00,2013-07-30 13:08:00,
2013-07-30 08:09:00,71.1,66.7,29.91,WNW,292,2.7,2.7,86,0.45,,---,0.45,VWS V14.00,2013-07-30 13:09:00,
2013-07-30 08:10:00,71.1,66.7,29.91,WNW,292,2.7,2.7,86,0.45,,---,0.45,VWS V14.00,2013-07-30 13:10:00,
2013-07-30 08:11:00,71.1,66.7,29.91,WNW,292,2.7,2.7,86,0.45,,---,0.45,VWS V14.00,2013-07-30 13:11:00,
2013-07-30 08:12:00,71.1,66.7,29.91,WNW,292,2.7,2.7,86,0.45,,---,0.45,VWS V14.00,2013-07-30 13:12:00,
2013-07-30 08:13:00,71.1,66.7,29.91,NW,315,1.0,1.3,86,0.45,,---,0.45,VWS V14.00,2013-07-30 13:13:00,
2013-07-30 08:14:00,71.1,66.7,29.91,NW,315,1.0,0.0,86,0.45,,---,0.45,VWS V14.00,2013-07-30 13:14:00,
2013-07-30 08:15:00,71.1,66.7,29.91,West,270,1.0,0.0,86,0.45,,---,0.45,VWS V14.00,2013-07-30 13:15:00,
2013-07-30 08:16:00,71.1,66.7,29.91,West,270,1.0,0.0,86,0.45,,---,0.45,VWS V14.00,2013-07-30 13:16:00,
2013-07-30 08:17:00,71.1,66.7,29.91,WSW,248,2.7,2.7,86,0.49,,---,0.49,VWS V14.00,2013-07-30 13:17:00,
2013-07-30 08:18:00,71.1,66.7,29.91,WSW,248,2.7,2.7,86,0.49,,---,0.49,VWS V14.00,2013-07-30 13:18:00,
2013-07-30 08:19:00,71.1,66.7,29.91,West,270,2.4,2.4,86,0.49,,---,0.49,VWS V14.00,2013-07-30 13:19:00,
2013-07-30 08:20:00,71.1,66.7,29.91,SW,225,4.6,4.6,86,0.49,,---,0.49,VWS V14.00,2013-07-30 13:20:00,
2013-07-30 08:21:00,71.1,66.7,29.91,WSW,248,4.1,4.1,86,0.49,,---,0.49,VWS V14.00,2013-07-30 13:21:00,
2013-07-30 08:22:00,71.1,66.7,29.91,WSW,248,4.1,4.1,86,0.49,,---,0.49,VWS V14.00,2013-07-30 13:22:00,
2013-07-30 08:23:00,71.1,66.7,29.91,SW,225,2.4,2.5,86,0.54,,---,0.54,VWS V14.00,2013-07-30 13:23:00,
2013-07-30 08:24:00,71.1,66.7,29.91,WSW,248,1.0,1.1,86,0.54,,---,0.54,VWS V14.00,2013-07-30 13:24:00,
2013-07-30 08:25:00,71.1,66.7,29.91,West,270,1.0,0.0,86,0.54,,---,0.54,VWS V14.00,2013-07-30 13:25:00,
2013-07-30 08:26:00,71.1,66.7,29.91,West,270,1.0,0.0,86,0.54,,---,0.54,VWS V14.00,2013-07-30 13:26:00,
2013-07-30 08:27:00,71.1,66.7,29.91,West,270,2.4,2.4,86,0.54,,---,0.54,VWS V14.00,2013-07-30 13:27:00,
2013-07-30 08:28:00,71.1,66.7,29.91,West,270,1.0,1.1,86,0.54,,---,0.54,VWS V14.00,2013-07-30 13:28:00,
2013-07-30 08:29:00,71.1,66.7,29.91,West,270,1.0,1.1,86,0.54,,---,0.54,VWS V14.00,2013-07-30 13:29:00,
2013-07-30 08:30:00,71.1,66.7,29.91,West,270,1.0,0.0,86,0.54,,---,0.54,VWS V14.00,2013-07-30 13:30:00,
2013-07-30 08:31:00,71.1,66.7,29.91,SW,225,1.0,0.0,86,0.54,,---,0.54,VWS V14.00,2013-07-30 13:31:00,
2013-07-30 08:32:00,71.1,66.7,29.88,SW,225,1.0,0.0,86,0.54,,---,0.54,VWS V14.00,2013-07-30 13:32:00,
2013-07-30 08:33:00,71.1,66.7,29.88,SSW,202,2.4,2.4,86,0.54,,---,0.54,VWS V14.00,2013-07-30 13:33:00,
2013-07-30 08:34:00,71.1,66.7,29.88,South,180,4.1,4.1,86,0.54,,---,0.54,VWS V14.00,2013-07-30 13:34:00,
2013-07-30 08:35:00,71.1,66.7,29.88,SSW,202,4.9,4.9,86,0.54,,---,0.54,VWS V14.00,2013-07-30 13:35:00,
2013-07-30 08:36:00,71.1,66.7,29.88,South,180,3.0,3.1,86,0.57,,---,0.57,VWS V14.00,2013-07-30 13:36:00,
2013-07-30 08:37:00,71.1,66.7,29.88,SSE,158,4.1,4.1,86,0.53,,---,0.57,VWS V14.00,2013-07-30 13:37:00,
2013-07-30 08:38:00,71.1,66.7,29.88,SW,225,2.7,2.7,86,0.53,,---,0.57,VWS V14.00,2013-07-30 13:38:00,
2013-07-30 08:39:00,71.1,66.7,29.88,SSW,202,2.1,2.1,86,0.53,,---,0.57,VWS V14.00,2013-07-30 13:39:00,
2013-07-30 08:40:00,71.1,66.7,29.88,SW,225,2.7,2.7,86,0.53,,---,0.57,VWS V14.00,2013-07-30 13:40:00,
2013-07-30 08:41:00,71.1,66.7,29.88,WSW,248,3.0,3.0,86,0.53,,---,0.57,VWS V14.00,2013-07-30 13:41:00,
2013-07-30 08:42:00,71.1,66.7,29.88,SW,225,5.5,5.5,86,0.53,,---,0.57,VWS V14.00,2013-07-30 13:42:00,
2013-07-30 08:43:00,71.1,66.7,29.88,SE,135,2.4,3.6,86,0.53,,---,0.57,VWS V14.00,2013-07-30 13:43:00,
2013-07-30 08:44:00,71.1,66.7,29.88,SW,225,4.6,4.6,86,0.53,,---,0.57,VWS V14.00,2013-07-30 13:44:00,
2013-07-30 08:45:00,71.1,66.7,29.88,SW,225,4.6,4.6,86,0.49,,---,0.57,VWS V14.00,2013-07-30 13:45:00,
2013-07-30 08:46:00,71.1,66.7,29.88,SW,225,4.6,4.6,86,0.49,,---,0.57,VWS V14.00,2013-07-30 13:46:00,
2013-07-30 08:47:00,71.1,66.7,29.91,SW,225,4.6,4.6,86,0.49,,---,0.57,VWS V14.00,2013-07-30 13:47:00,
2013-07-30 08:48:00,71.1,66.7,29.91,SSW,202,4.6,4.6,86,0.45,,---,0.57,VWS V14.00,2013-07-30 13:48:00,
2013-07-30 08:49:00,71.1,66.7,29.91,SSW,202,4.6,4.6,86,0.46,,---,0.62,VWS V14.00,2013-07-30 13:49:00,
2013-07-30 08:50:00,71.1,66.7,29.91,SSW,202,4.6,4.6,86,0.46,,---,0.62,VWS V14.00,2013-07-30 13:50:00,
2013-07-30 08:51:00,71.1,66.7,29.91,SSW,202,4.6,4.6,86,0.42,,---,0.62,VWS V14.00,2013-07-30 13:51:00,
2013-07-30 08:52:00,71.1,66.7,29.91,SSW,202,4.6,4.6,86,0.38,,---,0.62,VWS V14.00,2013-07-30 13:52:00,
2013-07-30 08:53:00,71.1,66.7,29.91,SSW,202,4.6,4.6,86,0.38,,---,0.62,VWS V14.00,2013-07-30 13:53:00,
2013-07-30 08:54:00,71.1,66.7,29.91,SSW,202,4.6,4.6,86,0.34,,---,0.62,VWS V14.00,2013-07-30 13:54:00,
2013-07-30 08:55:00,71.1,66.7,29.91,SSW,202,4.6,4.6,86,0.29,,---,0.62,VWS V14.00,2013-07-30 13:55:00,
2013-07-30 08:56:00,71.1,66.7,29.91,SSW,202,4.6,4.6,86,0.25,,---,0.62,VWS V14.00,2013-07-30 13:56:00,
2013-07-30 08:57:00,71.1,66.7,29.91,SSW,202,4.6,4.6,86,0.25,,---,0.62,VWS V14.00,2013-07-30 13:57:00,
2013-07-30 08:58:00,71.1,66.7,29.91,SSW,202,4.6,4.6,86,0.25,,---,0.62,VWS V14.00,2013-07-30 13:58:00,
2013-07-30 08:59:00,71.1,66.7,29.91,SSW,202,4.6,4.6,86,0.21,,---,0.62,VWS V14.00,2013-07-30 13:59:00,
2013-07-30 09:00:00,71.1,66.7,29.91,SSW,202,4.6,4.6,86,0.21,,---,0.62,VWS V14.00,2013-07-30 14:00:00,
2013-07-30 09:01:00,71.1,66.7,29.91,SSW,202,4.6,4.6,86,0.21,,---,0.62,VWS V14.00,2013-07-30 14:01:00,
2013-07-30 09:02:00,71.1,66.7,29.88,SSW,202,4.6,4.6,86,0.21,,---,0.62,VWS V14.00,2013-07-30 14:02:00,
2013-07-30 09:03:00,71.1,66.7,29.88,SSW,202,4.6,4.6,86,0.17,,---,0.62,VWS V14.00,2013-07-30 14:03:00,
2013-07-30 09:04:00,71.1,66.7,29.88,SSW,202,4.6,4.6,86,0.17,,---,0.62,VWS V14.00,2013-07-30 14:04:00,
2013-07-30 09:05:00,71.1,66.7,29.88,SSW,202,4.6,4.6,86,0.17,,---,0.62,VWS V14.00,2013-07-30 14:05:00,
2013-07-30 09:06:00,71.1,66.7,29.88,SSW,202,4.6,4.6,86,0.17,,---,0.62,VWS V14.00,2013-07-30 14:06:00,
2013-07-30 09:07:00,71.1,66.7,29.88,SSW,202,4.6,4.6,86,0.17,,---,0.62,VWS V14.00,2013-07-30 14:07:00,
2013-07-30 09:08:00,71.1,66.7,29.88,SSW,202,4.6,4.6,86,0.17,,---,0.62,VWS V14.00,2013-07-30 14:08:00,
2013-07-30 09:09:00,71.1,66.7,29.88,SSW,202,4.6,4.6,86,0.17,,---,0.62,VWS V14.00,2013-07-30 14:09:00,
2013-07-30 09:10:00,71.1,66.7,29.88,SSW,202,4.6,4.6,86,0.17,,---,0.62,VWS V14.00,2013-07-30 14:10:00,
2013-07-30 09:11:00,71.1,66.7,29.88,SSW,202,4.6,4.6,86,0.17,,---,0.62,VWS V14.00,2013-07-30 14:11:00,
2013-07-30 09:12:00,71.1,66.7,29.88,SSW,202,4.6,4.6,86,0.17,,---,0.62,VWS V14.00,2013-07-30 14:12:00,
2013-07-30 09:13:00,71.1,66.7,29.88,SSW,202,4.6,4.6,86,0.17,,---,0.62,VWS V14.00,2013-07-30 14:13:00,
2013-07-30 09:14:00,71.1,66.7,29.88,SSW,202,4.6,4.6,86,0.17,,---,0.62,VWS V14.00,2013-07-30 14:14:00,
2013-07-30 09:15:00,71.1,66.7,29.88,SSW,202,4.6,4.6,86,0.17,,---,0.62,VWS V14.00,2013-07-30 14:15:00,
2013-07-30 09:16:00,71.1,66.7,29.88,SSW,202,4.6,4.6,86,0.17,,---,0.62,VWS V14.00,2013-07-30 14:16:00,
2013-07-30 09:17:00,71.1,66.7,29.88,SSW,202,4.6,4.6,86,0.17,,---,0.62,VWS V14.00,2013-07-30 14:17:00,
2013-07-30 09:19:00,71.1,66.7,29.88,SSW,202,4.6,4.6,86,0.13,,---,0.62,VWS V14.00,2013-07-30 14:19:00,
2013-07-30 09:21:00,71.1,66.7,29.88,SSW,202,4.6,4.6,86,0.13,,---,0.62,VWS V14.00,2013-07-30 14:21:00,
2013-07-30 09:22:00,71.1,66.7,29.88,SSW,202,4.6,4.6,86,0.13,,---,0.62,VWS V14.00,2013-07-30 14:22:00,
2013-07-30 09:23:00,71.1,66.7,29.88,SSW,202,4.6,4.6,86,0.13,,---,0.62,VWS V14.00,2013-07-30 14:23:00,
2013-07-30 09:24:00,71.1,66.7,29.88,SSW,202,4.6,4.6,86,0.08,,---,0.62,VWS V14.00,2013-07-30 14:24:00,
2013-07-30 09:25:00,71.1,66.7,29.88,SSW,202,4.6,4.6,86,0.08,,---,0.62,VWS V14.00,2013-07-30 14:25:00,
2013-07-30 09:26:00,71.1,66.7,29.88,SSW,202,4.6,4.6,86,0.08,,---,0.62,VWS V14.00,2013-07-30 14:26:00,
2013-07-30 09:27:00,71.1,66.7,29.88,SSW,202,4.6,4.6,86,0.08,,---,0.62,VWS V14.00,2013-07-30 14:27:00,
2013-07-30 09:28:00,71.1,66.7,29.88,SSW,202,4.6,4.6,86,0.08,,---,0.62,VWS V14.00,2013-07-30 14:28:00,
2013-07-30 09:29:00,71.1,66.7,29.88,SSW,202,4.6,4.6,86,0.08,,---,0.62,VWS V14.00,2013-07-30 14:29:00,
2013-07-30 09:31:00,71.1,66.7,29.88,SSW,202,4.6,4.6,86,0.08,,---,0.62,VWS V14.00,2013-07-30 14:31:00,
2013-07-30 09:32:00,71.1,66.7,29.88,SSW,202,4.6,4.6,86,0.08,,---,0.62,VWS V14.00,2013-07-30 14:32:00,
2013-07-30 09:33:00,71.1,66.7,29.88,SSW,202,4.6,4.6,86,0.08,,---,0.62,VWS V14.00,2013-07-30 14:33:00,
2013-07-30 09:34:00,71.1,66.7,29.88,SSW,202,4.6,4.6,86,0.08,,---,0.62,VWS V14.00,2013-07-30 14:34:00,
2013-07-30 09:35:00,71.1,66.7,29.88,SSW,202,4.6,4.6,86,0.12,,---,0.66,VWS V14.00,2013-07-30 14:35:00,
2013-07-30 09:36:00,71.1,66.7,29.88,SSW,202,4.6,4.6,86,0.12,,---,0.66,VWS V14.00,2013-07-30 14:36:00,
2013-07-30 09:37:00,71.1,66.7,29.88,SSW,202,4.6,4.6,86,0.09,,---,0.66,VWS V14.00,2013-07-30 14:37:00,
2013-07-30 09:38:00,71.1,66.7,29.88,SSW,202,4.6,4.6,86,0.09,,---,0.66,VWS V14.00,2013-07-30 14:38:00,
2013-07-30 09:39:00,71.1,66.7,29.88,SSW,202,4.6,4.6,86,0.13,,---,0.70,VWS V14.00,2013-07-30 14:39:00,
2013-07-30 09:40:00,71.1,66.7,29.88,SSW,202,4.6,4.6,86,0.13,,---,0.70,VWS V14.00,2013-07-30 14:40:00,
2013-07-30 09:41:00,71.1,66.7,29.88,SSW,202,4.6,4.6,86,0.13,,---,0.70,VWS V14.00,2013-07-30 14:41:00,
2013-07-30 09:42:00,71.1,66.7,29.88,SSW,202,4.6,4.6,86,0.13,,---,0.70,VWS V14.00,2013-07-30 14:42:00,
2013-07-30 09:43:00,71.1,66.7,29.88,SSW,202,4.6,4.6,86,0.13,,---,0.70,VWS V14.00,2013-07-30 14:43:00,
2013-07-30 09:44:00,71.1,66.7,29.88,SSW,202,4.6,4.6,86,0.13,,---,0.70,VWS V14.00,2013-07-30 14:44:00,
2013-07-30 09:45:00,71.1,66.7,29.88,SSW,202,4.6,4.6,86,0.17,,---,0.74,VWS V14.00,2013-07-30 14:45:00,
2013-07-30 09:46:00,71.1,66.7,29.88,SSW,202,4.6,4.6,86,0.17,,---,0.74,VWS V14.00,2013-07-30 14:46:00,
2013-07-30 09:47:00,71.1,66.7,29.88,SSW,202,4.6,4.6,86,0.17,,---,0.74,VWS V14.00,2013-07-30 14:47:00,
2013-07-30 09:48:00,71.1,66.7,29.88,SSW,202,4.6,4.6,86,0.17,,---,0.74,VWS V14.00,2013-07-30 14:48:00,
2013-07-30 09:49:00,71.1,66.7,29.88,SSW,202,4.6,4.6,86,0.17,,---,0.74,VWS V14.00,2013-07-30 14:49:00,
2013-07-30 09:50:00,71.1,66.7,29.88,SSW,202,4.6,4.6,86,0.16,,---,0.78,VWS V14.00,2013-07-30 14:50:00,
2013-07-30 09:51:00,71.1,66.7,29.88,SSW,202,4.6,4.6,86,0.16,,---,0.78,VWS V14.00,2013-07-30 14:51:00,
2013-07-30 09:52:00,71.1,66.7,29.88,SSW,202,4.6,4.6,86,0.16,,---,0.78,VWS V14.00,2013-07-30 14:52:00,
2013-07-30 09:53:00,71.1,66.7,29.88,SSW,202,4.6,4.6,86,0.16,,---,0.78,VWS V14.00,2013-07-30 14:53:00,
2013-07-30 09:54:00,71.1,66.7,29.88,SSW,202,4.6,4.6,86,0.16,,---,0.78,VWS V14.00,2013-07-30 14:54:00,
2013-07-30 09:55:00,71.1,66.7,29.88,SSW,202,4.6,4.6,86,0.16,,---,0.78,VWS V14.00,2013-07-30 14:55:00,
2013-07-30 09:56:00,71.1,66.7,29.88,SSW,202,4.6,4.6,86,0.16,,---,0.78,VWS V14.00,2013-07-30 14:56:00,
2013-07-30 09:58:00,71.1,66.7,29.88,SSW,202,4.6,4.6,86,0.16,,---,0.78,VWS V14.00,2013-07-30 14:58:00,
2013-07-30 09:59:00,71.1,66.7,29.88,SSW,202,4.6,4.6,86,0.16,,---,0.78,VWS V14.00,2013-07-30 14:59:00,
2013-07-30 10:00:00,71.1,66.7,29.88,SSW,202,4.6,4.6,86,0.20,,---,0.82,VWS V14.00,2013-07-30 15:00:00,
2013-07-30 10:01:00,71.1,66.7,29.88,SSW,202,4.6,4.6,86,0.20,,---,0.82,VWS V14.00,2013-07-30 15:01:00,
2013-07-30 10:02:00,71.1,66.7,29.91,SSW,202,4.6,4.6,86,0.20,,---,0.82,VWS V14.00,2013-07-30 15:02:00,
2013-07-30 10:03:00,71.1,66.7,29.91,SSW,202,4.6,4.6,86,0.20,,---,0.82,VWS V14.00,2013-07-30 15:03:00,
2013-07-30 10:04:00,71.1,66.7,29.91,SSW,202,4.6,4.6,86,0.20,,---,0.82,VWS V14.00,2013-07-30 15:04:00,
2013-07-30 10:05:00,71.1,66.7,29.91,SSW,202,4.6,4.6,86,0.25,,---,0.87,VWS V14.00,2013-07-30 15:05:00,
2013-07-30 10:06:00,71.1,66.7,29.91,SSW,202,4.6,4.6,86,0.25,,---,0.87,VWS V14.00,2013-07-30 15:06:00,
2013-07-30 10:07:00,71.1,66.7,29.91,SSW,202,4.6,4.6,86,0.25,,---,0.87,VWS V14.00,2013-07-30 15:07:00,
2013-07-30 10:08:00,71.1,66.7,29.91,SSW,202,4.6,4.6,86,0.25,,---,0.87,VWS V14.00,2013-07-30 15:08:00,
2013-07-30 10:09:00,71.1,66.7,29.91,SSW,202,4.6,4.6,86,0.25,,---,0.87,VWS V14.00,2013-07-30 15:09:00,
2013-07-30 10:11:00,71.1,66.7,29.91,SSW,202,4.6,4.6,86,0.25,,---,0.87,VWS V14.00,2013-07-30 15:11:00,
2013-07-30 10:12:00,71.1,66.7,29.91,SSW,202,4.6,4.6,86,0.29,,---,0.91,VWS V14.00,2013-07-30 15:12:00,
2013-07-30 10:13:00,71.1,66.7,29.91,SSW,202,4.6,4.6,86,0.29,,---,0.91,VWS V14.00,2013-07-30 15:13:00,
2013-07-30 10:14:00,71.1,66.7,29.91,SSW,202,4.6,4.6,86,0.29,,---,0.91,VWS V14.00,2013-07-30 15:14:00,
2013-07-30 10:15:00,71.1,66.7,29.91,SSW,202,4.6,4.6,86,0.29,,---,0.91,VWS V14.00,2013-07-30 15:15:00,
2013-07-30 10:16:00,71.1,66.7,29.91,SSW,202,4.6,4.6,86,0.29,,---,0.91,VWS V14.00,2013-07-30 15:16:00,
2013-07-30 10:17:00,71.1,66.7,29.88,SSW,202,4.6,4.6,86,0.29,,---,0.91,VWS V14.00,2013-07-30 15:17:00,
2013-07-30 10:18:00,71.1,66.7,29.88,SSW,202,4.6,4.6,86,0.29,,---,0.91,VWS V14.00,2013-07-30 15:18:00,
2013-07-30 10:19:00,71.1,66.7,29.88,SSW,202,4.6,4.6,86,0.29,,---,0.91,VWS V14.00,2013-07-30 15:19:00,
2013-07-30 10:20:00,71.1,66.7,29.88,SSW,202,4.6,4.6,86,0.29,,---,0.91,VWS V14.00,2013-07-30 15:20:00,
2013-07-30 10:21:00,71.1,66.7,29.88,SSW,202,4.6,4.6,86,0.33,,---,0.95,VWS V14.00,2013-07-30 15:21:00,
2013-07-30 10:22:00,71.1,66.7,29.88,SSW,202,4.6,4.6,86,0.33,,---,0.95,VWS V14.00,2013-07-30 15:22:00,
2013-07-30 10:23:00,71.1,66.7,29.88,SSW,202,4.6,4.6,86,0.33,,---,0.95,VWS V14.00,2013-07-30 15:23:00,
2013-07-30 10:24:00,71.1,66.7,29.88,South,180,5.8,5.8,86,0.33,,---,0.95,VWS V14.00,2013-07-30 15:24:00,
2013-07-30 10:25:00,71.1,66.7,29.88,South,180,5.8,5.8,86,0.33,,---,0.95,VWS V14.00,2013-07-30 15:25:00,
2013-07-30 10:26:00,71.1,66.7,29.88,South,180,5.8,5.8,86,0.33,,---,0.95,VWS V14.00,2013-07-30 15:26:00,
2013-07-30 10:27:00,71.1,66.7,29.88,South,180,5.8,5.8,86,0.33,,---,0.95,VWS V14.00,2013-07-30 15:27:00,
2013-07-30 10:28:00,71.1,66.7,29.88,South,180,5.8,5.8,86,0.33,,---,0.95,VWS V14.00,2013-07-30 15:28:00,
2013-07-30 10:29:00,71.1,66.7,29.88,South,180,5.8,5.8,86,0.33,,---,0.95,VWS V14.00,2013-07-30 15:29:00,
2013-07-30 10:30:00,71.1,66.7,29.88,South,180,5.8,5.8,86,0.33,,---,0.95,VWS V14.00,2013-07-30 15:30:00,
2013-07-30 10:31:00,71.1,66.7,29.88,South,180,5.8,5.8,86,0.33,,---,0.95,VWS V14.00,2013-07-30 15:31:00,
2013-07-30 10:32:00,71.1,66.7,29.88,South,180,5.8,5.8,86,0.33,,---,0.95,VWS V14.00,2013-07-30 15:32:00,
2013-07-30 10:33:00,71.1,66.7,29.88,South,180,5.8,5.8,86,0.33,,---,0.95,VWS V14.00,2013-07-30 15:33:00,
2013-07-30 10:34:00,71.1,66.7,29.88,South,180,5.8,5.8,86,0.33,,---,0.95,VWS V14.00,2013-07-30 15:34:00,
2013-07-30 10:35:00,71.1,66.7,29.88,South,180,5.8,5.8,86,0.33,,---,0.95,VWS V14.00,2013-07-30 15:35:00,
2013-07-30 10:36:00,71.1,66.7,29.88,South,180,5.8,5.8,86,0.29,,---,0.95,VWS V14.00,2013-07-30 15:36:00,
2013-07-30 10:37:00,71.1,66.7,29.88,South,180,5.8,5.8,86,0.29,,---,0.95,VWS V14.00,2013-07-30 15:37:00,
2013-07-30 10:38:00,71.1,66.7,29.88,South,180,5.8,5.8,86,0.29,,---,0.95,VWS V14.00,2013-07-30 15:38:00,
2013-07-30 10:39:00,71.1,66.7,29.88,South,180,5.8,5.8,86,0.29,,---,0.95,VWS V14.00,2013-07-30 15:39:00,
2013-07-30 10:40:00,71.1,66.7,29.88,South,180,5.8,5.8,86,0.25,,---,0.95,VWS V14.00,2013-07-30 15:40:00,
2013-07-30 10:41:00,71.1,66.7,29.88,South,180,5.8,5.8,86,0.25,,---,0.95,VWS V14.00,2013-07-30 15:41:00,
2013-07-30 10:42:00,73.0,72.4,29.88,South,180,5.8,5.8,98,0.25,,---,0.95,VWS V14.00,2013-07-30 15:42:00,
2013-07-30 10:43:00,73.0,72.4,29.88,South,180,5.8,5.8,98,0.25,,---,0.95,VWS V14.00,2013-07-30 15:43:00,
2013-07-30 10:44:00,73.0,72.4,29.88,South,180,5.8,5.8,98,0.25,,---,0.95,VWS V14.00,2013-07-30 15:44:00,
2013-07-30 10:45:00,73.0,72.4,29.88,South,180,5.8,5.8,98,0.25,,---,0.95,VWS V14.00,2013-07-30 15:45:00,
2013-07-30 10:46:00,73.2,72.6,29.88,South,180,5.8,5.8,98,0.21,,---,0.95,VWS V14.00,2013-07-30 15:46:00,
2013-07-30 10:47:00,73.2,72.6,29.88,South,180,5.8,5.8,98,0.21,,---,0.95,VWS V14.00,2013-07-30 15:47:00,
2013-07-30 10:48:00,73.2,72.6,29.88,South,180,5.8,5.8,98,0.21,,---,0.95,VWS V14.00,2013-07-30 15:48:00,
2013-07-30 10:49:00,73.4,72.8,29.88,South,180,5.8,5.8,98,0.21,,---,0.95,VWS V14.00,2013-07-30 15:49:00,
2013-07-30 10:50:00,73.4,72.8,29.88,South,180,5.8,5.8,98,0.21,,---,0.95,VWS V14.00,2013-07-30 15:50:00,
2013-07-30 10:51:00,73.4,72.8,29.88,South,180,5.8,5.8,98,0.17,,---,0.95,VWS V14.00,2013-07-30 15:51:00,
2013-07-30 10:52:00,73.4,72.8,29.88,South,180,5.8,5.8,98,0.17,,---,0.95,VWS V14.00,2013-07-30 15:52:00,
2013-07-30 10:53:00,73.4,72.8,29.88,South,180,5.8,5.8,98,0.17,,---,0.95,VWS V14.00,2013-07-30 15:53:00,
2013-07-30 10:54:00,73.4,72.8,29.88,South,180,5.8,5.8,98,0.17,,---,0.95,VWS V14.00,2013-07-30 15:54:00,
2013-07-30 10:55:00,73.4,72.8,29.88,South,180,5.8,5.8,98,0.17,,---,0.95,VWS V14.00,2013-07-30 15:55:00,
2013-07-30 10:56:00,73.4,72.8,29.88,South,180,5.8,5.8,98,0.17,,---,0.95,VWS V14.00,2013-07-30 15:56:00,
2013-07-30 10:57:00,73.4,72.8,29.88,South,180,5.8,5.8,98,0.17,,---,0.95,VWS V14.00,2013-07-30 15:57:00,
2013-07-30 10:58:00,73.4,72.8,29.88,South,180,5.8,5.8,98,0.17,,---,0.95,VWS V14.00,2013-07-30 15:58:00,
2013-07-30 10:59:00,73.4,72.8,29.88,South,180,5.8,5.8,98,0.17,,---,0.95,VWS V14.00,2013-07-30 15:59:00,
2013-07-30 11:00:00,73.4,72.8,29.88,South,180,5.8,5.8,98,0.17,,---,0.95,VWS V14.00,2013-07-30 16:00:00,
2013-07-30 11:01:00,73.4,72.8,29.88,South,180,5.8,5.8,98,0.13,,---,0.95,VWS V14.00,2013-07-30 16:01:00,
2013-07-30 11:02:00,74.8,74.2,29.88,South,180,5.8,5.8,98,0.13,,---,0.95,VWS V14.00,2013-07-30 16:02:00,
2013-07-30 11:03:00,75.0,74.4,29.88,South,180,5.8,5.8,98,0.13,,---,0.95,VWS V14.00,2013-07-30 16:03:00,
2013-07-30 11:04:00,75.0,74.4,29.88,South,180,5.8,5.8,98,0.13,,---,0.95,VWS V14.00,2013-07-30 16:04:00,
2013-07-30 11:05:00,75.0,74.4,29.88,South,180,5.8,5.8,98,0.13,,---,0.95,VWS V14.00,2013-07-30 16:05:00,
2013-07-30 11:06:00,75.2,74.6,29.88,South,180,5.8,5.8,98,0.08,,---,0.95,VWS V14.00,2013-07-30 16:06:00,
2013-07-30 11:07:00,75.2,74.6,29.88,South,180,5.8,5.8,98,0.08,,---,0.95,VWS V14.00,2013-07-30 16:07:00,
2013-07-30 11:08:00,75.2,74.6,29.88,South,180,5.8,5.8,98,0.08,,---,0.95,VWS V14.00,2013-07-30 16:08:00,
2013-07-30 11:09:00,75.2,74.6,29.88,South,180,5.8,5.8,98,0.08,,---,0.95,VWS V14.00,2013-07-30 16:09:00,
2013-07-30 11:10:00,75.2,74.6,29.88,South,180,5.8,5.8,98,0.08,,---,0.95,VWS V14.00,2013-07-30 16:10:00,
2013-07-30 11:11:00,75.2,74.6,29.88,South,180,5.8,5.8,98,0.08,,---,0.95,VWS V14.00,2013-07-30 16:11:00,
2013-07-30 11:12:00,75.2,74.3,29.88,South,180,5.8,5.8,97,0.08,,---,0.95,VWS V14.00,2013-07-30 16:12:00,
2013-07-30 11:13:00,75.2,74.3,29.88,South,180,5.8,5.8,97,0.04,,---,0.95,VWS V14.00,2013-07-30 16:13:00,
2013-07-30 11:14:00,75.2,74.3,29.88,South,180,5.8,5.8,97,0.04,,---,0.95,VWS V14.00,2013-07-30 16:14:00,
2013-07-30 11:15:00,75.2,74.3,29.88,South,180,5.8,5.8,97,0.04,,---,0.95,VWS V14.00,2013-07-30 16:15:00,
2013-07-30 11:16:00,75.2,74.3,29.88,South,180,5.8,5.8,97,0.04,,---,0.95,VWS V14.00,2013-07-30 16:16:00,
2013-07-30 11:18:00,75.2,74.3,29.88,South,180,5.8,5.8,97,0.04,,---,0.95,VWS V14.00,2013-07-30 16:18:00,
2013-07-30 11:19:00,75.2,74.3,29.88,South,180,5.8,5.8,97,0.04,,---,0.95,VWS V14.00,2013-07-30 16:19:00,
2013-07-30 11:20:00,75.2,74.3,29.88,South,180,5.8,5.8,97,0.04,,---,0.95,VWS V14.00,2013-07-30 16:20:00,
2013-07-30 11:21:00,75.2,74.3,29.88,South,180,5.8,5.8,97,0.04,,---,0.95,VWS V14.00,2013-07-30 16:21:00,
2013-07-30 11:22:00,75.2,74.3,29.88,South,180,5.8,5.8,97,0.00,,---,0.95,VWS V14.00,2013-07-30 16:22:00,
2013-07-30 11:23:00,75.2,74.3,29.88,South,180,5.8,5.8,97,0.00,,---,0.95,VWS V14.00,2013-07-30 16:23:00,
2013-07-30 11:24:00,75.2,74.3,29.88,South,180,5.8,5.8,97,0.00,,---,0.95,VWS V14.00,2013-07-30 16:24:00,
2013-07-30 11:25:00,75.2,74.3,29.88,South,180,5.8,5.8,97,0.00,,---,0.95,VWS V14.00,2013-07-30 16:25:00,
2013-07-30 11:26:00,75.2,74.3,29.88,South,180,5.8,5.8,97,0.00,,---,0.95,VWS V14.00,2013-07-30 16:26:00,
2013-07-30 11:27:00,75.2,74.3,29.88,South,180,5.8,5.8,97,0.00,,---,0.95,VWS V14.00,2013-07-30 16:27:00,
2013-07-30 11:28:00,75.2,74.3,29.88,South,180,5.8,5.8,97,0.00,,---,0.95,VWS V14.00,2013-07-30 16:28:00,
2013-07-30 11:29:00,75.2,74.3,29.88,South,180,5.8,5.8,97,0.00,,---,0.95,VWS V14.00,2013-07-30 16:29:00,
2013-07-30 11:30:00,75.2,74.3,29.88,South,180,5.8,5.8,97,0.00,,---,0.95,VWS V14.00,2013-07-30 16:30:00,
2013-07-30 11:31:00,75.2,74.3,29.88,South,180,5.8,5.8,97,0.00,,---,0.95,VWS V14.00,2013-07-30 16:31:00,
2013-07-30 11:32:00,75.2,74.3,29.88,South,180,5.8,5.8,97,0.00,,---,0.95,VWS V14.00,2013-07-30 16:32:00,
2013-07-30 11:33:00,75.2,74.3,29.88,South,180,5.8,5.8,97,0.00,,---,0.95,VWS V14.00,2013-07-30 16:33:00,
2013-07-30 11:34:00,75.2,74.3,29.88,South,180,5.8,5.8,97,0.00,,---,0.95,VWS V14.00,2013-07-30 16:34:00,
2013-07-30 11:35:00,75.2,74.3,29.88,South,180,5.8,5.8,97,0.00,,---,0.95,VWS V14.00,2013-07-30 16:35:00,
2013-07-30 11:36:00,75.2,74.3,29.88,South,180,5.8,5.8,97,0.00,,---,0.95,VWS V14.00,2013-07-30 16:36:00,
2013-07-30 11:37:00,75.2,74.3,29.88,South,180,5.8,5.8,97,0.00,,---,0.95,VWS V14.00,2013-07-30 16:37:00,
2013-07-30 11:38:00,75.2,74.3,29.88,South,180,5.8,5.8,97,0.00,,---,0.95,VWS V14.00,2013-07-30 16:38:00,
2013-07-30 11:39:00,75.2,74.3,29.88,South,180,5.8,5.8,97,0.00,,---,0.95,VWS V14.00,2013-07-30 16:39:00,
2013-07-30 11:40:00,75.2,74.3,29.88,South,180,5.8,5.8,97,0.00,,---,0.95,VWS V14.00,2013-07-30 16:40:00,
2013-07-30 11:41:00,75.2,74.3,29.88,South,180,5.8,5.8,97,0.00,,---,0.95,VWS V14.00,2013-07-30 16:41:00,
2013-07-30 11:42:00,75.2,74.3,29.88,South,180,5.8,5.8,97,0.00,,---,0.95,VWS V14.00,2013-07-30 16:42:00,
2013-07-30 11:43:00,75.2,74.3,29.88,South,180,5.8,5.8,97,0.00,,---,0.95,VWS V14.00,2013-07-30 16:43:00,
2013-07-30 11:44:00,75.2,74.3,29.88,South,180,5.8,5.8,97,0.00,,---,0.95,VWS V14.00,2013-07-30 16:44:00,
2013-07-30 11:45:00,75.2,74.3,29.88,South,180,5.8,5.8,97,0.00,,---,0.95,VWS V14.00,2013-07-30 16:45:00,
2013-07-30 11:46:00,75.2,74.3,29.88,South,180,5.8,5.8,97,0.00,,---,0.95,VWS V14.00,2013-07-30 16:46:00,
2013-07-30 11:47:00,75.2,74.3,29.88,South,180,5.8,5.8,97,0.00,,---,0.95,VWS V14.00,2013-07-30 16:47:00,
2013-07-30 11:48:00,75.2,74.3,29.88,South,180,5.8,5.8,97,0.00,,---,0.95,VWS V14.00,2013-07-30 16:48:00,
2013-07-30 11:49:00,75.2,74.3,29.88,South,180,5.8,5.8,97,0.00,,---,0.95,VWS V14.00,2013-07-30 16:49:00,
2013-07-30 11:50:00,75.2,74.3,29.88,South,180,5.8,5.8,97,0.00,,---,0.95,VWS V14.00,2013-07-30 16:50:00,
2013-07-30 11:51:00,75.2,74.3,29.88,South,180,5.8,5.8,97,0.00,,---,0.95,VWS V14.00,2013-07-30 16:51:00,
2013-07-30 11:52:00,75.2,74.3,29.88,South,180,5.8,5.8,97,0.00,,---,0.95,VWS V14.00,2013-07-30 16:52:00,
2013-07-30 11:53:00,75.2,74.3,29.88,South,180,5.8,5.8,97,0.00,,---,0.95,VWS V14.00,2013-07-30 16:53:00,
2013-07-30 11:54:00,75.2,74.3,29.88,South,180,5.8,5.8,97,0.00,,---,0.95,VWS V14.00,2013-07-30 16:54:00,
2013-07-30 11:55:00,75.2,74.3,29.88,South,180,5.8,5.8,97,0.00,,---,0.95,VWS V14.00,2013-07-30 16:55:00,
2013-07-30 11:56:00,75.2,74.3,29.88,South,180,5.8,5.8,97,0.00,,---,0.95,VWS V14.00,2013-07-30 16:56:00,
2013-07-30 11:57:00,75.2,74.3,29.88,South,180,5.8,5.8,97,0.00,,---,0.95,VWS V14.00,2013-07-30 16:57:00,
2013-07-30 11:58:00,75.2,74.3,29.88,South,180,5.8,5.8,97,0.00,,---,0.95,VWS V14.00,2013-07-30 16:58:00,
2013-07-30 11:59:00,75.2,74.3,29.88,South,180,5.8,5.8,97,0.00,,---,0.95,VWS V14.00,2013-07-30 16:59:00,
2013-07-30 12:00:00,75.2,74.3,29.88,South,180,5.8,5.8,97,0.00,,---,0.95,VWS V14.00,2013-07-30 17:00:00,
2013-07-30 12:01:00,75.2,74.3,29.88,South,180,5.8,5.8,97,0.00,,---,0.95,VWS V14.00,2013-07-30 17:01:00,
2013-07-30 12:02:00,75.2,74.3,29.88,South,180,5.8,5.8,97,0.00,,---,0.95,VWS V14.00,2013-07-30 17:02:00,
2013-07-30 12:03:00,76.1,75.2,29.88,South,180,5.8,5.8,97,0.00,,---,0.95,VWS V14.00,2013-07-30 17:03:00,
2013-07-30 12:04:00,76.1,75.2,29.88,South,180,5.8,5.8,97,0.00,,---,0.95,VWS V14.00,2013-07-30 17:04:00,
2013-07-30 12:05:00,76.1,75.2,29.88,South,180,5.8,5.8,97,0.00,,---,0.95,VWS V14.00,2013-07-30 17:05:00,
2013-07-30 12:06:00,76.1,75.2,29.88,South,180,5.8,5.8,97,0.00,,---,0.95,VWS V14.00,2013-07-30 17:06:00,
2013-07-30 12:07:00,76.1,75.2,29.88,South,180,5.8,5.8,97,0.00,,---,0.95,VWS V14.00,2013-07-30 17:07:00,
2013-07-30 12:08:00,76.1,75.2,29.88,South,180,5.8,5.8,97,0.00,,---,0.95,VWS V14.00,2013-07-30 17:08:00,
2013-07-30 12:09:00,76.1,75.2,29.88,South,180,5.8,5.8,97,0.00,,---,0.95,VWS V14.00,2013-07-30 17:09:00,
2013-07-30 12:10:00,76.1,75.2,29.88,South,180,5.8,5.8,97,0.00,,---,0.95,VWS V14.00,2013-07-30 17:10:00,
2013-07-30 12:11:00,75.9,75.0,29.88,South,180,5.8,5.8,97,0.00,,---,0.95,VWS V14.00,2013-07-30 17:11:00,
2013-07-30 12:12:00,75.9,75.0,29.88,South,180,5.8,5.8,97,0.00,,---,0.95,VWS V14.00,2013-07-30 17:12:00,
2013-07-30 12:13:00,75.9,75.0,29.88,South,180,5.8,5.8,97,0.00,,---,0.95,VWS V14.00,2013-07-30 17:13:00,
2013-07-30 12:14:00,75.9,75.0,29.88,South,180,5.8,5.8,97,0.00,,---,0.95,VWS V14.00,2013-07-30 17:14:00,
2013-07-30 12:15:00,75.9,75.0,29.88,South,180,5.8,5.8,97,0.00,,---,0.95,VWS V14.00,2013-07-30 17:15:00,
2013-07-30 12:16:00,75.7,74.8,29.88,South,180,5.8,5.8,97,0.00,,---,0.95,VWS V14.00,2013-07-30 17:16:00,
2013-07-30 12:17:00,75.7,74.8,29.85,South,180,5.8,5.8,97,0.00,,---,0.95,VWS V14.00,2013-07-30 17:17:00,
2013-07-30 12:18:00,75.6,74.7,29.85,South,180,5.8,5.8,97,0.00,,---,0.95,VWS V14.00,2013-07-30 17:18:00,
2013-07-30 12:19:00,75.4,74.2,29.85,South,180,5.8,5.8,96,0.00,,---,0.95,VWS V14.00,2013-07-30 17:19:00,
2013-07-30 12:20:00,75.4,74.2,29.85,South,180,5.8,5.8,96,0.04,,---,0.99,VWS V14.00,2013-07-30 17:20:00,
2013-07-30 12:21:00,75.4,74.2,29.85,South,180,5.8,5.8,96,0.04,,---,0.99,VWS V14.00,2013-07-30 17:21:00,
2013-07-30 12:22:00,75.4,74.2,29.85,South,180,5.8,5.8,96,0.04,,---,0.99,VWS V14.00,2013-07-30 17:22:00,
2013-07-30 12:23:00,75.4,74.2,29.85,South,180,5.8,5.8,96,0.04,,---,0.99,VWS V14.00,2013-07-30 17:23:00,
2013-07-30 12:24:00,75.4,74.2,29.85,South,180,5.8,5.8,96,0.04,,---,0.99,VWS V14.00,2013-07-30 17:24:00,
2013-07-30 12:25:00,75.4,74.2,29.85,South,180,5.8,5.8,96,0.04,,---,0.99,VWS V14.00,2013-07-30 17:25:00,
2013-07-30 12:26:00,75.4,74.2,29.85,South,180,5.8,5.8,96,0.04,,---,0.99,VWS V14.00,2013-07-30 17:26:00,
2013-07-30 12:27:00,75.4,74.2,29.85,South,180,5.8,5.8,96,0.04,,---,0.99,VWS V14.00,2013-07-30 17:27:00,
2013-07-30 12:28:00,75.4,74.2,29.85,South,180,5.8,5.8,96,0.04,,---,0.99,VWS V14.00,2013-07-30 17:28:00,
2013-07-30 12:29:00,75.4,74.2,29.85,South,180,5.8,5.8,96,0.04,,---,0.99,VWS V14.00,2013-07-30 17:29:00,
2013-07-30 12:30:00,75.4,74.2,29.85,South,180,5.8,5.8,96,0.04,,---,0.99,VWS V14.00,2013-07-30 17:30:00,
2013-07-30 12:31:00,75.4,74.2,29.85,South,180,5.8,5.8,96,0.04,,---,0.99,VWS V14.00,2013-07-30 17:31:00,
2013-07-30 12:32:00,75.4,74.2,29.85,South,180,5.8,5.8,96,0.04,,---,0.99,VWS V14.00,2013-07-30 17:32:00,
2013-07-30 12:33:00,75.4,74.2,29.85,South,180,5.8,5.8,96,0.04,,---,0.99,VWS V14.00,2013-07-30 17:33:00,
2013-07-30 12:34:00,75.6,74.7,29.85,South,180,5.8,5.8,97,0.04,,---,0.99,VWS V14.00,2013-07-30 17:34:00,
2013-07-30 12:35:00,75.6,74.7,29.85,South,180,5.8,5.8,97,0.04,,---,0.99,VWS V14.00,2013-07-30 17:35:00,
2013-07-30 12:36:00,75.6,74.7,29.85,South,180,5.8,5.8,97,0.04,,---,0.99,VWS V14.00,2013-07-30 17:36:00,
2013-07-30 12:37:00,75.6,74.7,29.85,South,180,5.8,5.8,97,0.04,,---,0.99,VWS V14.00,2013-07-30 17:37:00,
2013-07-30 12:38:00,75.6,74.7,29.85,South,180,5.8,5.8,97,0.04,,---,0.99,VWS V14.00,2013-07-30 17:38:00,
2013-07-30 12:39:00,75.6,74.7,29.85,South,180,5.8,5.8,97,0.04,,---,0.99,VWS V14.00,2013-07-30 17:39:00,
2013-07-30 12:40:00,75.6,74.7,29.85,South,180,5.8,5.8,97,0.04,,---,0.99,VWS V14.00,2013-07-30 17:40:00,
2013-07-30 12:41:00,75.6,74.7,29.85,SE,135,5.8,5.8,97,0.04,,---,0.99,VWS V14.00,2013-07-30 17:41:00,
2013-07-30 12:42:00,75.6,74.7,29.85,SE,135,5.8,5.8,97,0.04,,---,0.99,VWS V14.00,2013-07-30 17:42:00,
2013-07-30 12:43:00,75.6,74.7,29.85,SE,135,5.8,5.8,97,0.04,,---,0.99,VWS V14.00,2013-07-30 17:43:00,
2013-07-30 12:44:00,75.6,74.7,29.85,SE,135,5.8,5.8,97,0.04,,---,0.99,VWS V14.00,2013-07-30 17:44:00,
2013-07-30 12:45:00,75.6,74.7,29.85,SE,135,5.8,5.8,97,0.04,,---,0.99,VWS V14.00,2013-07-30 17:45:00,
2013-07-30 12:46:00,75.6,74.7,29.85,SE,135,5.8,5.8,97,0.04,,---,0.99,VWS V14.00,2013-07-30 17:46:00,
2013-07-30 12:47:00,75.7,74.8,29.85,SE,135,5.8,5.8,97,0.04,,---,0.99,VWS V14.00,2013-07-30 17:47:00,
2013-07-30 12:48:00,75.7,74.8,29.85,SE,135,5.8,5.8,97,0.04,,---,0.99,VWS V14.00,2013-07-30 17:48:00,
2013-07-30 12:50:00,75.7,74.8,29.85,SE,135,5.8,5.8,97,0.04,,---,0.99,VWS V14.00,2013-07-30 17:50:00,
2013-07-30 12:51:00,75.9,75.0,29.85,SE,135,5.8,5.8,97,0.04,,---,0.99,VWS V14.00,2013-07-30 17:51:00,
2013-07-30 12:52:00,75.9,75.0,29.85,SE,135,5.8,5.8,97,0.04,,---,0.99,VWS V14.00,2013-07-30 17:52:00,
2013-07-30 12:53:00,75.9,75.0,29.85,SE,135,5.8,5.8,97,0.04,,---,0.99,VWS V14.00,2013-07-30 17:53:00,
2013-07-30 12:54:00,75.9,75.0,29.85,SE,135,5.8,5.8,97,0.04,,---,0.99,VWS V14.00,2013-07-30 17:54:00,
2013-07-30 12:55:00,75.9,75.0,29.85,SE,135,5.8,5.8,97,0.04,,---,0.99,VWS V14.00,2013-07-30 17:55:00,
2013-07-30 12:56:00,76.1,75.2,29.85,SSE,158,6.3,6.3,97,0.04,,---,0.99,VWS V14.00,2013-07-30 17:56:00,
2013-07-30 12:57:00,76.1,75.2,29.85,SSE,158,6.3,6.3,97,0.04,,---,0.99,VWS V14.00,2013-07-30 17:57:00,
2013-07-30 12:58:00,76.1,75.2,29.85,SSE,158,6.3,6.3,97,0.04,,---,0.99,VWS V14.00,2013-07-30 17:58:00,
2013-07-30 12:59:00,76.1,75.2,29.85,SSE,158,6.3,6.3,97,0.04,,---,0.99,VWS V14.00,2013-07-30 17:59:00,
2013-07-30 13:00:00,76.1,75.2,29.85,SSE,158,6.3,6.3,97,0.04,,---,0.99,VWS V14.00,2013-07-30 18:00:00,
2013-07-30 13:01:00,76.3,75.4,29.85,SSE,158,6.3,6.3,97,0.04,,---,0.99,VWS V14.00,2013-07-30 18:01:00,
2013-07-30 13:02:00,76.3,75.4,29.85,SSE,158,6.3,6.3,97,0.04,,---,0.99,VWS V14.00,2013-07-30 18:02:00,
2013-07-30 13:03:00,76.5,75.6,29.85,SSE,158,6.3,6.3,97,0.04,,---,0.99,VWS V14.00,2013-07-30 18:03:00,
2013-07-30 13:04:00,76.5,75.6,29.85,SSE,158,6.3,6.3,97,0.04,,---,0.99,VWS V14.00,2013-07-30 18:04:00,
2013-07-30 13:05:00,76.8,76.2,29.85,SSE,158,6.3,6.3,98,0.04,,---,0.99,VWS V14.00,2013-07-30 18:05:00,
2013-07-30 13:06:00,76.8,76.2,29.85,SSE,158,6.3,6.3,98,0.04,,---,0.99,VWS V14.00,2013-07-30 18:06:00,
2013-07-30 13:07:00,76.8,76.2,29.85,SSE,158,6.3,6.3,98,0.04,,---,0.99,VWS V14.00,2013-07-30 18:07:00,
2013-07-30 13:08:00,76.8,76.2,29.85,SSE,158,6.3,6.3,98,0.04,,---,0.99,VWS V14.00,2013-07-30 18:08:00,
2013-07-30 13:09:00,76.8,76.2,29.85,SSE,158,6.3,6.3,98,0.04,,---,0.99,VWS V14.00,2013-07-30 18:09:00,
2013-07-30 13:10:00,77.0,76.1,29.85,SSE,158,6.3,6.3,97,0.04,,---,0.99,VWS V14.00,2013-07-30 18:10:00,
2013-07-30 13:11:00,77.0,76.1,29.85,SSE,158,6.3,6.3,97,0.04,,---,0.99,VWS V14.00,2013-07-30 18:11:00,
2013-07-30 13:12:00,77.0,76.1,29.85,SSE,158,6.3,6.3,97,0.04,,---,0.99,VWS V14.00,2013-07-30 18:12:00,
2013-07-30 13:13:00,77.0,76.1,29.85,SSE,158,6.3,6.3,97,0.04,,---,0.99,VWS V14.00,2013-07-30 18:13:00,
2013-07-30 13:14:00,77.0,76.1,29.85,SSE,158,6.3,6.3,97,0.04,,---,0.99,VWS V14.00,2013-07-30 18:14:00,
2013-07-30 13:15:00,77.0,76.1,29.85,SSE,158,6.3,6.3,97,0.04,,---,0.99,VWS V14.00,2013-07-30 18:15:00,
2013-07-30 13:16:00,77.0,76.1,29.85,SSE,158,6.3,6.3,97,0.04,,---,0.99,VWS V14.00,2013-07-30 18:16:00,
2013-07-30 13:17:00,77.0,76.1,29.85,SSE,158,6.3,6.3,97,0.04,,---,0.99,VWS V14.00,2013-07-30 18:17:00,
2013-07-30 13:18:00,77.0,76.1,29.85,SSE,158,6.3,6.3,97,0.04,,---,0.99,VWS V14.00,2013-07-30 18:18:00,
2013-07-30 13:19:00,77.2,76.3,29.85,SSE,158,6.3,6.3,97,0.04,,---,0.99,VWS V14.00,2013-07-30 18:19:00,
2013-07-30 13:20:00,77.2,76.3,29.85,SSE,158,6.3,6.3,97,0.04,,---,0.99,VWS V14.00,2013-07-30 18:20:00,
2013-07-30 13:21:00,77.4,76.4,29.85,SSE,158,6.3,6.3,97,0.00,,---,0.99,VWS V14.00,2013-07-30 18:21:00,
2013-07-30 13:22:00,77.4,76.4,29.85,SSE,158,6.3,6.3,97,0.00,,---,0.99,VWS V14.00,2013-07-30 18:22:00,
2013-07-30 13:23:00,77.5,76.6,29.85,SSE,158,6.3,6.3,97,0.00,,---,0.99,VWS V14.00,2013-07-30 18:23:00,
2013-07-30 13:24:00,77.5,76.6,29.85,SSE,158,6.3,6.3,97,0.00,,---,0.99,VWS V14.00,2013-07-30 18:24:00,
2013-07-30 13:25:00,77.5,76.6,29.85,SSE,158,6.3,6.3,97,0.00,,---,0.99,VWS V14.00,2013-07-30 18:25:00,
2013-07-30 13:26:00,77.5,76.6,29.85,SSE,158,6.3,6.3,97,0.00,,---,0.99,VWS V14.00,2013-07-30 18:26:00,
2013-07-30 13:27:00,77.5,76.6,29.85,SSE,158,6.3,6.3,97,0.00,,---,0.99,VWS V14.00,2013-07-30 18:27:00,
2013-07-30 13:28:00,77.5,76.6,29.85,SSE,158,14.4,14.4,97,0.00,,---,0.99,VWS V14.00,2013-07-30 18:28:00,
2013-07-30 13:29:00,77.5,76.3,29.85,SSE,158,14.4,14.4,96,0.00,,---,0.99,VWS V14.00,2013-07-30 18:29:00,
2013-07-30 13:30:00,77.4,76.1,29.85,SSE,158,14.4,14.4,96,0.00,,---,0.99,VWS V14.00,2013-07-30 18:30:00,
2013-07-30 13:31:00,77.4,76.1,29.85,SSE,158,14.4,14.4,96,0.00,,---,0.99,VWS V14.00,2013-07-30 18:31:00,
2013-07-30 13:32:00,77.4,76.1,29.85,SSE,158,14.4,14.4,96,0.00,,---,0.99,VWS V14.00,2013-07-30 18:32:00,
2013-07-30 13:33:00,77.5,76.3,29.85,SW,225,6.9,10.7,96,0.00,,---,0.99,VWS V14.00,2013-07-30 18:33:00,
2013-07-30 13:34:00,77.5,76.3,29.85,SW,225,6.9,6.9,96,0.00,,---,0.99,VWS V14.00,2013-07-30 18:34:00,
2013-07-30 13:35:00,77.5,76.3,29.85,SW,225,6.9,6.9,96,0.00,,---,0.99,VWS V14.00,2013-07-30 18:35:00,
2013-07-30 13:36:00,77.5,76.3,29.85,SW,225,6.9,6.9,96,0.00,,---,0.99,VWS V14.00,2013-07-30 18:36:00,
2013-07-30 13:37:00,77.7,76.5,29.85,SW,225,6.9,6.9,96,0.00,,---,0.99,VWS V14.00,2013-07-30 18:37:00,
2013-07-30 13:38:00,77.5,76.3,29.85,SW,225,6.9,6.9,96,0.00,,---,0.99,VWS V14.00,2013-07-30 18:38:00,
2013-07-30 13:39:00,77.5,76.3,29.85,SSW,202,6.9,6.9,96,0.00,,---,0.99,VWS V14.00,2013-07-30 18:39:00,
2013-07-30 13:40:00,77.5,76.3,29.85,SSE,158,5.8,5.8,96,0.00,,---,0.99,VWS V14.00,2013-07-30 18:40:00,
2013-07-30 13:41:00,77.7,76.5,29.85,SSE,158,5.8,5.8,96,0.00,,---,0.99,VWS V14.00,2013-07-30 18:41:00,
2013-07-30 13:42:00,77.5,76.3,29.85,SSE,158,5.8,5.8,96,0.00,,---,0.99,VWS V14.00,2013-07-30 18:42:00,
2013-07-30 13:43:00,77.4,76.1,29.85,South,180,6.0,6.0,96,0.00,,---,0.99,VWS V14.00,2013-07-30 18:43:00,
2013-07-30 13:44:00,77.4,75.8,29.85,South,180,6.0,6.0,95,0.00,,---,0.99,VWS V14.00,2013-07-30 18:44:00,
2013-07-30 13:46:00,77.4,75.8,29.85,South,180,6.0,6.0,95,0.00,,---,0.99,VWS V14.00,2013-07-30 18:46:00,
2013-07-30 13:47:00,77.4,75.8,29.85,South,180,6.0,6.0,95,0.00,,---,0.99,VWS V14.00,2013-07-30 18:47:00,
2013-07-30 13:48:00,77.2,75.6,29.85,South,180,6.0,6.0,95,0.00,,---,0.99,VWS V14.00,2013-07-30 18:48:00,
2013-07-30 13:49:00,77.2,75.6,29.85,South,180,6.0,6.0,95,0.00,,---,0.99,VWS V14.00,2013-07-30 18:49:00,
2013-07-30 13:50:00,77.2,75.6,29.85,SW,225,3.5,4.0,95,0.00,,---,0.99,VWS V14.00,2013-07-30 18:50:00,
2013-07-30 13:51:00,77.2,75.6,29.85,SW,225,3.5,3.5,95,0.00,,---,0.99,VWS V14.00,2013-07-30 18:51:00,
2013-07-30 13:52:00,77.4,75.8,29.85,SW,225,3.5,3.5,95,0.00,,---,0.99,VWS V14.00,2013-07-30 18:52:00,
2013-07-30 13:53:00,77.4,75.8,29.85,SSE,158,2.4,2.4,95,0.00,,---,0.99,VWS V14.00,2013-07-30 18:53:00,
2013-07-30 13:54:00,77.4,75.8,29.85,SE,135,8.0,8.0,95,0.00,,---,0.99,VWS V14.00,2013-07-30 18:54:00,
2013-07-30 13:55:00,77.4,75.8,29.85,SE,135,8.0,8.0,95,0.00,,---,0.99,VWS V14.00,2013-07-30 18:55:00,
2013-07-30 13:56:00,77.4,75.8,29.85,SSE,158,2.4,5.6,95,0.00,,---,0.99,VWS V14.00,2013-07-30 18:56:00,
2013-07-30 13:57:00,77.5,76.0,29.85,SSE,158,2.4,2.4,95,0.00,,---,0.99,VWS V14.00,2013-07-30 18:57:00,
2013-07-30 13:58:00,77.5,76.0,29.85,SSE,158,2.4,2.4,95,0.00,,---,0.99,VWS V14.00,2013-07-30 18:58:00,
2013-07-30 13:59:00,77.5,76.0,29.85,SW,225,6.6,6.6,95,0.00,,---,0.99,VWS V14.00,2013-07-30 18:59:00,
2013-07-30 14:00:00,77.5,76.0,29.85,SW,225,6.6,6.6,95,0.00,,---,0.99,VWS V14.00,2013-07-30 19:00:00,
2013-07-30 14:01:00,77.5,76.0,29.85,SW,225,6.6,6.6,95,0.00,,---,0.99,VWS V14.00,2013-07-30 19:01:00,
2013-07-30 14:02:00,77.5,76.0,29.85,SW,225,6.6,6.6,95,0.00,,---,0.99,VWS V14.00,2013-07-30 19:02:00,
2013-07-30 14:03:00,77.5,76.0,29.85,SW,225,5.5,5.5,95,0.00,,---,0.99,VWS V14.00,2013-07-30 19:03:00,
2013-07-30 14:04:00,77.5,76.0,29.85,SW,225,10.0,10.0,95,0.00,,---,0.99,VWS V14.00,2013-07-30 19:04:00,
2013-07-30 14:05:00,77.5,76.0,29.85,SSE,158,8.0,8.0,95,0.00,,---,0.99,VWS V14.00,2013-07-30 19:05:00,
2013-07-30 14:06:00,77.5,76.0,29.85,SSE,158,8.0,8.0,95,0.00,,---,0.99,VWS V14.00,2013-07-30 19:06:00,
2013-07-30 14:07:00,77.5,76.0,29.85,SSE,158,8.0,8.0,95,0.00,,---,0.99,VWS V14.00,2013-07-30 19:07:00,
2013-07-30 14:08:00,77.5,76.0,29.85,SSE,158,8.0,8.0,95,0.00,,---,0.99,VWS V14.00,2013-07-30 19:08:00,
2013-07-30 14:09:00,77.5,76.0,29.85,SSE,158,8.0,8.0,95,0.00,,---,0.99,VWS V14.00,2013-07-30 19:09:00,
2013-07-30 14:10:00,77.5,76.0,29.85,SSE,158,8.0,8.0,95,0.00,,---,0.99,VWS V14.00,2013-07-30 19:10:00,
2013-07-30 14:11:00,77.5,76.0,29.85,SSE,158,8.0,8.0,95,0.00,,---,0.99,VWS V14.00,2013-07-30 19:11:00,
2013-07-30 14:12:00,77.5,76.0,29.85,SSE,158,8.0,8.0,95,0.00,,---,0.99,VWS V14.00,2013-07-30 19:12:00,
2013-07-30 14:13:00,77.5,76.0,29.85,SSE,158,8.0,8.0,95,0.00,,---,0.99,VWS V14.00,2013-07-30 19:13:00,
2013-07-30 14:14:00,77.4,75.8,29.85,SSE,158,8.0,8.0,95,0.00,,---,0.99,VWS V14.00,2013-07-30 19:14:00,
2013-07-30 14:15:00,77.4,75.8,29.85,SSE,158,8.0,8.0,95,0.00,,---,0.99,VWS V14.00,2013-07-30 19:15:00,
2013-07-30 14:16:00,77.4,75.8,29.85,SSE,158,8.0,8.0,95,0.00,,---,0.99,VWS V14.00,2013-07-30 19:16:00,
2013-07-30 14:17:00,77.4,75.8,29.82,SSE,158,8.0,8.0,95,0.00,,---,0.99,VWS V14.00,2013-07-30 19:17:00,
2013-07-30 14:18:00,77.4,75.8,29.82,SSE,158,8.0,8.0,95,0.00,,---,0.99,VWS V14.00,2013-07-30 19:18:00,
2013-07-30 14:19:00,77.4,75.8,29.82,SSE,158,8.0,8.0,95,0.00,,---,0.99,VWS V14.00,2013-07-30 19:19:00,
2013-07-30 14:20:00,77.4,75.8,29.82,SSE,158,8.0,8.0,95,0.00,,---,0.99,VWS V14.00,2013-07-30 19:20:00,
2013-07-30 14:21:00,77.5,76.0,29.82,SSE,158,8.0,8.0,95,0.00,,---,0.99,VWS V14.00,2013-07-30 19:21:00,
2013-07-30 14:22:00,77.4,75.8,29.82,SSE,158,8.0,8.0,95,0.00,,---,0.99,VWS V14.00,2013-07-30 19:22:00,
2013-07-30 14:23:00,77.4,75.8,29.82,SSE,158,8.0,8.0,95,0.00,,---,0.99,VWS V14.00,2013-07-30 19:23:00,
2013-07-30 14:24:00,77.4,75.8,29.82,SSE,158,8.0,8.0,95,0.00,,---,0.99,VWS V14.00,2013-07-30 19:24:00,
2013-07-30 14:25:00,77.4,75.8,29.82,SSE,158,8.0,8.0,95,0.00,,---,0.99,VWS V14.00,2013-07-30 19:25:00,
2013-07-30 14:26:00,77.4,75.8,29.82,SSE,158,8.0,8.0,95,0.00,,---,0.99,VWS V14.00,2013-07-30 19:26:00,
2013-07-30 14:27:00,77.4,75.8,29.82,SSE,158,8.0,8.0,95,0.00,,---,0.99,VWS V14.00,2013-07-30 19:27:00,
2013-07-30 14:28:00,77.5,76.0,29.82,SSE,158,8.0,8.0,95,0.00,,---,0.99,VWS V14.00,2013-07-30 19:28:00,
2013-07-30 14:29:00,77.4,75.8,29.82,ESE,112,8.6,8.6,95,0.00,,---,0.99,VWS V14.00,2013-07-30 19:29:00,
2013-07-30 14:30:00,77.4,75.8,29.82,ESE,112,8.6,8.6,95,0.00,,---,0.99,VWS V14.00,2013-07-30 19:30:00,
2013-07-30 14:31:00,77.5,76.0,29.82,ESE,112,8.6,8.6,95,0.00,,---,0.99,VWS V14.00,2013-07-30 19:31:00,
2013-07-30 14:32:00,77.5,76.0,29.82,ESE,112,8.6,8.6,95,0.00,,---,0.99,VWS V14.00,2013-07-30 19:32:00,
2013-07-30 14:33:00,77.5,76.0,29.82,ESE,112,8.6,8.6,95,0.00,,---,0.99,VWS V14.00,2013-07-30 19:33:00,
2013-07-30 14:34:00,77.5,76.0,29.82,ESE,112,8.6,8.6,95,0.00,,---,0.99,VWS V14.00,2013-07-30 19:34:00,
2013-07-30 14:35:00,77.7,76.2,29.82,ESE,112,8.6,8.6,95,0.00,,---,0.99,VWS V14.00,2013-07-30 19:35:00,
2013-07-30 14:36:00,77.7,76.2,29.82,ESE,112,8.6,8.6,95,0.00,,---,0.99,VWS V14.00,2013-07-30 19:36:00,
2013-07-30 14:37:00,77.7,76.2,29.82,ESE,112,8.6,8.6,95,0.00,,---,0.99,VWS V14.00,2013-07-30 19:37:00,
2013-07-30 14:38:00,77.7,76.2,29.82,ESE,112,8.6,8.6,95,0.00,,---,0.99,VWS V14.00,2013-07-30 19:38:00,
2013-07-30 14:39:00,77.7,76.2,29.82,ESE,112,8.6,8.6,95,0.00,,---,0.99,VWS V14.00,2013-07-30 19:39:00,
2013-07-30 14:40:00,77.7,76.2,29.82,ESE,112,8.6,8.6,95,0.00,,---,0.99,VWS V14.00,2013-07-30 19:40:00,
2013-07-30 14:41:00,77.7,75.9,29.82,ESE,112,8.6,8.6,94,0.00,,---,0.99,VWS V14.00,2013-07-30 19:41:00,
2013-07-30 14:42:00,77.7,75.9,29.82,ESE,112,8.6,8.6,94,0.00,,---,0.99,VWS V14.00,2013-07-30 19:42:00,
2013-07-30 14:43:00,77.7,75.9,29.82,ESE,112,8.6,8.6,94,0.00,,---,0.99,VWS V14.00,2013-07-30 19:43:00,
2013-07-30 14:44:00,77.7,75.9,29.82,ESE,112,8.6,8.6,94,0.00,,---,0.99,VWS V14.00,2013-07-30 19:44:00,
2013-07-30 14:45:00,77.7,75.9,29.82,ESE,112,8.6,8.6,94,0.00,,---,0.99,VWS V14.00,2013-07-30 19:45:00,
2013-07-30 14:46:00,77.7,75.9,29.82,ESE,112,8.6,8.6,94,0.00,,---,0.99,VWS V14.00,2013-07-30 19:46:00,
2013-07-30 14:47:00,77.7,75.9,29.82,ESE,112,8.6,8.6,94,0.00,,---,0.99,VWS V14.00,2013-07-30 19:47:00,
2013-07-30 14:48:00,77.7,75.9,29.82,ESE,112,8.6,8.6,94,0.00,,---,0.99,VWS V14.00,2013-07-30 19:48:00,
2013-07-30 14:49:00,77.7,75.9,29.82,ESE,112,8.6,8.6,94,0.00,,---,0.99,VWS V14.00,2013-07-30 19:49:00,
2013-07-30 14:50:00,77.7,75.9,29.82,ESE,112,8.6,8.6,94,0.00,,---,0.99,VWS V14.00,2013-07-30 19:50:00,
2013-07-30 14:51:00,77.7,75.9,29.82,ESE,112,8.6,8.6,94,0.00,,---,0.99,VWS V14.00,2013-07-30 19:51:00,
2013-07-30 14:52:00,77.7,75.9,29.82,ESE,112,8.6,8.6,94,0.00,,---,0.99,VWS V14.00,2013-07-30 19:52:00,
2013-07-30 14:53:00,77.7,75.9,29.82,ESE,112,8.6,8.6,94,0.00,,---,0.99,VWS V14.00,2013-07-30 19:53:00,
2013-07-30 14:54:00,77.7,75.9,29.82,ESE,112,8.6,8.6,94,0.00,,---,0.99,VWS V14.00,2013-07-30 19:54:00,
2013-07-30 14:55:00,77.7,75.9,29.82,ESE,112,8.6,8.6,94,0.00,,---,0.99,VWS V14.00,2013-07-30 19:55:00,
2013-07-30 14:56:00,77.7,75.9,29.82,ESE,112,8.6,8.6,94,0.00,,---,0.99,VWS V14.00,2013-07-30 19:56:00,
2013-07-30 14:57:00,77.7,75.9,29.82,ESE,112,8.6,8.6,94,0.00,,---,0.99,VWS V14.00,2013-07-30 19:57:00,
2013-07-30 14:58:00,77.7,75.9,29.82,ESE,112,8.6,8.6,94,0.00,,---,0.99,VWS V14.00,2013-07-30 19:58:00,
2013-07-30 14:59:00,77.7,75.9,29.82,ESE,112,8.6,8.6,94,0.00,,---,0.99,VWS V14.00,2013-07-30 19:59:00,
2013-07-30 15:00:00,77.7,75.9,29.82,ESE,112,8.6,8.6,94,0.00,,---,0.99,VWS V14.00,2013-07-30 20:00:00,
2013-07-30 15:01:00,77.7,75.9,29.82,ESE,112,8.6,8.6,94,0.00,,---,0.99,VWS V14.00,2013-07-30 20:01:00,
2013-07-30 15:02:00,77.7,75.9,29.82,ESE,112,8.6,8.6,94,0.00,,---,0.99,VWS V14.00,2013-07-30 20:02:00,
2013-07-30 15:04:00,77.7,75.9,29.82,ESE,112,8.6,8.6,94,0.00,,---,0.99,VWS V14.00,2013-07-30 20:04:00,
2013-07-30 15:05:00,77.7,75.9,29.82,ESE,112,8.6,8.6,94,0.00,,---,0.99,VWS V14.00,2013-07-30 20:05:00,
2013-07-30 15:06:00,77.7,75.9,29.82,ESE,112,8.6,8.6,94,0.00,,---,0.99,VWS V14.00,2013-07-30 20:06:00,
2013-07-30 15:07:00,77.7,75.9,29.82,ESE,112,8.6,8.6,94,0.00,,---,0.99,VWS V14.00,2013-07-30 20:07:00,
2013-07-30 15:08:00,77.9,76.0,29.82,ESE,112,8.6,8.6,94,0.00,,---,0.99,VWS V14.00,2013-07-30 20:08:00,
2013-07-30 15:09:00,77.9,76.0,29.82,ESE,112,8.6,8.6,94,0.00,,---,0.99,VWS V14.00,2013-07-30 20:09:00,
2013-07-30 15:10:00,77.9,76.0,29.82,ESE,112,8.6,8.6,94,0.00,,---,0.99,VWS V14.00,2013-07-30 20:10:00,
2013-07-30 15:11:00,77.9,76.0,29.82,ESE,112,8.6,8.6,94,0.00,,---,0.99,VWS V14.00,2013-07-30 20:11:00,
2013-07-30 15:12:00,78.1,76.2,29.82,ESE,112,8.6,8.6,94,0.00,,---,0.99,VWS V14.00,2013-07-30 20:12:00,
2013-07-30 15:13:00,78.1,76.2,29.82,ESE,112,8.6,8.6,94,0.00,,---,0.99,VWS V14.00,2013-07-30 20:13:00,
2013-07-30 15:14:00,78.1,76.2,29.82,ESE,112,8.6,8.6,94,0.00,,---,0.99,VWS V14.00,2013-07-30 20:14:00,
2013-07-30 15:15:00,78.3,76.7,29.82,ESE,112,8.6,8.6,95,0.00,,---,0.99,VWS V14.00,2013-07-30 20:15:00,
2013-07-30 15:16:00,78.3,76.7,29.82,ESE,112,8.6,8.6,95,0.00,,---,0.99,VWS V14.00,2013-07-30 20:16:00,
2013-07-30 15:17:00,78.3,76.7,29.82,ESE,112,8.6,8.6,95,0.00,,---,0.99,VWS V14.00,2013-07-30 20:17:00,
2013-07-30 15:18:00,78.3,76.7,29.82,ESE,112,8.6,8.6,95,0.00,,---,0.99,VWS V14.00,2013-07-30 20:18:00,
2013-07-30 15:19:00,78.4,76.9,29.82,ESE,112,8.6,8.6,95,0.00,,---,0.99,VWS V14.00,2013-07-30 20:19:00,
2013-07-30 15:20:00,78.4,76.9,29.82,ESE,112,8.6,8.6,95,0.00,,---,0.99,VWS V14.00,2013-07-30 20:20:00,
2013-07-30 15:21:00,78.4,76.9,29.82,ESE,112,8.6,8.6,95,0.00,,---,0.99,VWS V14.00,2013-07-30 20:21:00,
2013-07-30 15:22:00,78.6,77.1,29.82,ESE,112,8.6,8.6,95,0.00,,---,0.99,VWS V14.00,2013-07-30 20:22:00,
2013-07-30 15:23:00,78.6,77.1,29.82,ESE,112,8.6,8.6,95,0.00,,---,0.99,VWS V14.00,2013-07-30 20:23:00,
2013-07-30 15:24:00,78.6,77.1,29.82,ESE,112,8.6,8.6,95,0.00,,---,0.99,VWS V14.00,2013-07-30 20:24:00,
2013-07-30 15:25:00,78.8,77.2,29.82,ESE,112,8.6,8.6,95,0.00,,---,0.99,VWS V14.00,2013-07-30 20:25:00,
2013-07-30 15:26:00,78.8,77.2,29.82,ESE,112,8.6,8.6,95,0.00,,---,0.99,VWS V14.00,2013-07-30 20:26:00,
2013-07-30 15:27:00,78.8,77.2,29.82,ESE,112,8.6,8.6,95,0.00,,---,0.99,VWS V14.00,2013-07-30 20:27:00,
2013-07-30 15:28:00,78.8,77.2,29.82,ESE,112,8.6,8.6,95,0.00,,---,0.99,VWS V14.00,2013-07-30 20:28:00,
2013-07-30 15:29:00,79.0,77.4,29.82,ESE,112,8.6,8.6,95,0.00,,---,0.99,VWS V14.00,2013-07-30 20:29:00,
2013-07-30 15:30:00,79.0,77.4,29.82,ESE,112,8.6,8.6,95,0.00,,---,0.99,VWS V14.00,2013-07-30 20:30:00,
2013-07-30 15:31:00,79.0,77.4,29.82,ESE,112,8.6,8.6,95,0.00,,---,0.99,VWS V14.00,2013-07-30 20:31:00,
2013-07-30 15:32:00,79.0,77.4,29.82,ESE,112,8.6,8.6,95,0.00,,---,0.99,VWS V14.00,2013-07-30 20:32:00,
2013-07-30 15:33:00,79.0,77.4,29.82,ESE,112,8.6,8.6,95,0.00,,---,0.99,VWS V14.00,2013-07-30 20:33:00,
2013-07-30 15:34:00,79.0,77.1,29.82,ESE,112,8.6,8.6,94,0.00,,---,0.99,VWS V14.00,2013-07-30 20:34:00,
2013-07-30 15:35:00,79.0,77.1,29.82,ESE,112,8.6,8.6,94,0.00,,---,0.99,VWS V14.00,2013-07-30 20:35:00,
2013-07-30 15:36:00,79.0,77.1,29.82,ESE,112,8.6,8.6,94,0.00,,---,0.99,VWS V14.00,2013-07-30 20:36:00,
2013-07-30 15:37:00,79.0,77.1,29.82,ESE,112,8.6,8.6,94,0.00,,---,0.99,VWS V14.00,2013-07-30 20:37:00,
2013-07-30 15:38:00,79.0,77.1,29.82,ESE,112,8.6,8.6,94,0.00,,---,0.99,VWS V14.00,2013-07-30 20:38:00,
2013-07-30 15:39:00,79.2,77.3,29.82,ESE,112,8.6,8.6,94,0.00,,---,0.99,VWS V14.00,2013-07-30 20:39:00,
2013-07-30 15:40:00,79.2,77.3,29.82,ESE,112,8.6,8.6,94,0.00,,---,0.99,VWS V14.00,2013-07-30 20:40:00,
2013-07-30 15:41:00,79.2,77.3,29.82,ESE,112,8.6,8.6,94,0.00,,---,0.99,VWS V14.00,2013-07-30 20:41:00,
2013-07-30 15:42:00,79.2,77.3,29.82,ESE,112,8.6,8.6,94,0.00,,---,0.99,VWS V14.00,2013-07-30 20:42:00,
2013-07-30 15:43:00,79.3,77.5,29.82,ESE,112,8.6,8.6,94,0.00,,---,0.99,VWS V14.00,2013-07-30 20:43:00,
2013-07-30 15:44:00,79.3,77.5,29.82,West,270,3.0,6.0,94,0.00,,---,0.99,VWS V14.00,2013-07-30 20:44:00,
2013-07-30 15:45:00,79.5,77.7,29.82,West,270,3.0,3.0,94,0.00,,---,0.99,VWS V14.00,2013-07-30 20:45:00,
2013-07-30 15:46:00,79.5,77.7,29.82,West,270,3.0,3.0,94,0.00,,---,0.99,VWS V14.00,2013-07-30 20:46:00,
2013-07-30 15:47:00,79.5,77.7,29.82,West,270,3.0,3.0,94,0.00,,---,0.99,VWS V14.00,2013-07-30 20:47:00,
2013-07-30 15:48:00,79.5,77.7,29.82,West,270,3.0,3.0,94,0.00,,---,0.99,VWS V14.00,2013-07-30 20:48:00,
2013-07-30 15:49:00,79.5,77.7,29.82,West,270,3.0,3.0,94,0.00,,---,0.99,VWS V14.00,2013-07-30 20:49:00,
2013-07-30 15:50:00,79.5,77.7,29.82,West,270,3.0,3.0,94,0.00,,---,0.99,VWS V14.00,2013-07-30 20:50:00,
2013-07-30 15:51:00,79.5,77.7,29.82,West,270,3.0,3.0,94,0.00,,---,0.99,VWS V14.00,2013-07-30 20:51:00,
2013-07-30 15:52:00,79.5,77.7,29.82,West,270,3.0,3.0,94,0.00,,---,0.99,VWS V14.00,2013-07-30 20:52:00,
2013-07-30 15:53:00,79.5,77.3,29.82,West,270,3.0,3.0,93,0.00,,---,0.99,VWS V14.00,2013-07-30 20:53:00,
2013-07-30 15:54:00,79.5,77.3,29.82,West,270,3.0,3.0,93,0.00,,---,0.99,VWS V14.00,2013-07-30 20:54:00,
2013-07-30 15:55:00,79.5,77.3,29.82,West,270,3.0,3.0,93,0.00,,---,0.99,VWS V14.00,2013-07-30 20:55:00,
2013-07-30 15:57:00,79.5,77.3,29.82,West,270,3.0,3.0,93,0.00,,---,0.99,VWS V14.00,2013-07-30 20:57:00,
2013-07-30 15:58:00,79.3,77.1,29.82,West,270,3.0,3.0,93,0.00,,---,0.99,VWS V14.00,2013-07-30 20:58:00,
2013-07-30 15:59:00,79.3,77.1,29.82,WSW,248,2.1,2.1,93,0.00,,---,0.99,VWS V14.00,2013-07-30 20:59:00,
2013-07-30 16:00:00,79.3,77.1,29.82,WSW,248,2.1,2.1,93,0.00,,---,0.99,VWS V14.00,2013-07-30 21:00:00,
2013-07-30 16:01:00,79.3,77.1,29.82,WSW,248,2.1,2.1,93,0.00,,---,0.99,VWS V14.00,2013-07-30 21:01:00,
2013-07-30 16:02:00,79.3,77.1,29.82,WSW,248,2.1,2.1,93,0.00,,---,0.99,VWS V14.00,2013-07-30 21:02:00,
2013-07-30 16:03:00,79.3,77.1,29.82,WSW,248,2.1,2.1,93,0.00,,---,0.99,VWS V14.00,2013-07-30 21:03:00,
2013-07-30 16:04:00,79.3,77.1,29.82,WSW,248,2.1,2.1,93,0.00,,---,0.99,VWS V14.00,2013-07-30 21:04:00,
2013-07-30 16:05:00,79.2,77.0,29.82,WSW,248,2.1,2.1,93,0.00,,---,0.99,VWS V14.00,2013-07-30 21:05:00,
2013-07-30 16:06:00,79.2,77.0,29.82,WSW,248,2.1,2.1,93,0.00,,---,0.99,VWS V14.00,2013-07-30 21:06:00,
2013-07-30 16:07:00,79.2,77.0,29.82,WSW,248,2.1,2.1,93,0.00,,---,0.99,VWS V14.00,2013-07-30 21:07:00,
2013-07-30 16:08:00,79.2,77.0,29.82,WSW,248,2.1,2.1,93,0.00,,---,0.99,VWS V14.00,2013-07-30 21:08:00,
2013-07-30 16:09:00,79.2,77.0,29.82,SSW,202,1.0,1.0,93,0.00,,---,0.99,VWS V14.00,2013-07-30 21:09:00,
2013-07-30 16:10:00,79.2,77.0,29.82,SSW,202,1.0,0.0,93,0.00,,---,0.99,VWS V14.00,2013-07-30 21:10:00,
2013-07-30 16:11:00,79.0,76.8,29.82,ENE,68,1.0,0.0,93,0.00,,---,0.99,VWS V14.00,2013-07-30 21:11:00,
2013-07-30 16:12:00,79.0,76.8,29.82,ENE,68,1.0,0.0,93,0.00,,---,0.99,VWS V14.00,2013-07-30 21:12:00,
2013-07-30 16:13:00,79.2,77.0,29.82,ENE,68,1.0,0.0,93,0.00,,---,0.99,VWS V14.00,2013-07-30 21:13:00,
2013-07-30 16:14:00,79.2,77.0,29.82,ENE,68,1.0,0.0,93,0.00,,---,0.99,VWS V14.00,2013-07-30 21:14:00,
2013-07-30 16:15:00,79.2,77.0,29.82,ENE,68,1.0,0.0,93,0.00,,---,0.99,VWS V14.00,2013-07-30 21:15:00,
2013-07-30 16:16:00,79.2,77.0,29.82,ENE,68,1.0,0.0,93,0.00,,---,0.99,VWS V14.00,2013-07-30 21:16:00,
2013-07-30 16:17:00,79.2,77.0,29.82,ENE,68,1.0,0.0,93,0.00,,---,0.99,VWS V14.00,2013-07-30 21:17:00,
2013-07-30 16:18:00,79.2,77.0,29.82,ENE,68,1.0,0.0,93,0.00,,---,0.99,VWS V14.00,2013-07-30 21:18:00,
2013-07-30 16:19:00,79.2,77.0,29.82,ENE,68,1.0,0.0,93,0.00,,---,0.99,VWS V14.00,2013-07-30 21:19:00,
2013-07-30 16:20:00,79.2,77.0,29.82,ENE,68,1.0,0.0,93,0.00,,---,0.99,VWS V14.00,2013-07-30 21:20:00,
2013-07-30 16:21:00,79.2,77.0,29.82,ENE,68,1.0,0.0,93,0.00,,---,0.99,VWS V14.00,2013-07-30 21:21:00,
2013-07-30 16:22:00,79.2,77.0,29.82,SE,135,2.4,2.4,93,0.00,,---,0.99,VWS V14.00,2013-07-30 21:22:00,
2013-07-30 16:23:00,79.2,77.0,29.82,ESE,112,2.4,2.4,93,0.00,,---,0.99,VWS V14.00,2013-07-30 21:23:00,
2013-07-30 16:24:00,79.2,77.0,29.82,ESE,112,2.4,2.4,93,0.00,,---,0.99,VWS V14.00,2013-07-30 21:24:00,
2013-07-30 16:25:00,79.3,77.1,29.82,ESE,112,4.4,4.4,93,0.00,,---,0.99,VWS V14.00,2013-07-30 21:25:00,
2013-07-30 16:26:00,79.3,77.1,29.82,ESE,112,4.4,4.4,93,0.00,,---,0.99,VWS V14.00,2013-07-30 21:26:00,
2013-07-30 16:27:00,79.3,77.5,29.82,ESE,112,4.4,4.4,94,0.00,,---,0.99,VWS V14.00,2013-07-30 21:27:00,
2013-07-30 16:28:00,79.3,77.5,29.82,ESE,112,4.4,4.4,94,0.00,,---,0.99,VWS V14.00,2013-07-30 21:28:00,
2013-07-30 16:29:00,79.3,77.5,29.82,ESE,112,4.4,4.4,94,0.00,,---,0.99,VWS V14.00,2013-07-30 21:29:00,
2013-07-30 16:30:00,79.3,77.5,29.82,ESE,112,4.4,4.4,94,0.00,,---,0.99,VWS V14.00,2013-07-30 21:30:00,
2013-07-30 16:31:00,79.2,77.0,29.82,ESE,112,4.4,4.4,93,0.00,,---,0.99,VWS V14.00,2013-07-30 21:31:00,
2013-07-30 16:32:00,79.2,77.0,29.82,ESE,112,4.4,4.4,93,0.00,,---,0.99,VWS V14.00,2013-07-30 21:32:00,
2013-07-30 16:33:00,79.2,77.0,29.82,ESE,112,4.4,4.4,93,0.00,,---,0.99,VWS V14.00,2013-07-30 21:33:00,
2013-07-30 16:34:00,79.2,77.0,29.82,ESE,112,4.4,4.4,93,0.00,,---,0.99,VWS V14.00,2013-07-30 21:34:00,
2013-07-30 16:35:00,79.2,77.0,29.82,ESE,112,4.4,4.4,93,0.00,,---,0.99,VWS V14.00,2013-07-30 21:35:00,
2013-07-30 16:36:00,79.2,77.0,29.82,ESE,112,4.4,4.4,93,0.00,,---,0.99,VWS V14.00,2013-07-30 21:36:00,
2013-07-30 16:37:00,79.2,77.0,29.82,ESE,112,4.4,4.4,93,0.00,,---,0.99,VWS V14.00,2013-07-30 21:37:00,
2013-07-30 16:38:00,79.2,77.0,29.82,ESE,112,4.4,4.4,93,0.00,,---,0.99,VWS V14.00,2013-07-30 21:38:00,
2013-07-30 16:39:00,79.0,76.8,29.82,ESE,112,4.4,4.4,93,0.00,,---,0.99,VWS V14.00,2013-07-30 21:39:00,
2013-07-30 16:40:00,79.0,76.8,29.82,ESE,112,4.4,4.4,93,0.00,,---,0.99,VWS V14.00,2013-07-30 21:40:00,
2013-07-30 16:41:00,79.0,76.8,29.82,ESE,112,4.4,4.4,93,0.00,,---,0.99,VWS V14.00,2013-07-30 21:41:00,
2013-07-30 16:42:00,79.0,76.8,29.82,ESE,112,4.4,4.4,93,0.00,,---,0.99,VWS V14.00,2013-07-30 21:42:00,
2013-07-30 16:43:00,79.0,76.8,29.82,ESE,112,4.4,4.4,93,0.00,,---,0.99,VWS V14.00,2013-07-30 21:43:00,
2013-07-30 16:44:00,79.0,76.8,29.82,ESE,112,4.4,4.4,93,0.00,,---,0.99,VWS V14.00,2013-07-30 21:44:00,
2013-07-30 16:45:00,79.0,76.8,29.82,ESE,112,4.4,4.4,93,0.00,,---,0.99,VWS V14.00,2013-07-30 21:45:00,
2013-07-30 16:46:00,79.0,76.8,29.82,ESE,112,4.4,4.4,93,0.00,,---,0.99,VWS V14.00,2013-07-30 21:46:00,
2013-07-30 16:47:00,79.0,76.8,29.82,ESE,112,4.4,4.4,93,0.00,,---,0.99,VWS V14.00,2013-07-30 21:47:00,
2013-07-30 16:48:00,79.0,76.8,29.82,ESE,112,4.4,4.4,93,0.00,,---,0.99,VWS V14.00,2013-07-30 21:48:00,
2013-07-30 16:49:00,79.0,77.1,29.82,ESE,112,4.4,4.4,94,0.00,,---,0.99,VWS V14.00,2013-07-30 21:49:00,
2013-07-30 16:50:00,79.2,77.3,29.82,ESE,112,4.4,4.4,94,0.00,,---,0.99,VWS V14.00,2013-07-30 21:50:00,
2013-07-30 16:51:00,79.2,77.3,29.82,ESE,112,4.4,4.4,94,0.00,,---,0.99,VWS V14.00,2013-07-30 21:51:00,
2013-07-30 16:52:00,79.2,77.3,29.82,ESE,112,4.4,4.4,94,0.00,,---,0.99,VWS V14.00,2013-07-30 21:52:00,
2013-07-30 16:53:00,79.2,77.3,29.82,ESE,112,4.4,4.4,94,0.00,,---,0.99,VWS V14.00,2013-07-30 21:53:00,
2013-07-30 16:54:00,79.2,77.3,29.82,ESE,112,4.4,4.4,94,0.00,,---,0.99,VWS V14.00,2013-07-30 21:54:00,
2013-07-30 16:55:00,79.2,77.3,29.82,ESE,112,4.4,4.4,94,0.00,,---,0.99,VWS V14.00,2013-07-30 21:55:00,
2013-07-30 16:56:00,79.2,77.3,29.82,ESE,112,4.4,4.4,94,0.00,,---,0.99,VWS V14.00,2013-07-30 21:56:00,
2013-07-30 16:57:00,79.2,77.3,29.82,ESE,112,4.4,4.4,94,0.00,,---,0.99,VWS V14.00,2013-07-30 21:57:00,
2013-07-30 16:58:00,79.2,77.3,29.82,ESE,112,4.4,4.4,94,0.00,,---,0.99,VWS V14.00,2013-07-30 21:58:00,
2013-07-30 16:59:00,79.2,77.3,29.82,ESE,112,4.4,4.4,94,0.00,,---,0.99,VWS V14.00,2013-07-30 21:59:00,
2013-07-30 17:00:00,79.2,77.3,29.82,ESE,112,4.4,4.4,94,0.00,,---,0.99,VWS V14.00,2013-07-30 22:00:00,
2013-07-30 17:01:00,79.2,77.3,29.82,ESE,112,4.4,4.4,94,0.00,,---,0.99,VWS V14.00,2013-07-30 22:01:00,
2013-07-30 17:02:00,79.2,77.3,29.80,ESE,112,4.4,4.4,94,0.00,,---,0.99,VWS V14.00,2013-07-30 22:02:00,
2013-07-30 17:03:00,79.2,77.3,29.79,ESE,112,4.4,4.4,94,0.00,,---,0.99,VWS V14.00,2013-07-30 22:03:00,
2013-07-30 17:04:00,79.2,77.3,29.80,ESE,112,4.4,4.4,94,0.00,,---,0.99,VWS V14.00,2013-07-30 22:04:00,
2013-07-30 17:05:00,79.2,77.3,29.80,ESE,112,4.4,4.4,94,0.00,,---,0.99,VWS V14.00,2013-07-30 22:05:00,
2013-07-30 17:06:00,79.2,77.3,29.80,ESE,112,4.4,4.4,94,0.00,,---,0.99,VWS V14.00,2013-07-30 22:06:00,
2013-07-30 17:07:00,79.2,77.3,29.80,SE,135,6.9,6.9,94,0.00,,---,0.99,VWS V14.00,2013-07-30 22:07:00,
2013-07-30 17:08:00,79.2,77.3,29.79,SE,135,6.9,6.9,94,0.00,,---,0.99,VWS V14.00,2013-07-30 22:08:00,
2013-07-30 17:09:00,79.2,77.3,29.80,SE,135,6.9,6.9,94,0.00,,---,0.99,VWS V14.00,2013-07-30 22:09:00,
2013-07-30 17:10:00,79.2,77.3,29.80,ESE,112,5.2,5.2,94,0.00,,---,0.99,VWS V14.00,2013-07-30 22:10:00,
2013-07-30 17:11:00,79.2,77.3,29.80,SE,135,6.0,6.0,94,0.00,,---,0.99,VWS V14.00,2013-07-30 22:11:00,
2013-07-30 17:12:00,79.2,77.3,29.80,SE,135,6.0,6.0,94,0.00,,---,0.99,VWS V14.00,2013-07-30 22:12:00,
2013-07-30 17:13:00,79.2,77.3,29.79,SSE,158,5.5,5.5,94,0.00,,---,0.99,VWS V14.00,2013-07-30 22:13:00,
2013-07-30 17:14:00,79.2,77.3,29.80,SSE,158,5.5,5.5,94,0.00,,---,0.99,VWS V14.00,2013-07-30 22:14:00,
2013-07-30 17:16:00,79.2,77.3,29.80,SSE,158,5.5,5.5,94,0.00,,---,0.99,VWS V14.00,2013-07-30 22:16:00,
2013-07-30 17:17:00,79.2,77.3,29.82,SSE,158,5.5,5.5,94,0.00,,---,0.99,VWS V14.00,2013-07-30 22:17:00,
2013-07-30 17:18:00,79.2,77.3,29.82,SSE,158,5.5,5.5,94,0.00,,---,0.99,VWS V14.00,2013-07-30 22:18:00,
2013-07-30 17:19:00,79.2,77.3,29.82,SSE,158,5.5,5.5,94,0.00,,---,0.99,VWS V14.00,2013-07-30 22:19:00,
2013-07-30 17:20:00,79.2,77.3,29.82,SSE,158,5.5,5.5,94,0.00,,---,0.99,VWS V14.00,2013-07-30 22:20:00,
2013-07-30 17:21:00,78.8,76.9,29.82,SSE,158,5.5,5.5,94,0.00,,---,0.99,VWS V14.00,2013-07-30 22:21:00,
2013-07-30 17:22:00,78.8,76.9,29.82,SSE,158,5.5,5.5,94,0.00,,---,0.99,VWS V14.00,2013-07-30 22:22:00,
2013-07-30 17:23:00,78.8,76.9,29.82,SSE,158,5.5,5.5,94,0.00,,---,0.99,VWS V14.00,2013-07-30 22:23:00,
2013-07-30 17:24:00,78.8,76.9,29.82,SSE,158,5.5,5.5,94,0.00,,---,0.99,VWS V14.00,2013-07-30 22:24:00,
2013-07-30 17:25:00,78.8,76.9,29.82,SSE,158,5.5,5.5,94,0.00,,---,0.99,VWS V14.00,2013-07-30 22:25:00,
2013-07-30 17:26:00,78.8,76.9,29.82,SSE,158,5.5,5.5,94,0.00,,---,0.99,VWS V14.00,2013-07-30 22:26:00,
2013-07-30 17:27:00,78.8,76.9,29.82,SSE,158,5.5,5.5,94,0.00,,---,0.99,VWS V14.00,2013-07-30 22:27:00,
2013-07-30 17:28:00,78.8,76.9,29.82,SSE,158,5.5,5.5,94,0.00,,---,0.99,VWS V14.00,2013-07-30 22:28:00,
2013-07-30 17:29:00,79.0,77.4,29.82,SSE,158,5.5,5.5,95,0.00,,---,0.99,VWS V14.00,2013-07-30 22:29:00,
2013-07-30 17:30:00,79.0,77.4,29.82,SSE,158,5.5,5.5,95,0.00,,---,0.99,VWS V14.00,2013-07-30 22:30:00,
2013-07-30 17:31:00,79.0,77.4,29.82,SSE,158,5.5,5.5,95,0.00,,---,0.99,VWS V14.00,2013-07-30 22:31:00,
2013-07-30 17:32:00,79.3,77.8,29.80,SSE,158,5.5,5.5,95,0.00,,---,0.99,VWS V14.00,2013-07-30 22:32:00,
2013-07-30 17:33:00,79.3,77.8,29.79,SSE,158,5.5,5.5,95,0.00,,---,0.99,VWS V14.00,2013-07-30 22:33:00,
2013-07-30 17:34:00,79.3,77.8,29.80,SSE,158,5.5,5.5,95,0.00,,---,0.99,VWS V14.00,2013-07-30 22:34:00,
2013-07-30 17:35:00,79.3,77.8,29.80,SSE,158,5.5,5.5,95,0.00,,---,0.99,VWS V14.00,2013-07-30 22:35:00,
2013-07-30 17:36:00,79.7,78.1,29.80,SSE,158,5.5,5.5,95,0.00,,---,0.99,VWS V14.00,2013-07-30 22:36:00,
2013-07-30 17:37:00,79.9,78.3,29.80,SSE,158,5.5,5.5,95,0.00,,---,0.99,VWS V14.00,2013-07-30 22:37:00,
2013-07-30 17:38:00,79.9,78.3,29.80,SSE,158,5.5,5.5,95,0.00,,---,0.99,VWS V14.00,2013-07-30 22:38:00,
2013-07-30 17:39:00,79.9,78.3,29.79,SSE,158,5.5,5.5,95,0.00,,---,0.99,VWS V14.00,2013-07-30 22:39:00,
2013-07-30 17:40:00,79.9,78.3,29.80,SSE,158,5.5,5.5,95,0.00,,---,0.99,VWS V14.00,2013-07-30 22:40:00,
2013-07-30 17:41:00,80.1,78.5,29.80,SSE,158,5.5,5.5,95,0.00,,---,0.99,VWS V14.00,2013-07-30 22:41:00,
2013-07-30 17:42:00,80.1,78.5,29.80,SSE,158,5.5,5.5,95,0.00,,---,0.99,VWS V14.00,2013-07-30 22:42:00,
2013-07-30 17:43:00,80.2,78.7,29.80,SSE,158,5.5,5.5,95,0.00,,---,0.99,VWS V14.00,2013-07-30 22:43:00,
2013-07-30 17:44:00,80.2,78.7,29.79,SSE,158,5.5,5.5,95,0.00,,---,0.99,VWS V14.00,2013-07-30 22:44:00,
2013-07-30 17:45:00,80.2,78.7,29.80,SSE,158,5.5,5.5,95,0.00,,---,0.99,VWS V14.00,2013-07-30 22:45:00,
2013-07-30 17:46:00,80.1,78.2,29.80,SSE,158,5.5,5.5,94,0.00,,---,0.99,VWS V14.00,2013-07-30 22:46:00,
2013-07-30 17:47:00,80.1,78.2,29.80,SSE,158,5.5,5.5,94,0.00,,---,0.99,VWS V14.00,2013-07-30 22:47:00,
2013-07-30 17:48:00,80.1,78.2,29.80,SSE,158,5.5,5.5,94,0.00,,---,0.99,VWS V14.00,2013-07-30 22:48:00,
2013-07-30 17:49:00,80.1,77.9,29.79,SSE,158,5.5,5.5,93,0.00,,---,0.99,VWS V14.00,2013-07-30 22:49:00,
2013-07-30 17:50:00,79.9,77.7,29.80,SSE,158,5.5,5.5,93,0.00,,---,0.99,VWS V14.00,2013-07-30 22:50:00,
2013-07-30 17:51:00,79.9,77.7,29.80,SSE,158,5.5,5.5,93,0.00,,---,0.99,VWS V14.00,2013-07-30 22:51:00,
2013-07-30 17:52:00,79.9,77.3,29.80,WSW,248,5.5,5.5,92,0.00,,---,0.99,VWS V14.00,2013-07-30 22:52:00,
2013-07-30 17:53:00,79.9,77.3,29.80,SSE,158,4.4,4.4,92,0.00,,---,0.99,VWS V14.00,2013-07-30 22:53:00,
2013-07-30 17:54:00,79.9,77.3,29.79,SW,225,6.0,6.0,92,0.00,,---,0.99,VWS V14.00,2013-07-30 22:54:00,
2013-07-30 17:55:00,80.1,77.5,29.80,SW,225,7.2,7.2,92,0.00,,---,0.99,VWS V14.00,2013-07-30 22:55:00,
2013-07-30 17:56:00,80.1,77.5,29.80,SW,225,7.2,7.2,92,0.00,,---,0.99,VWS V14.00,2013-07-30 22:56:00,
2013-07-30 17:57:00,80.1,77.5,29.80,SSE,158,4.9,4.9,92,0.00,,---,0.99,VWS V14.00,2013-07-30 22:57:00,
2013-07-30 17:58:00,80.1,77.5,29.80,SSE,158,6.3,6.3,92,0.00,,---,0.99,VWS V14.00,2013-07-30 22:58:00,
2013-07-30 17:59:00,80.4,77.9,29.79,SSE,158,6.3,6.3,92,0.00,,---,0.99,VWS V14.00,2013-07-30 22:59:00,
2013-07-30 18:00:00,80.2,77.7,29.80,South,180,7.7,7.7,92,0.00,,---,0.99,VWS V14.00,2013-07-30 23:00:00,
2013-07-30 18:01:00,80.2,77.7,29.80,South,180,8.0,8.0,92,0.00,,---,0.99,VWS V14.00,2013-07-30 23:01:00,
2013-07-30 18:02:00,80.2,77.7,29.80,SSE,158,5.2,5.6,92,0.00,,---,0.99,VWS V14.00,2013-07-30 23:02:00,
2013-07-30 18:03:00,80.2,77.7,29.80,SW,225,10.5,10.5,92,0.00,,---,0.99,VWS V14.00,2013-07-30 23:03:00,
2013-07-30 18:04:00,80.2,77.4,29.79,SSW,202,6.0,7.6,91,0.00,,---,0.99,VWS V14.00,2013-07-30 23:04:00,
2013-07-30 18:05:00,80.2,77.4,29.80,SE,135,8.3,8.3,91,0.00,,---,0.99,VWS V14.00,2013-07-30 23:05:00,
2013-07-30 18:06:00,80.1,77.2,29.80,South,180,5.8,5.8,91,0.00,,---,0.99,VWS V14.00,2013-07-30 23:06:00,
2013-07-30 18:07:00,80.1,77.2,29.80,South,180,5.8,5.8,91,0.00,,---,0.99,VWS V14.00,2013-07-30 23:07:00,
2013-07-30 18:08:00,80.1,76.9,29.80,SW,225,4.9,4.9,90,0.00,,---,0.99,VWS V14.00,2013-07-30 23:08:00,
2013-07-30 18:09:00,80.1,76.9,29.79,South,180,6.3,6.3,90,0.00,,---,0.99,VWS V14.00,2013-07-30 23:09:00,
2013-07-30 18:10:00,80.1,76.9,29.80,SE,135,5.5,5.5,90,0.00,,---,0.99,VWS V14.00,2013-07-30 23:10:00,
2013-07-30 18:11:00,80.1,76.9,29.80,SSE,158,5.5,5.5,90,0.00,,---,0.99,VWS V14.00,2013-07-30 23:11:00,
2013-07-30 18:12:00,80.1,76.9,29.80,South,180,6.0,6.0,90,0.00,,---,0.99,VWS V14.00,2013-07-30 23:12:00,
2013-07-30 18:13:00,80.1,76.9,29.80,SSE,158,3.5,6.5,90,0.00,,---,0.99,VWS V14.00,2013-07-30 23:13:00,
2013-07-30 18:14:00,80.1,76.9,29.79,SW,225,5.2,5.2,90,0.00,,---,0.99,VWS V14.00,2013-07-30 23:14:00,
2013-07-30 18:15:00,80.1,76.9,29.80,South,180,4.6,4.6,90,0.00,,---,0.99,VWS V14.00,2013-07-30 23:15:00,
2013-07-30 18:16:00,80.1,76.9,29.80,East,90,8.8,8.8,90,0.00,,---,0.99,VWS V14.00,2013-07-30 23:16:00,
2013-07-30 18:17:00,80.1,76.9,29.80,SW,225,6.9,6.9,90,0.00,,---,0.99,VWS V14.00,2013-07-30 23:17:00,
2013-07-30 18:18:00,79.9,76.7,29.80,SW,225,4.9,5.6,90,0.00,,---,0.99,VWS V14.00,2013-07-30 23:18:00,
2013-07-30 18:19:00,79.9,76.7,29.79,South,180,6.0,6.0,90,0.00,,---,0.99,VWS V14.00,2013-07-30 23:19:00,
2013-07-30 18:20:00,79.9,76.7,29.80,SSE,158,5.5,5.5,90,0.00,,---,0.99,VWS V14.00,2013-07-30 23:20:00,
2013-07-30 18:21:00,79.9,76.7,29.80,SSE,158,5.5,5.5,90,0.00,,---,0.99,VWS V14.00,2013-07-30 23:21:00,
2013-07-30 18:22:00,79.7,76.5,29.80,SSW,202,8.6,8.6,90,0.00,,---,0.99,VWS V14.00,2013-07-30 23:22:00,
2013-07-30 18:23:00,79.5,76.0,29.80,SW,225,7.2,7.2,89,0.00,,---,0.99,VWS V14.00,2013-07-30 23:23:00,
2013-07-30 18:24:00,79.5,76.0,29.79,SSW,202,7.2,7.2,89,0.00,,---,0.99,VWS V14.00,2013-07-30 23:24:00,
2013-07-30 18:25:00,79.5,76.0,29.80,SSW,202,4.9,4.9,89,0.00,,---,0.99,VWS V14.00,2013-07-30 23:25:00,
2013-07-30 18:26:00,79.5,76.0,29.80,SSW,202,5.8,5.8,89,0.00,,---,0.99,VWS V14.00,2013-07-30 23:26:00,
2013-07-30 18:27:00,79.5,76.0,29.80,SW,225,4.6,4.6,89,0.00,,---,0.99,VWS V14.00,2013-07-30 23:27:00,
2013-07-30 18:28:00,79.5,76.0,29.80,SSW,202,6.3,6.3,89,0.00,,---,0.99,VWS V14.00,2013-07-30 23:28:00,
2013-07-30 18:30:00,79.5,76.3,29.79,SW,225,5.5,5.5,90,0.00,,---,0.99,VWS V14.00,2013-07-30 23:30:00,
2013-07-30 18:31:00,79.5,76.3,29.80,SW,225,5.8,5.8,90,0.00,,---,0.99,VWS V14.00,2013-07-30 23:31:00,
2013-07-30 18:32:00,79.5,76.3,29.80,South,180,4.9,4.9,90,0.00,,---,0.99,VWS V14.00,2013-07-30 23:32:00,
2013-07-30 18:33:00,79.5,76.3,29.80,South,180,5.2,5.2,90,0.00,,---,0.99,VWS V14.00,2013-07-30 23:33:00,
2013-07-30 18:34:00,79.5,76.3,29.80,WSW,248,8.3,8.3,90,0.00,,---,0.99,VWS V14.00,2013-07-30 23:34:00,
2013-07-30 18:35:00,79.5,76.3,29.79,South,180,4.4,5.8,90,0.00,,---,0.99,VWS V14.00,2013-07-30 23:35:00,
2013-07-30 18:36:00,79.5,76.3,29.80,SW,225,4.9,5.8,90,0.00,,---,0.99,VWS V14.00,2013-07-30 23:36:00,
2013-07-30 18:37:00,79.5,76.3,29.80,WSW,248,8.0,8.0,90,0.00,,---,0.99,VWS V14.00,2013-07-30 23:37:00,
2013-07-30 18:38:00,79.5,76.3,29.80,SSW,202,6.0,6.0,90,0.00,,---,0.99,VWS V14.00,2013-07-30 23:38:00,
2013-07-30 18:39:00,79.5,76.3,29.80,SSW,202,7.7,7.7,90,0.00,,---,0.99,VWS V14.00,2013-07-30 23:39:00,
2013-07-30 18:40:00,79.3,75.8,29.79,SSE,158,6.0,6.0,89,0.00,,---,0.99,VWS V14.00,2013-07-30 23:40:00,
2013-07-30 18:41:00,79.3,75.8,29.80,SW,225,4.1,4.3,89,0.00,,---,0.99,VWS V14.00,2013-07-30 23:41:00,
2013-07-30 18:42:00,79.3,75.8,29.80,SSW,202,4.9,4.9,89,0.00,,---,0.99,VWS V14.00,2013-07-30 23:42:00,
2013-07-30 18:43:00,79.3,75.8,29.80,SW,225,8.0,8.0,89,0.00,,---,0.99,VWS V14.00,2013-07-30 23:43:00,
2013-07-30 18:44:00,79.3,75.8,29.80,SW,225,5.5,5.6,89,0.00,,---,0.99,VWS V14.00,2013-07-30 23:44:00,
2013-07-30 18:45:00,79.3,75.8,29.79,West,270,5.2,5.2,89,0.00,,---,0.99,VWS V14.00,2013-07-30 23:45:00,
2013-07-30 18:46:00,79.2,75.6,29.80,SSW,202,4.6,4.9,89,0.00,,---,0.99,VWS V14.00,2013-07-30 23:46:00,
2013-07-30 18:47:00,79.2,75.6,29.80,SW,225,4.4,4.4,89,0.00,,---,0.99,VWS V14.00,2013-07-30 23:47:00,
2013-07-30 18:48:00,79.2,75.6,29.80,SSE,158,2.7,2.7,89,0.00,,---,0.99,VWS V14.00,2013-07-30 23:48:00,
2013-07-30 18:49:00,79.2,75.6,29.80,SW,225,4.1,4.1,89,0.00,,---,0.99,VWS V14.00,2013-07-30 23:49:00,
2013-07-30 18:50:00,79.2,75.6,29.79,SSW,202,6.0,6.0,89,0.00,,---,0.99,VWS V14.00,2013-07-30 23:50:00,
2013-07-30 18:51:00,79.2,75.6,29.80,SSW,202,6.0,6.0,89,0.00,,---,0.99,VWS V14.00,2013-07-30 23:51:00,
2013-07-30 18:52:00,79.2,75.6,29.80,SSW,202,6.0,6.0,89,0.00,,---,0.99,VWS V14.00,2013-07-30 23:52:00,
2013-07-30 18:53:00,79.0,75.5,29.80,SW,225,4.1,4.1,89,0.00,,---,0.99,VWS V14.00,2013-07-30 23:53:00,
2013-07-30 18:54:00,79.0,75.5,29.80,South,180,4.6,4.6,89,0.00,,---,0.99,VWS V14.00,2013-07-30 23:54:00,
2013-07-30 18:55:00,79.0,75.5,29.79,SSW,202,4.1,4.1,89,0.00,,---,0.99,VWS V14.00,2013-07-30 23:55:00,
2013-07-30 18:56:00,78.8,75.3,29.80,SW,225,2.7,2.7,89,0.00,,---,0.99,VWS V14.00,2013-07-30 23:56:00,
2013-07-30 18:57:00,78.8,75.3,29.80,SSW,202,4.4,4.4,89,0.00,,---,0.99,VWS V14.00,2013-07-30 23:57:00,
2013-07-30 18:58:00,78.8,75.3,29.80,SSE,158,3.0,3.4,89,0.00,,---,0.99,VWS V14.00,2013-07-30 23:58:00,
2013-07-30 18:59:00,78.8,75.3,29.80,South,180,3.8,3.8,89,0.00,,---,0.99,VWS V14.00,2013-07-30 23:59:00,
2013-07-30 19:00:00,78.8,75.3,29.79,SSW,202,3.5,3.5,89,0.00,,---,0.99,VWS V14.00,2013-07-31 00:00:00,
2013-07-30 19:01:00,78.6,75.1,29.80,SW,225,4.4,4.4,89,0.00,,---,0.99,VWS V14.00,2013-07-31 00:01:00,
2013-07-30 19:02:00,78.6,75.1,29.80,SW,225,4.4,4.4,89,0.00,,---,0.99,VWS V14.00,2013-07-31 00:02:00,
2013-07-30 19:03:00,78.6,75.1,29.80,SSW,202,3.0,3.0,89,0.00,,---,0.99,VWS V14.00,2013-07-31 00:03:00,
2013-07-30 19:04:00,78.6,75.1,29.80,South,180,3.5,3.5,89,0.00,,---,0.99,VWS V14.00,2013-07-31 00:04:00,
2013-07-30 19:05:00,78.6,75.1,29.79,SE,135,5.8,5.8,89,0.00,,---,0.99,VWS V14.00,2013-07-31 00:05:00,
2013-07-30 19:06:00,78.6,75.1,29.80,SSW,202,4.9,4.9,89,0.00,,---,0.99,VWS V14.00,2013-07-31 00:06:00,
2013-07-30 19:07:00,78.4,74.9,29.80,SSE,158,4.4,4.4,89,0.00,,---,0.99,VWS V14.00,2013-07-31 00:07:00,
2013-07-30 19:08:00,78.4,74.9,29.80,SSE,158,3.8,3.8,89,0.00,,---,0.99,VWS V14.00,2013-07-31 00:08:00,
2013-07-30 19:09:00,78.4,75.3,29.80,SE,135,3.5,3.5,90,0.00,,---,0.99,VWS V14.00,2013-07-31 00:09:00,
2013-07-30 19:10:00,78.6,75.4,29.79,SSW,202,4.1,4.1,90,0.00,,---,0.99,VWS V14.00,2013-07-31 00:10:00,
2013-07-30 19:11:00,78.4,75.3,29.80,SE,135,4.1,4.1,90,0.00,,---,0.99,VWS V14.00,2013-07-31 00:11:00,
2013-07-30 19:12:00,78.4,75.3,29.80,SE,135,3.8,3.8,90,0.00,,---,0.99,VWS V14.00,2013-07-31 00:12:00,
2013-07-30 19:13:00,78.4,75.3,29.80,SE,135,3.8,3.8,90,0.00,,---,0.99,VWS V14.00,2013-07-31 00:13:00,
2013-07-30 19:14:00,78.4,75.3,29.80,SE,135,3.8,3.8,90,0.00,,---,0.99,VWS V14.00,2013-07-31 00:14:00,
2013-07-30 19:15:00,78.4,75.3,29.79,SSW,202,2.1,2.2,90,0.00,,---,0.99,VWS V14.00,2013-07-31 00:15:00,
2013-07-30 19:16:00,78.4,75.3,29.80,ESE,112,4.4,4.4,90,0.00,,---,0.99,VWS V14.00,2013-07-31 00:16:00,
2013-07-30 19:17:00,78.4,75.3,29.80,SSE,158,4.9,4.9,90,0.00,,---,0.99,VWS V14.00,2013-07-31 00:17:00,
2013-07-30 19:18:00,78.4,75.3,29.80,ESE,112,4.9,4.9,90,0.00,,---,0.99,VWS V14.00,2013-07-31 00:18:00,
2013-07-30 19:19:00,78.3,75.1,29.80,South,180,4.1,4.1,90,0.00,,---,0.99,VWS V14.00,2013-07-31 00:19:00,
2013-07-30 19:20:00,78.3,75.1,29.79,SW,225,4.4,4.4,90,0.00,,---,0.99,VWS V14.00,2013-07-31 00:20:00,
2013-07-30 19:21:00,78.3,75.1,29.80,SSW,202,3.5,3.5,90,0.00,,---,0.99,VWS V14.00,2013-07-31 00:21:00,
2013-07-30 19:22:00,78.3,75.1,29.80,SSW,202,2.4,2.4,90,0.00,,---,0.99,VWS V14.00,2013-07-31 00:22:00,
2013-07-30 19:23:00,78.1,74.6,29.80,SSW,202,3.8,3.8,89,0.00,,---,0.99,VWS V14.00,2013-07-31 00:23:00,
2013-07-30 19:24:00,78.1,74.6,29.80,SSW,202,1.0,2.2,89,0.00,,---,0.99,VWS V14.00,2013-07-31 00:24:00,
2013-07-30 19:25:00,78.1,74.9,29.79,SSW,202,3.0,3.0,90,0.00,,---,0.99,VWS V14.00,2013-07-31 00:25:00,
2013-07-30 19:26:00,78.1,74.9,29.80,SSW,202,5.8,5.8,90,0.00,,---,0.99,VWS V14.00,2013-07-31 00:26:00,
2013-07-30 19:27:00,78.1,74.9,29.80,SW,225,3.5,3.8,90,0.00,,---,0.99,VWS V14.00,2013-07-31 00:27:00,
2013-07-30 19:28:00,78.1,74.9,29.80,SSW,202,3.0,3.0,90,0.00,,---,0.99,VWS V14.00,2013-07-31 00:28:00,
2013-07-30 19:29:00,78.1,74.9,29.80,SW,225,3.5,3.5,90,0.00,,---,0.99,VWS V14.00,2013-07-31 00:29:00,
2013-07-30 19:30:00,77.9,74.7,29.80,SSW,202,4.9,4.9,90,0.00,,---,0.99,VWS V14.00,2013-07-31 00:30:00,
2013-07-30 19:31:00,77.9,74.7,29.79,ESE,112,3.5,3.5,90,0.00,,---,0.99,VWS V14.00,2013-07-31 00:31:00,
2013-07-30 19:32:00,77.9,74.4,29.80,SSE,158,4.1,4.1,89,0.00,,---,0.99,VWS V14.00,2013-07-31 00:32:00,
2013-07-30 19:33:00,77.9,74.4,29.80,SSW,202,3.0,3.0,89,0.00,,---,0.99,VWS V14.00,2013-07-31 00:33:00,
2013-07-30 19:34:00,77.9,74.4,29.80,South,180,4.1,4.1,89,0.00,,---,0.99,VWS V14.00,2013-07-31 00:34:00,
2013-07-30 19:35:00,77.9,74.4,29.80,SSE,158,3.0,3.0,89,0.00,,---,0.99,VWS V14.00,2013-07-31 00:35:00,
2013-07-30 19:36:00,77.7,74.2,29.80,South,180,1.0,2.0,89,0.00,,---,0.99,VWS V14.00,2013-07-31 00:36:00,
2013-07-30 19:37:00,77.7,74.2,29.79,South,180,1.0,2.0,89,0.00,,---,0.99,VWS V14.00,2013-07-31 00:37:00,
2013-07-30 19:38:00,77.7,74.2,29.80,WSW,248,3.5,3.5,89,0.00,,---,0.99,VWS V14.00,2013-07-31 00:38:00,
2013-07-30 19:39:00,77.5,74.1,29.80,WSW,248,1.0,2.0,89,0.00,,---,0.99,VWS V14.00,2013-07-31 00:39:00,
2013-07-30 19:40:00,77.5,74.1,29.80,WSW,248,1.0,0.0,89,0.00,,---,0.99,VWS V14.00,2013-07-31 00:40:00,
2013-07-30 19:41:00,77.5,74.1,29.80,WSW,248,1.0,0.0,89,0.00,,---,0.99,VWS V14.00,2013-07-31 00:41:00,
2013-07-30 19:42:00,77.4,73.9,29.79,WSW,248,1.0,0.0,89,0.00,,---,0.99,VWS V14.00,2013-07-31 00:42:00,
2013-07-30 19:43:00,77.4,73.9,29.80,WSW,248,1.0,0.0,89,0.00,,---,0.99,VWS V14.00,2013-07-31 00:43:00,
2013-07-30 19:44:00,77.4,73.9,29.80,WSW,248,1.0,0.0,89,0.00,,---,0.99,VWS V14.00,2013-07-31 00:44:00,
2013-07-30 19:45:00,77.2,73.7,29.80,WSW,248,1.0,0.0,89,0.00,,---,0.99,VWS V14.00,2013-07-31 00:45:00,
2013-07-30 19:46:00,77.2,73.7,29.80,WSW,248,1.0,0.0,89,0.00,,---,0.99,VWS V14.00,2013-07-31 00:46:00,
2013-07-30 19:47:00,77.2,73.7,29.79,WSW,248,1.0,0.0,89,0.00,,---,0.99,VWS V14.00,2013-07-31 00:47:00,
2013-07-30 19:48:00,77.2,73.7,29.80,WSW,248,1.0,0.0,89,0.00,,---,0.99,VWS V14.00,2013-07-31 00:48:00,
2013-07-30 19:49:00,77.2,73.7,29.80,WSW,248,1.0,0.0,89,0.00,,---,0.99,VWS V14.00,2013-07-31 00:49:00,
2013-07-30 19:50:00,77.0,73.5,29.80,WSW,248,1.0,0.0,89,0.00,,---,0.99,VWS V14.00,2013-07-31 00:50:00,
2013-07-30 19:51:00,77.0,73.5,29.80,WSW,248,2.4,2.4,89,0.00,,---,0.99,VWS V14.00,2013-07-31 00:51:00,
2013-07-30 19:52:00,76.8,73.3,29.80,WSW,248,2.1,2.1,89,0.00,,---,0.99,VWS V14.00,2013-07-31 00:52:00,
2013-07-30 19:53:00,76.8,73.3,29.79,WSW,248,1.0,1.0,89,0.00,,---,0.99,VWS V14.00,2013-07-31 00:53:00,
2013-07-30 19:54:00,76.8,73.3,29.80,WSW,248,1.0,0.0,89,0.00,,---,0.99,VWS V14.00,2013-07-31 00:54:00,
2013-07-30 19:55:00,76.8,73.3,29.80,WSW,248,1.0,0.0,89,0.00,,---,0.99,VWS V14.00,2013-07-31 00:55:00,
2013-07-30 19:56:00,76.6,73.2,29.80,WSW,248,1.0,0.0,89,0.00,,---,0.99,VWS V14.00,2013-07-31 00:56:00,
2013-07-30 19:57:00,76.6,73.2,29.80,West,270,1.0,0.0,89,0.00,,---,0.99,VWS V14.00,2013-07-31 00:57:00,
2013-07-30 19:58:00,76.6,73.2,29.80,West,270,1.0,0.0,89,0.00,,---,0.99,VWS V14.00,2013-07-31 00:58:00,
2013-07-30 19:59:00,76.5,73.0,29.79,West,270,1.0,0.0,89,0.00,,---,0.99,VWS V14.00,2013-07-31 00:59:00,
2013-07-30 20:00:00,76.5,73.0,29.80,West,270,1.0,0.0,89,0.00,,---,0.99,VWS V14.00,2013-07-31 01:00:00,
2013-07-30 20:01:00,76.5,73.0,29.80,West,270,1.0,0.0,89,0.00,,---,0.99,VWS V14.00,2013-07-31 01:01:00,
2013-07-30 20:02:00,76.3,72.8,29.80,West,270,1.0,0.0,89,0.00,,---,0.99,VWS V14.00,2013-07-31 01:02:00,
2013-07-30 20:03:00,76.3,72.8,29.80,West,270,1.0,0.0,89,0.00,,---,0.99,VWS V14.00,2013-07-31 01:03:00,
2013-07-30 20:04:00,76.3,72.8,29.79,WSW,248,2.4,2.4,89,0.00,,---,0.99,VWS V14.00,2013-07-31 01:04:00,
2013-07-30 20:05:00,76.3,72.8,29.80,South,180,2.4,2.4,89,0.00,,---,0.99,VWS V14.00,2013-07-31 01:05:00,
2013-07-30 20:06:00,76.3,72.8,29.80,South,180,3.0,3.0,89,0.00,,---,0.99,VWS V14.00,2013-07-31 01:06:00,
2013-07-30 20:07:00,76.3,73.1,29.80,SE,135,4.1,4.1,90,0.00,,---,0.99,VWS V14.00,2013-07-31 01:07:00,
2013-07-30 20:08:00,76.1,73.0,29.80,South,180,3.5,3.5,90,0.00,,---,0.99,VWS V14.00,2013-07-31 01:08:00,
2013-07-30 20:09:00,76.1,73.0,29.79,SSE,158,3.8,3.8,90,0.00,,---,0.99,VWS V14.00,2013-07-31 01:09:00,
2013-07-30 20:11:00,76.1,73.0,29.80,SSE,158,2.7,2.7,90,0.00,,---,0.99,VWS V14.00,2013-07-31 01:11:00,
2013-07-30 20:12:00,76.1,73.0,29.80,SSW,202,2.7,2.7,90,0.00,,---,0.99,VWS V14.00,2013-07-31 01:12:00,
2013-07-30 20:13:00,75.9,72.8,29.80,SSW,202,2.4,2.4,90,0.00,,---,0.99,VWS V14.00,2013-07-31 01:13:00,
2013-07-30 20:14:00,75.9,72.8,29.79,SW,225,2.4,2.4,90,0.00,,---,0.99,VWS V14.00,2013-07-31 01:14:00,
2013-07-30 20:16:00,75.9,72.8,29.80,WSW,248,1.0,1.6,90,0.00,,---,0.99,VWS V14.00,2013-07-31 01:16:00,
2013-07-30 20:17:00,75.9,72.8,29.80,SW,225,1.0,1.0,90,0.00,,---,0.99,VWS V14.00,2013-07-31 01:17:00,
2013-07-30 20:18:00,75.9,72.8,29.80,SW,225,1.0,0.0,90,0.00,,---,0.99,VWS V14.00,2013-07-31 01:18:00,
2013-07-30 20:19:00,75.9,72.8,29.79,SW,225,1.0,0.0,90,0.00,,---,0.99,VWS V14.00,2013-07-31 01:19:00,
2013-07-30 20:20:00,75.9,72.8,29.80,SSW,202,2.4,2.4,90,0.00,,---,0.99,VWS V14.00,2013-07-31 01:20:00,
2013-07-30 20:21:00,75.9,72.8,29.80,SSW,202,2.7,2.7,90,0.00,,---,0.99,VWS V14.00,2013-07-31 01:21:00,
2013-07-30 20:22:00,75.9,72.8,29.80,SW,225,2.1,2.1,90,0.00,,---,0.99,VWS V14.00,2013-07-31 01:22:00,
2013-07-30 20:23:00,75.7,72.9,29.80,WSW,248,2.1,2.1,91,0.00,,---,0.99,VWS V14.00,2013-07-31 01:23:00,
2013-07-30 20:24:00,75.7,72.9,29.79,SW,225,4.1,4.1,91,0.00,,---,0.99,VWS V14.00,2013-07-31 01:24:00,
2013-07-30 20:26:00,75.7,72.9,29.80,SW,225,2.7,2.7,91,0.00,,---,0.99,VWS V14.00,2013-07-31 01:26:00,
2013-07-30 20:27:00,75.7,72.9,29.80,WSW,248,3.0,3.0,91,0.00,,---,0.99,VWS V14.00,2013-07-31 01:27:00,
2013-07-30 20:28:00,75.7,72.9,29.80,SW,225,1.0,1.6,91,0.00,,---,0.99,VWS V14.00,2013-07-31 01:28:00,
2013-07-30 20:29:00,75.7,72.9,29.79,SW,225,1.0,1.1,91,0.00,,---,0.99,VWS V14.00,2013-07-31 01:29:00,
2013-07-30 20:30:00,75.7,72.9,29.80,SW,225,2.1,2.1,91,0.00,,---,0.99,VWS V14.00,2013-07-31 01:30:00,
2013-07-30 20:31:00,75.7,72.9,29.80,SW,225,3.0,3.0,91,0.00,,---,0.99,VWS V14.00,2013-07-31 01:31:00,
2013-07-30 20:32:00,75.6,72.8,29.80,SW,225,2.1,2.1,91,0.00,,---,0.99,VWS V14.00,2013-07-31 01:32:00,
2013-07-30 20:33:00,75.6,72.8,29.80,WSW,248,3.0,3.0,91,0.00,,---,0.99,VWS V14.00,2013-07-31 01:33:00,
2013-07-30 20:34:00,75.6,72.8,29.79,WSW,248,2.4,2.4,91,0.00,,---,0.99,VWS V14.00,2013-07-31 01:34:00,
2013-07-30 20:36:00,75.6,72.8,29.80,SW,225,2.4,2.4,91,0.00,,---,0.99,VWS V14.00,2013-07-31 01:36:00,
2013-07-30 20:37:00,75.6,72.8,29.80,SW,225,2.4,2.4,91,0.00,,---,0.99,VWS V14.00,2013-07-31 01:37:00,
2013-07-30 20:38:00,75.6,72.8,29.80,SW,225,2.7,2.7,91,0.00,,---,0.99,VWS V14.00,2013-07-31 01:38:00,
2013-07-30 20:39:00,75.6,72.8,29.79,WSW,248,2.7,2.7,91,0.00,,---,0.99,VWS V14.00,2013-07-31 01:39:00,
2013-07-30 20:40:00,75.6,72.8,29.80,WSW,248,2.7,2.7,91,0.00,,---,0.99,VWS V14.00,2013-07-31 01:40:00,
2013-07-30 20:41:00,75.6,72.8,29.80,WSW,248,3.0,3.0,91,0.00,,---,0.99,VWS V14.00,2013-07-31 01:41:00,
2013-07-30 20:42:00,75.6,72.8,29.80,WSW,248,3.0,3.0,91,0.00,,---,0.99,VWS V14.00,2013-07-31 01:42:00,
2013-07-30 20:43:00,75.6,72.8,29.80,WSW,248,2.4,2.4,91,0.00,,---,0.99,VWS V14.00,2013-07-31 01:43:00,
2013-07-30 20:44:00,75.6,72.8,29.80,WSW,248,1.0,1.6,91,0.00,,---,0.99,VWS V14.00,2013-07-31 01:44:00,
2013-07-30 20:45:00,75.6,72.8,29.79,SW,225,2.4,2.4,91,0.00,,---,0.99,VWS V14.00,2013-07-31 01:45:00,
2013-07-30 20:46:00,75.6,72.8,29.80,SW,225,2.4,2.4,91,0.00,,---,0.99,VWS V14.00,2013-07-31 01:46:00,
2013-07-30 20:47:00,75.6,72.8,29.80,SW,225,2.4,2.4,91,0.00,,---,0.99,VWS V14.00,2013-07-31 01:47:00,
2013-07-30 20:48:00,75.4,72.6,29.80,SW,225,3.5,3.5,91,0.00,,---,0.99,VWS V14.00,2013-07-31 01:48:00,
2013-07-30 20:49:00,75.4,72.6,29.80,SW,225,1.0,2.0,91,0.00,,---,0.99,VWS V14.00,2013-07-31 01:49:00,
2013-07-30 20:50:00,75.4,72.6,29.79,SW,225,2.4,2.4,91,0.00,,---,0.99,VWS V14.00,2013-07-31 01:50:00,
2013-07-30 20:51:00,75.4,72.6,29.80,WSW,248,2.4,2.4,91,0.00,,---,0.99,VWS V14.00,2013-07-31 01:51:00,
2013-07-30 20:52:00,75.4,72.6,29.80,South,180,1.0,1.1,91,0.00,,---,0.99,VWS V14.00,2013-07-31 01:52:00,
2013-07-30 20:53:00,75.4,72.6,29.80,South,180,1.0,0.0,91,0.00,,---,0.99,VWS V14.00,2013-07-31 01:53:00,
2013-07-30 20:54:00,75.4,72.6,29.80,South,180,1.0,0.0,91,0.00,,---,0.99,VWS V14.00,2013-07-31 01:54:00,
2013-07-30 20:56:00,75.4,72.6,29.79,South,180,1.0,1.0,91,0.00,,---,0.99,VWS V14.00,2013-07-31 01:56:00,
2013-07-30 20:57:00,75.4,72.6,29.80,South,180,1.0,0.0,91,0.00,,---,0.99,VWS V14.00,2013-07-31 01:57:00,
2013-07-30 20:58:00,75.4,72.6,29.80,South,180,1.0,0.0,91,0.00,,---,0.99,VWS V14.00,2013-07-31 01:58:00,
2013-07-30 21:00:00,75.4,72.6,29.80,South,180,1.0,0.0,91,0.00,,---,0.99,VWS V14.00,2013-07-31 02:00:00,
2013-07-30 21:01:00,75.4,72.6,29.79,South,180,1.0,0.0,91,0.00,,---,0.99,VWS V14.00,2013-07-31 02:01:00,
2013-07-30 21:02:00,75.4,72.6,29.80,South,180,1.0,0.0,91,0.00,,---,0.99,VWS V14.00,2013-07-31 02:02:00,
2013-07-30 21:03:00,75.4,72.6,29.80,South,180,1.0,0.0,91,0.00,,---,0.99,VWS V14.00,2013-07-31 02:03:00,
2013-07-30 21:04:00,75.4,72.6,29.80,South,180,1.0,0.0,91,0.00,,---,0.99,VWS V14.00,2013-07-31 02:04:00,
2013-07-30 21:05:00,75.4,72.6,29.80,South,180,1.0,0.0,91,0.00,,---,0.99,VWS V14.00,2013-07-31 02:05:00,
2013-07-30 21:06:00,75.4,72.6,29.79,SSW,202,1.0,0.0,91,0.00,,---,0.99,VWS V14.00,2013-07-31 02:06:00,
2013-07-30 21:07:00,75.4,72.6,29.80,SW,225,2.7,2.7,91,0.00,,---,0.99,VWS V14.00,2013-07-31 02:07:00,
2013-07-30 21:08:00,75.4,72.6,29.80,SW,225,2.1,2.1,91,0.00,,---,0.99,VWS V14.00,2013-07-31 02:08:00,
2013-07-30 21:09:00,75.4,72.6,29.80,SW,225,1.0,1.3,91,0.00,,---,0.99,VWS V14.00,2013-07-31 02:09:00,
2013-07-30 21:10:00,75.4,72.6,29.80,SW,225,1.0,0.0,91,0.00,,---,0.99,VWS V14.00,2013-07-31 02:10:00,
2013-07-30 21:11:00,75.4,72.6,29.79,WSW,248,2.4,2.4,91,0.00,,---,0.99,VWS V14.00,2013-07-31 02:11:00,
2013-07-30 21:12:00,75.4,72.9,29.80,WSW,248,2.7,2.7,92,0.00,,---,0.99,VWS V14.00,2013-07-31 02:12:00,
2013-07-30 21:13:00,75.4,72.9,29.80,WSW,248,1.0,1.3,92,0.00,,---,0.99,VWS V14.00,2013-07-31 02:13:00,
2013-07-30 21:14:00,75.4,72.9,29.80,WSW,248,1.0,0.0,92,0.00,,---,0.99,VWS V14.00,2013-07-31 02:14:00,
2013-07-30 21:15:00,75.2,72.7,29.80,WSW,248,1.0,0.0,92,0.00,,---,0.99,VWS V14.00,2013-07-31 02:15:00,
2013-07-30 21:16:00,75.2,72.7,29.79,WSW,248,1.0,0.0,92,0.00,,---,0.99,VWS V14.00,2013-07-31 02:16:00,
2013-07-30 21:17:00,75.2,72.7,29.80,WSW,248,2.7,2.7,92,0.00,,---,0.99,VWS V14.00,2013-07-31 02:17:00,
2013-07-30 21:18:00,75.2,72.7,29.80,SW,225,1.0,1.6,92,0.00,,---,0.99,VWS V14.00,2013-07-31 02:18:00,
2013-07-30 21:19:00,75.2,72.7,29.80,SW,225,1.0,0.0,92,0.00,,---,0.99,VWS V14.00,2013-07-31 02:19:00,
2013-07-30 21:20:00,75.2,72.7,29.80,SW,225,1.0,0.0,92,0.00,,---,0.99,VWS V14.00,2013-07-31 02:20:00,
2013-07-30 21:21:00,75.2,72.7,29.79,SSW,202,2.7,2.7,92,0.00,,---,0.99,VWS V14.00,2013-07-31 02:21:00,
2013-07-30 21:22:00,75.2,72.7,29.80,SSW,202,3.0,3.0,92,0.00,,---,0.99,VWS V14.00,2013-07-31 02:22:00,
2013-07-30 21:23:00,75.2,72.7,29.80,SSW,202,3.0,3.0,92,0.00,,---,0.99,VWS V14.00,2013-07-31 02:23:00,
2013-07-30 21:24:00,75.2,72.7,29.80,SW,225,1.0,1.6,92,0.00,,---,0.99,VWS V14.00,2013-07-31 02:24:00,
2013-07-30 21:25:00,75.2,72.7,29.80,SSW,202,2.4,2.4,92,0.00,,---,0.99,VWS V14.00,2013-07-31 02:25:00,
2013-07-30 21:26:00,75.2,72.7,29.79,SSW,202,2.1,2.1,92,0.00,,---,0.99,VWS V14.00,2013-07-31 02:26:00,
2013-07-30 21:27:00,75.2,72.7,29.80,SW,225,2.4,2.4,92,0.00,,---,0.99,VWS V14.00,2013-07-31 02:27:00,
2013-07-30 21:29:00,75.2,72.7,29.80,SW,225,2.7,2.7,92,0.00,,---,0.99,VWS V14.00,2013-07-31 02:29:00,
2013-07-30 21:30:00,75.2,72.7,29.80,SW,225,2.7,2.7,92,0.00,,---,0.99,VWS V14.00,2013-07-31 02:30:00,
2013-07-30 21:31:00,75.0,72.5,29.79,SW,225,2.4,2.4,92,0.00,,---,0.99,VWS V14.00,2013-07-31 02:31:00,
2013-07-30 21:32:00,75.0,72.5,29.80,South,180,2.1,2.1,92,0.00,,---,0.99,VWS V14.00,2013-07-31 02:32:00,
2013-07-30 21:33:00,75.0,72.5,29.80,SSE,158,3.0,3.0,92,0.00,,---,0.99,VWS V14.00,2013-07-31 02:33:00,
2013-07-30 21:34:00,75.0,72.5,29.80,SW,225,2.4,2.4,92,0.00,,---,0.99,VWS V14.00,2013-07-31 02:34:00,
2013-07-30 21:35:00,75.0,72.5,29.80,SSW,202,2.7,2.7,92,0.00,,---,0.99,VWS V14.00,2013-07-31 02:35:00,
2013-07-30 21:36:00,75.0,72.5,29.80,SSW,202,2.7,2.7,92,0.00,,---,0.99,VWS V14.00,2013-07-31 02:36:00,
2013-07-30 21:37:00,75.0,72.5,29.79,SW,225,2.7,2.7,92,0.00,,---,0.99,VWS V14.00,2013-07-31 02:37:00,
2013-07-30 21:38:00,75.0,72.5,29.80,SSW,202,2.4,2.4,92,0.00,,---,0.99,VWS V14.00,2013-07-31 02:38:00,
2013-07-30 21:39:00,75.0,72.5,29.80,SSW,202,2.4,2.4,92,0.00,,---,0.99,VWS V14.00,2013-07-31 02:39:00,
2013-07-30 21:40:00,75.0,72.5,29.80,SSW,202,2.4,2.4,92,0.00,,---,0.99,VWS V14.00,2013-07-31 02:40:00,
2013-07-30 21:41:00,75.0,72.5,29.80,SSW,202,2.4,2.4,92,0.00,,---,0.99,VWS V14.00,2013-07-31 02:41:00,
2013-07-30 21:42:00,75.0,72.5,29.80,SSW,202,1.0,1.1,92,0.00,,---,0.99,VWS V14.00,2013-07-31 02:42:00,
2013-07-30 21:43:00,75.0,72.5,29.79,SSW,202,1.0,0.0,92,0.00,,---,0.99,VWS V14.00,2013-07-31 02:43:00,
2013-07-30 21:44:00,75.0,72.5,29.80,SW,225,2.7,2.7,92,0.00,,---,0.99,VWS V14.00,2013-07-31 02:44:00,
2013-07-30 21:45:00,75.0,72.5,29.80,SW,225,1.0,1.3,92,0.00,,---,0.99,VWS V14.00,2013-07-31 02:45:00,
2013-07-30 21:46:00,75.0,72.5,29.80,SW,225,2.4,2.4,92,0.00,,---,0.99,VWS V14.00,2013-07-31 02:46:00,
2013-07-30 21:47:00,75.0,72.5,29.80,SW,225,1.0,1.1,92,0.00,,---,0.99,VWS V14.00,2013-07-31 02:47:00,
2013-07-30 21:48:00,75.0,72.5,29.79,SW,225,1.0,0.0,92,0.00,,---,0.99,VWS V14.00,2013-07-31 02:48:00,
2013-07-30 21:49:00,75.0,72.5,29.80,SW,225,1.0,0.0,92,0.00,,---,0.99,VWS V14.00,2013-07-31 02:49:00,
2013-07-30 21:50:00,75.0,72.5,29.80,SW,225,1.0,0.0,92,0.00,,---,0.99,VWS V14.00,2013-07-31 02:50:00,
2013-07-30 21:51:00,75.0,72.5,29.80,SW,225,1.0,0.0,92,0.00,,---,0.99,VWS V14.00,2013-07-31 02:51:00,
2013-07-30 21:52:00,75.0,72.5,29.80,SW,225,1.0,0.0,92,0.00,,---,0.99,VWS V14.00,2013-07-31 02:52:00,
2013-07-30 21:53:00,75.0,72.5,29.79,SW,225,1.0,0.0,92,0.00,,---,0.99,VWS V14.00,2013-07-31 02:53:00,
2013-07-30 21:54:00,75.0,72.5,29.80,SW,225,1.0,0.0,92,0.00,,---,0.99,VWS V14.00,2013-07-31 02:54:00,
2013-07-30 21:55:00,75.0,72.5,29.80,SW,225,1.0,0.0,92,0.00,,---,0.99,VWS V14.00,2013-07-31 02:55:00,
2013-07-30 21:56:00,75.0,72.5,29.80,SSW,202,2.4,2.4,92,0.00,,---,0.99,VWS V14.00,2013-07-31 02:56:00,
2013-07-30 21:57:00,75.0,72.5,29.80,SSW,202,2.4,2.4,92,0.00,,---,0.99,VWS V14.00,2013-07-31 02:57:00,
2013-07-30 21:58:00,75.0,72.5,29.79,SSW,202,1.0,1.1,92,0.00,,---,0.99,VWS V14.00,2013-07-31 02:58:00,
2013-07-30 21:59:00,75.0,72.5,29.80,South,180,1.0,1.3,92,0.00,,---,0.99,VWS V14.00,2013-07-31 02:59:00,
2013-07-30 22:00:00,75.0,72.5,29.80,South,180,1.0,0.0,92,0.00,,---,0.99,VWS V14.00,2013-07-31 03:00:00,
2013-07-30 22:01:00,75.2,72.7,29.80,South,180,2.1,2.1,92,0.00,,---,0.99,VWS V14.00,2013-07-31 03:01:00,
2013-07-30 22:02:00,75.2,72.7,29.80,South,180,2.1,2.1,92,0.00,,---,0.99,VWS V14.00,2013-07-31 03:02:00,
2013-07-30 22:03:00,75.2,72.7,29.79,South,180,2.7,2.7,92,0.00,,---,0.99,VWS V14.00,2013-07-31 03:03:00,
2013-07-30 22:04:00,75.2,72.7,29.80,South,180,2.7,2.7,92,0.00,,---,0.99,VWS V14.00,2013-07-31 03:04:00,
2013-07-30 22:05:00,75.2,72.7,29.80,South,180,2.7,2.7,92,0.00,,---,0.99,VWS V14.00,2013-07-31 03:05:00,
2013-07-30 22:06:00,75.2,72.7,29.80,SSW,202,2.7,2.7,92,0.00,,---,0.99,VWS V14.00,2013-07-31 03:06:00,
2013-07-30 22:07:00,75.2,72.7,29.80,South,180,1.0,1.3,92,0.00,,---,0.99,VWS V14.00,2013-07-31 03:07:00,
2013-07-30 22:08:00,75.2,72.7,29.80,South,180,1.0,0.0,92,0.00,,---,0.99,VWS V14.00,2013-07-31 03:08:00,
2013-07-30 22:09:00,75.2,72.7,29.79,South,180,1.0,0.0,92,0.00,,---,0.99,VWS V14.00,2013-07-31 03:09:00,
2013-07-30 22:10:00,75.2,72.7,29.80,South,180,1.0,0.0,92,0.00,,---,0.99,VWS V14.00,2013-07-31 03:10:00,
2013-07-30 22:11:00,75.2,72.7,29.80,South,180,1.0,0.0,92,0.00,,---,0.99,VWS V14.00,2013-07-31 03:11:00,
2013-07-30 22:12:00,75.2,72.7,29.80,South,180,2.4,2.4,92,0.00,,---,0.99,VWS V14.00,2013-07-31 03:12:00,
2013-07-30 22:13:00,75.2,72.7,29.80,SSW,202,1.0,1.1,92,0.00,,---,0.99,VWS V14.00,2013-07-31 03:13:00,
2013-07-30 22:14:00,75.2,72.7,29.79,SSW,202,1.0,0.0,92,0.00,,---,0.99,VWS V14.00,2013-07-31 03:14:00,
2013-07-30 22:15:00,75.2,72.7,29.80,SSW,202,3.0,3.0,92,0.00,,---,0.99,VWS V14.00,2013-07-31 03:15:00,
2013-07-30 22:16:00,75.2,72.7,29.80,SSW,202,2.4,2.4,92,0.00,,---,0.99,VWS V14.00,2013-07-31 03:16:00,
2013-07-30 22:17:00,75.2,72.7,29.80,SSW,202,1.0,1.1,92,0.00,,---,0.99,VWS V14.00,2013-07-31 03:17:00,
2013-07-30 22:18:00,75.2,72.7,29.80,SSW,202,1.0,0.0,92,0.00,,---,0.99,VWS V14.00,2013-07-31 03:18:00,
2013-07-30 22:19:00,75.2,72.7,29.79,South,180,3.5,3.5,92,0.00,,---,0.99,VWS V14.00,2013-07-31 03:19:00,
2013-07-30 22:20:00,75.2,72.7,29.80,South,180,2.7,2.7,92,0.00,,---,0.99,VWS V14.00,2013-07-31 03:20:00,
2013-07-30 22:21:00,75.2,72.7,29.80,South,180,2.7,2.7,92,0.00,,---,0.99,VWS V14.00,2013-07-31 03:21:00,
2013-07-30 22:22:00,75.2,72.7,29.80,South,180,2.7,2.7,92,0.00,,---,0.99,VWS V14.00,2013-07-31 03:22:00,
2013-07-30 22:23:00,75.2,72.7,29.80,SSW,202,3.5,3.5,92,0.00,,---,0.99,VWS V14.00,2013-07-31 03:23:00,
2013-07-30 22:24:00,75.2,72.7,29.79,SW,225,3.5,3.5,92,0.00,,---,0.99,VWS V14.00,2013-07-31 03:24:00,
2013-07-30 22:25:00,75.2,72.7,29.80,SW,225,3.5,3.5,92,0.00,,---,0.99,VWS V14.00,2013-07-31 03:25:00,
2013-07-30 22:26:00,75.2,72.7,29.80,SW,225,3.5,3.5,92,0.00,,---,0.99,VWS V14.00,2013-07-31 03:26:00,
2013-07-30 22:27:00,75.2,72.7,29.80,South,180,3.5,3.5,92,0.00,,---,0.99,VWS V14.00,2013-07-31 03:27:00,
2013-07-30 22:28:00,75.2,72.7,29.80,SSE,158,4.1,4.1,92,0.00,,---,0.99,VWS V14.00,2013-07-31 03:28:00,
2013-07-30 22:29:00,75.2,72.7,29.79,SE,135,2.4,2.5,92,0.00,,---,0.99,VWS V14.00,2013-07-31 03:29:00,
2013-07-30 22:30:00,75.2,72.7,29.80,SE,135,2.4,2.4,92,0.00,,---,0.99,VWS V14.00,2013-07-31 03:30:00,
2013-07-30 22:31:00,75.2,72.7,29.80,SE,135,2.4,2.4,92,0.00,,---,0.99,VWS V14.00,2013-07-31 03:31:00,
2013-07-30 22:32:00,75.2,72.7,29.82,SSE,158,4.1,4.1,92,0.00,,---,0.99,VWS V14.00,2013-07-31 03:32:00,
2013-07-30 22:33:00,75.2,72.7,29.82,SSE,158,2.7,2.7,92,0.00,,---,0.99,VWS V14.00,2013-07-31 03:33:00,
2013-07-30 22:34:00,75.2,72.7,29.82,SSE,158,3.0,3.0,92,0.00,,---,0.99,VWS V14.00,2013-07-31 03:34:00,
2013-07-30 22:35:00,75.2,72.7,29.82,South,180,3.0,3.0,92,0.00,,---,0.99,VWS V14.00,2013-07-31 03:35:00,
2013-07-30 22:36:00,75.2,72.7,29.82,South,180,3.0,3.0,92,0.00,,---,0.99,VWS V14.00,2013-07-31 03:36:00,
2013-07-30 22:37:00,75.2,72.7,29.82,SSE,158,3.5,3.5,92,0.00,,---,0.99,VWS V14.00,2013-07-31 03:37:00,
2013-07-30 22:38:00,75.2,72.7,29.82,SSE,158,3.5,3.5,92,0.00,,---,0.99,VWS V14.00,2013-07-31 03:38:00,
2013-07-30 22:39:00,75.2,72.7,29.82,South,180,3.5,3.5,92,0.00,,---,0.99,VWS V14.00,2013-07-31 03:39:00,
2013-07-30 22:40:00,75.2,72.7,29.82,South,180,2.4,2.4,92,0.00,,---,0.99,VWS V14.00,2013-07-31 03:40:00,
2013-07-30 22:41:00,75.2,72.7,29.82,South,180,3.0,3.0,92,0.00,,---,0.99,VWS V14.00,2013-07-31 03:41:00,
2013-07-30 22:42:00,75.2,72.7,29.82,South,180,3.0,3.0,92,0.00,,---,0.99,VWS V14.00,2013-07-31 03:42:00,
2013-07-30 22:43:00,75.2,72.7,29.82,South,180,3.0,3.0,92,0.00,,---,0.99,VWS V14.00,2013-07-31 03:43:00,
2013-07-30 22:44:00,75.2,72.7,29.82,South,180,2.4,2.4,92,0.00,,---,0.99,VWS V14.00,2013-07-31 03:44:00,
2013-07-30 22:45:00,75.2,72.7,29.82,South,180,2.4,2.4,92,0.00,,---,0.99,VWS V14.00,2013-07-31 03:45:00,
2013-07-30 22:46:00,75.2,72.7,29.82,SSW,202,2.4,2.4,92,0.00,,---,0.99,VWS V14.00,2013-07-31 03:46:00,
2013-07-30 22:47:00,75.2,72.7,29.82,SSW,202,2.4,2.4,92,0.00,,---,0.99,VWS V14.00,2013-07-31 03:47:00,
2013-07-30 22:48:00,75.2,72.7,29.82,SSW,202,2.4,2.4,92,0.00,,---,0.99,VWS V14.00,2013-07-31 03:48:00,
2013-07-30 22:49:00,75.2,72.7,29.80,SW,225,2.4,2.4,92,0.00,,---,0.99,VWS V14.00,2013-07-31 03:49:00,
2013-07-30 22:50:00,75.2,72.7,29.80,SSW,202,2.7,2.7,92,0.00,,---,0.99,VWS V14.00,2013-07-31 03:50:00,
2013-07-30 22:51:00,75.2,72.7,29.79,SSW,202,2.7,2.7,92,0.00,,---,0.99,VWS V14.00,2013-07-31 03:51:00,
2013-07-30 23:01:00,75.2,72.7,29.80,SSW,202,2.4,2.4,92,0.00,,---,0.99,VWS V14.00,2013-07-31 04:01:00,
2013-07-30 23:08:00,75.2,72.7,29.79,WSW,248,3.5,3.5,92,0.00,,---,0.99,VWS V14.00,2013-07-31 04:08:00,
2013-07-30 23:14:00,75.2,72.7,29.79,WSW,248,3.5,3.5,92,0.00,,---,0.99,VWS V14.00,2013-07-31 04:14:00,
2013-07-30 23:19:00,75.2,72.7,29.79,South,180,1.0,2.0,92,0.00,,---,0.99,VWS V14.00,2013-07-31 04:19:00,
2013-07-30 23:24:00,75.2,72.7,29.79,SSW,202,2.7,2.7,92,0.00,,---,0.99,VWS V14.00,2013-07-31 04:24:00,
2013-07-30 23:29:00,75.2,72.7,29.79,SSW,202,2.7,2.7,92,0.00,,---,0.99,VWS V14.00,2013-07-31 04:29:00,
2013-07-30 23:34:00,75.2,72.7,29.79,SSW,202,2.7,2.7,92,0.00,,---,0.99,VWS V14.00,2013-07-31 04:34:00,
2013-07-30 23:39:00,75.2,72.7,29.79,SSW,202,2.7,2.7,92,0.00,,---,0.99,VWS V14.00,2013-07-31 04:39:00,
2013-07-30 23:45:00,75.2,72.7,29.79,SSE,158,3.5,3.5,92,0.00,,---,0.99,VWS V14.00,2013-07-31 04:45:00,
2013-07-30 23:50:00,75.2,73.0,29.79,SSE,158,3.5,3.5,93,0.00,,---,0.99,VWS V14.00,2013-07-31 04:50:00,
2013-07-30 23:55:00,75.2,73.0,29.79,SSE,158,3.5,3.5,93,0.00,,---,0.99,VWS V14.00,2013-07-31 04:55:00,